Provisional Data: Conodoguinet Creek near Schlusser, PA


Please select a monitoring station.
Please select start date.
Please select start date.

Toggle Unit: C/F Toggle Unit: C/F
Sample Time Temperature (C) Temperature (F) Specific Conductivity (mS/cm) pH   Turbidity (NTU+) DO (mg/L)
2/4/2021 12:00:00 AM 1.58 34.844 0.529 7.52 1.26 11.76
2/4/2021 12:15:00 AM 1.58 34.844 0.528 7.5 0.91 11.74
2/4/2021 12:30:00 AM 1.61 34.898 0.528 7.52 0.76 11.73
2/4/2021 12:45:00 AM 1.62 34.916 0.527 7.55 1.04 11.66
2/4/2021 1:00:00 AM 1.6 34.88 0.527 7.57 1.15 11.88
2/4/2021 1:15:00 AM 1.62 34.916 0.526 7.58 0.81 11.74
2/4/2021 1:30:00 AM 1.6 34.88 0.526 7.59 0.99 12.05
2/4/2021 1:45:00 AM 1.62 34.916 0.525 7.6 0.87 11.88
2/4/2021 2:00:00 AM 1.63 34.934 0.525 7.59 0.98 11.72
2/4/2021 2:15:00 AM 1.63 34.934 0.524 7.59 1.06 12.1
2/4/2021 2:30:00 AM 1.61 34.898 0.524 7.59 1.01 12.1
2/4/2021 2:45:00 AM 1.64 34.952 0.522 7.59 1.07 12.41
2/4/2021 3:00:00 AM 1.65 34.97 0.522 7.6 1.06 12.52
2/4/2021 3:15:00 AM 1.65 34.97 0.521 7.6 0.99 12.48
2/4/2021 3:30:00 AM 1.67 35.006 0.52 7.61 1.22 12
2/4/2021 3:45:00 AM 1.65 34.97 0.52 7.6 0.77 12.21
2/4/2021 4:00:00 AM 1.66 34.988 0.519 7.6 1.08 12.41
2/4/2021 4:15:00 AM 1.67 35.006 0.518 7.59 1.13 12.01
2/4/2021 4:30:00 AM 1.67 35.006 0.518 7.59 0.97 12.12
2/4/2021 4:45:00 AM 1.64 34.952 0.518 7.59 1.25 11.71
2/4/2021 5:00:00 AM 1.65 34.97 0.518 7.59 1.42 12.34
2/4/2021 5:15:00 AM 1.66 34.988 0.517 7.58 0.86 12.27
2/4/2021 5:30:00 AM 1.63 34.934 0.517 7.58 1.23 12.08
2/4/2021 5:45:00 AM 1.63 34.934 0.516 7.59 1.45 12.14
2/4/2021 6:00:00 AM 1.6 34.88 0.516 7.58 1.38 12.02
2/4/2021 6:15:00 AM 1.62 34.916 0.515 7.57 0.76 11.86
2/4/2021 6:30:00 AM 1.6 34.88 0.514 7.55 1 11.68
2/4/2021 6:45:00 AM 1.54 34.772 0.515 7.55 1.65 11.65
2/4/2021 7:00:00 AM 1.56 34.808 0.514 7.54 1.24 12.22
2/4/2021 7:15:00 AM 1.56 34.808 0.513 7.53 0.97 12.04
2/4/2021 7:30:00 AM 1.54 34.772 0.513 7.54 1.39 11.7
2/4/2021 7:45:00 AM 1.53 34.754 0.513 7.54 0.62 11.85
2/4/2021 8:00:00 AM 1.55 34.79 0.512 7.55 0.82 11.83
2/4/2021 8:15:00 AM 1.53 34.754 0.513 7.55 0.95 11.89
2/4/2021 8:30:00 AM 1.54 34.772 0.513 7.56 0.94 12.1
2/4/2021 8:45:00 AM 1.52 34.736 0.513 7.56 0.85 12.2
2/4/2021 9:00:00 AM 1.51 34.718 0.514 7.56 1.95 12.14
2/4/2021 9:15:00 AM 1.55 34.79 0.514 7.57 1.74 12.24
2/4/2021 9:30:00 AM 1.59 34.862 0.514 7.58 0.98 12.42
2/4/2021 9:45:00 AM 1.61 34.898 0.515 7.58 1.1 12.27
2/4/2021 10:00:00 AM 1.63 34.934 0.516 7.58 1.16 12.63
2/4/2021 10:15:00 AM 1.69 35.042 0.516 7.59 0.86 12.52
2/4/2021 10:30:00 AM 1.74 35.132 0.516 7.61 0.71 12.51
2/4/2021 10:45:00 AM 1.79 35.222 0.516 7.6 1.64 12.74
2/4/2021 11:00:00 AM 1.85 35.33 0.517 7.6 0.84 12.95
2/4/2021 11:15:00 AM 1.93 35.474 0.517 7.59 1.19 12.91
2/4/2021 11:30:00 AM 2.01 35.618 0.518 7.59 1.38 12.78
2/4/2021 11:45:00 AM 2.14 35.852 0.518 7.59 1.04 12.91
2/4/2021 12:00:00 PM 2.26 36.068 0.519 7.58 1.21 13.26
2/4/2021 12:15:00 PM 2.39 36.302 0.519 7.57 1.03 13.25
2/4/2021 12:30:00 PM 2.5 36.5 0.52 7.56 1.15 13.08
2/4/2021 12:45:00 PM 2.65 36.77 0.52 7.55 1.35 13.14
2/4/2021 1:00:00 PM 2.81 37.058 0.52 7.55 1.24 13.14
2/4/2021 1:15:00 PM 2.9 37.22 0.521 7.54 1.83 13.11
2/4/2021 1:30:00 PM 3.03 37.454 0.521 7.52 1.08 13.12
2/4/2021 1:45:00 PM 3.11 37.598 0.523 7.52 1.22 13
2/4/2021 2:00:00 PM 3.12 37.616 0.525 7.51 1.36 13.03
2/4/2021 2:15:00 PM 3.26 37.868 0.524 7.51 1.18 12.7
2/4/2021 2:30:00 PM 3.29 37.922 0.525 7.51 1.4 13.07
2/4/2021 2:45:00 PM 3.28 37.904 0.526 7.51 1.71 12.69
2/4/2021 3:00:00 PM 3.29 37.922 0.527 7.5 1.38 12.77
2/4/2021 3:15:00 PM 3.2 37.76 0.529 7.5 1.37 13.01
2/4/2021 3:30:00 PM 3.14 37.652 0.529 7.51 1.5 13.05
2/4/2021 3:45:00 PM 3.08 37.544 0.53 7.51 1.64 13.18
2/4/2021 4:00:00 PM 2.96 37.328 0.531 7.52 1.26 13.09
2/4/2021 4:15:00 PM 2.83 37.094 0.532 7.52 2.07 13
2/4/2021 4:30:00 PM 2.71 36.878 0.533 7.53 1.27 13.06
2/4/2021 4:45:00 PM 2.58 36.644 0.534 7.53 1.25 13.1
2/4/2021 5:00:00 PM 2.52 36.536 0.534 7.52 1.72 13.01
2/4/2021 5:15:00 PM 2.43 36.374 0.534 7.52 1.38 12.91
2/4/2021 5:30:00 PM 2.36 36.248 0.535 7.54 1.83 12.68
2/4/2021 5:45:00 PM 2.31 36.158 0.535 7.54 1.64 12.74
2/4/2021 6:00:00 PM 2.27 36.086 0.535 7.54 1.26 12.55
2/4/2021 6:15:00 PM 2.21 35.978 0.536 7.54 1.51 12.36
2/4/2021 6:30:00 PM 2.19 35.942 0.537 7.54 1.36 12.14
2/4/2021 6:45:00 PM 2.15 35.87 0.537 7.54 1.31 12.24
2/4/2021 7:00:00 PM 2.12 35.816 0.537 7.53 1.06 12.19
2/4/2021 7:15:00 PM 2.13 35.834 0.537 7.51 0.8 12.22
2/4/2021 7:30:00 PM 2.08 35.744 0.539 7.5 0.9 12.12
2/4/2021 7:45:00 PM 2.07 35.726 0.539 7.5 1.24 12.07
2/4/2021 8:00:00 PM 2.05 35.69 0.54 7.5 1.22 12.21
2/4/2021 8:15:00 PM 2.07 35.726 0.54 7.51 1.13 12.11
2/4/2021 8:30:00 PM 2.04 35.672 0.541 7.51 1.27 12.01
2/4/2021 8:45:00 PM 2.05 35.69 0.541 7.51 0.72 12.07
2/4/2021 9:00:00 PM 2.03 35.654 0.542 7.5 1.67 12.16
2/4/2021 9:15:00 PM 2.03 35.654 0.543 7.5 1 12.05
2/4/2021 9:30:00 PM 2 35.6 0.544 7.5 0.72 11.96
2/4/2021 9:45:00 PM 2.03 35.654 0.543 7.5 1.02 11.97
2/4/2021 10:00:00 PM 2.03 35.654 0.544 7.49 0.6 11.83
2/4/2021 10:15:00 PM 2.04 35.672 0.544 7.49 0.84 11.75
2/4/2021 10:30:00 PM 2.03 35.654 0.545 7.49 0.76 11.75
2/4/2021 10:45:00 PM 2.06 35.708 0.545 7.49 0.88 11.65
2/4/2021 11:00:00 PM 2.06 35.708 0.545 7.5 0.82 11.8
2/4/2021 11:15:00 PM 2.06 35.708 0.546 7.5 1.22 12.01
2/4/2021 11:30:00 PM 2.08 35.744 0.546 7.49 1.81 12
2/4/2021 11:45:00 PM 2.08 35.744 0.546 7.5 1.12 11.94
2/5/2021 12:00:00 AM 2.09 35.762 0.546 7.51 1.24 11.98
2/5/2021 12:15:00 AM 2.12 35.816 0.546 7.51 1.08 11.98
2/5/2021 12:30:00 AM 2.14 35.852 0.546 7.51 0.95 12.14
2/5/2021 12:45:00 AM 2.17 35.906 0.546 7.52 0.98 12.1
2/5/2021 1:00:00 AM 2.19 35.942 0.546 7.52 1.9 11.92
2/5/2021 1:15:00 AM 2.2 35.96 0.547 7.52 1.37 12.02
2/5/2021 1:30:00 AM 2.25 36.05 0.547 7.53 1.06 12.13
2/5/2021 1:45:00 AM 2.27 36.086 0.547 7.54 1.32 12.23
2/5/2021 2:00:00 AM 2.3 36.14 0.547 7.54 0.8 12.18
2/5/2021 2:15:00 AM 2.34 36.212 0.547 7.53 1.24 12.21
2/5/2021 2:30:00 AM 2.37 36.266 0.547 7.54 1.34 12.28
2/5/2021 2:45:00 AM 2.41 36.338 0.547 7.54 1.8 12.21
2/5/2021 3:00:00 AM 2.44 36.392 0.547 7.54 1.13 12.29
2/5/2021 3:15:00 AM 2.48 36.464 0.547 7.54 1.15 12.26
2/5/2021 3:30:00 AM 2.51 36.518 0.548 7.54 1.24 12.27
2/5/2021 3:45:00 AM 2.53 36.554 0.548 7.54 1.32 12.12
2/5/2021 4:00:00 AM 2.55 36.59 0.548 7.55 1.38 12.29
2/5/2021 4:15:00 AM 2.56 36.608 0.548 7.54 2.1 12.32
2/5/2021 4:30:00 AM 2.59 36.662 0.548 7.55 1.91 12.24
2/5/2021 4:45:00 AM 2.61 36.698 0.548 7.56 0.93 12.13
2/5/2021 5:00:00 AM 2.63 36.734 0.549 7.55 1.06 11.85
2/5/2021 5:15:00 AM 2.65 36.77 0.549 7.55 0.9 12.03
2/5/2021 5:30:00 AM 2.67 36.806 0.549 7.56 0.95 12.07
2/5/2021 5:45:00 AM 2.69 36.842 0.549 7.56 0.99 12.17
2/5/2021 6:00:00 AM 2.71 36.878 0.549 7.55 0.94 12.29
2/5/2021 6:15:00 AM 2.72 36.896 0.549 7.56 1.07 12.01
2/5/2021 6:30:00 AM 2.73 36.914 0.549 7.58 1.07 12.23
2/5/2021 6:45:00 AM 2.75 36.95 0.549 7.59 1.16 12.31
2/5/2021 7:00:00 AM 2.76 36.968 0.549 7.59 1.16 12.31
2/5/2021 7:15:00 AM 2.76 36.968 0.549 7.58 1.38 12.19
2/5/2021 7:30:00 AM 2.76 36.968 0.55 7.59 0.95 12.39
2/5/2021 7:45:00 AM 2.76 36.968 0.55 7.58 1.85 12.44
2/5/2021 8:00:00 AM 2.75 36.95 0.55 7.58 1.6 12.44
2/5/2021 8:15:00 AM 2.75 36.95 0.55 7.57 1.94 12.39
2/5/2021 8:30:00 AM 2.77 36.986 0.55 7.58 1.7 12.38
2/5/2021 8:45:00 AM 2.79 37.022 0.551 7.58 1.27 12.45
2/5/2021 9:00:00 AM 2.8 37.04 0.551 7.58 1.06 12.44
2/5/2021 9:15:00 AM 2.83 37.094 0.551 7.58 1.27 12.47
2/5/2021 9:30:00 AM 2.86 37.148 0.551 7.58 1.26 12.51
2/5/2021 9:45:00 AM 2.91 37.238 0.551 7.59 1.11 11.43
2/5/2021 10:00:00 AM 2.98 37.364 0.552 7.58 1.56 10.65
2/5/2021 10:15:00 AM 3.01 37.418 0.552 7.58 1.11 11.17
2/5/2021 10:30:00 AM 3.07 37.526 0.552 7.59 1.44 11.86
2/5/2021 10:45:00 AM 3.14 37.652 0.552 7.59 2.15 11.54
2/5/2021 11:00:00 AM 3.22 37.796 0.552 7.59 1.16 11.95
2/5/2021 11:15:00 AM 3.28 37.904 0.552 7.59 1.71 11.92
2/5/2021 11:30:00 AM 3.37 38.066 0.552 7.6 1.02 12.58
2/5/2021 11:45:00 AM 3.48 38.264 0.551 7.59 1.24 12.17
2/5/2021 12:00:00 PM 3.53 38.354 0.552 7.59 1.19 11.66
2/5/2021 12:15:00 PM 3.66 38.588 0.552 7.59 1.06 11.81
2/5/2021 12:30:00 PM 3.7 38.66 0.553 7.59 0.99 11.82
2/5/2021 12:45:00 PM 3.71 38.678 0.554 7.61 1.13 12.36
2/5/2021 1:00:00 PM 3.74 38.732 0.554 7.61 1.08 12.7
2/5/2021 1:15:00 PM 3.77 38.786 0.554 7.6 1.92 12.88
2/5/2021 1:30:00 PM 3.8 38.84 0.554 7.6 1.08 12.77
2/5/2021 1:45:00 PM 3.82 38.876 0.554 7.59 1.14 12.64
2/5/2021 2:00:00 PM 3.82 38.876 0.555 7.59 1.04 12.62
2/5/2021 2:15:00 PM 3.84 38.912 0.555 7.58 1.38 13.02
2/5/2021 2:30:00 PM 3.95 39.11 0.554 7.58 0.8 12.74
2/5/2021 2:45:00 PM 3.98 39.164 0.555 7.59 1.19 12.58
2/5/2021 3:00:00 PM 4 39.2 0.555 7.59 1.1 12.48
2/5/2021 3:15:00 PM 4.06 39.308 0.555 7.59 1.02 12.68
2/5/2021 3:30:00 PM 4.1 39.38 0.555 7.59 0.93 12.75
2/5/2021 3:45:00 PM 4.09 39.362 0.556 7.58 0.75 12.45
2/5/2021 4:00:00 PM 3.99 39.182 0.557 7.58 1.23 12.37
2/5/2021 4:15:00 PM 3.93 39.074 0.557 7.58 1.41 12.64
2/5/2021 4:30:00 PM 3.82 38.876 0.558 7.58 1.76 12.77
2/5/2021 4:45:00 PM 3.75 38.75 0.558 7.57 3.45 12.61
2/5/2021 5:00:00 PM 3.68 38.624 0.558 7.57 1.58 12.71
2/5/2021 5:15:00 PM 3.61 38.498 0.558 7.58 0.93 12.51
2/5/2021 5:30:00 PM 3.53 38.354 0.558 7.58 1.22 12.66
2/5/2021 5:45:00 PM 3.46 38.228 0.559 7.58 1.34 12.36
2/5/2021 6:00:00 PM 3.4 38.12 0.559 7.58 0.99 12.38
2/5/2021 6:15:00 PM 3.36 38.048 0.559 7.57 1.71 12.38
2/5/2021 6:30:00 PM 3.33 37.994 0.56 7.56 1.06 12.33
2/5/2021 6:45:00 PM 3.28 37.904 0.56 7.56 1.16 12.25
2/5/2021 7:00:00 PM 3.25 37.85 0.559 7.55 1.14 12.14
2/5/2021 7:15:00 PM 3.25 37.85 0.56 7.53 1.43 12.02
2/5/2021 7:30:00 PM 3.23 37.814 0.562 7.51 1.21 12.09
2/5/2021 7:45:00 PM 3.22 37.796 0.561 7.5 1.71 11.98
2/5/2021 8:00:00 PM 3.19 37.742 0.562 7.49 1.37 11.89
2/5/2021 8:15:00 PM 3.18 37.724 0.561 7.48 1.2 11.63
2/5/2021 8:30:00 PM 3.18 37.724 0.564 7.47 1.11 11.81
2/5/2021 8:45:00 PM 3.16 37.688 0.566 7.47 1.31 11.8
2/5/2021 9:00:00 PM 3.15 37.67 0.567 7.46 1.24 11.67
2/5/2021 9:15:00 PM 3.15 37.67 0.567 7.46 1.19 11.75
2/5/2021 9:30:00 PM 3.15 37.67 0.568 7.45 1.15 11.71
2/5/2021 9:45:00 PM 3.15 37.67 0.569 7.45 1.07 12.03
2/5/2021 10:00:00 PM 3.16 37.688 0.57 7.44 1.16 12.07
2/5/2021 10:15:00 PM 3.17 37.706 0.57 7.44 1.01 12.12
2/5/2021 10:30:00 PM 3.17 37.706 0.571 7.44 1.84 12.12
2/5/2021 10:45:00 PM 3.19 37.742 0.571 7.43 0.98 12
2/5/2021 11:00:00 PM 3.2 37.76 0.572 7.44 2.05 11.88
2/5/2021 11:15:00 PM 3.21 37.778 0.572 7.45 1.03 12.01
2/5/2021 11:30:00 PM 3.22 37.796 0.573 7.45 1.13 12.08
2/5/2021 11:45:00 PM 3.22 37.796 0.574 7.46 1.06 12.09
2/6/2021 12:00:00 AM 3.21 37.778 0.575 7.46 1.15 12.07
2/6/2021 12:15:00 AM 3.22 37.796 0.576 7.46 1.19 12.05
2/6/2021 12:30:00 AM 3.22 37.796 0.576 7.46 1.31 12.09
2/6/2021 12:45:00 AM 3.22 37.796 0.577 7.46 3.25 12.15
2/6/2021 1:00:00 AM 3.22 37.796 0.577 7.47 1.21 12.17
2/6/2021 1:15:00 AM 3.22 37.796 0.578 7.47 1.5 12.23
2/6/2021 1:30:00 AM 3.22 37.796 0.579 7.47 0.94 12.27
2/6/2021 1:45:00 AM 3.22 37.796 0.579 7.47 1.16 12.23
2/6/2021 2:00:00 AM 3.22 37.796 0.58 7.47 1.22 12.14
2/6/2021 2:15:00 AM 3.22 37.796 0.58 7.47 1.35 12.24
2/6/2021 2:30:00 AM 3.22 37.796 0.581 7.47 1.19 12.2
2/6/2021 2:45:00 AM 3.22 37.796 0.582 7.47 1.67 12.2
2/6/2021 3:00:00 AM 3.24 37.832 0.581 7.47 1.44 12.21
2/6/2021 3:15:00 AM 3.24 37.832 0.581 7.47 1.09 12.09
2/6/2021 3:30:00 AM 3.24 37.832 0.583 7.47 1.14 12.2
2/6/2021 3:45:00 AM 3.25 37.85 0.583 7.48 1.42 12.22
2/6/2021 4:00:00 AM 3.26 37.868 0.583 7.47 1.26 12.25
2/6/2021 4:15:00 AM 3.28 37.904 0.584 7.47 2.16 12.4
2/6/2021 4:30:00 AM 3.28 37.904 0.584 7.48 1.29 12.14
2/6/2021 4:45:00 AM 3.29 37.922 0.584 7.48 1.23 12.18
2/6/2021 5:00:00 AM 3.29 37.922 0.584 7.48 1.21 12.09
2/6/2021 5:15:00 AM 3.28 37.904 0.584 7.49 2.51 11.98
2/6/2021 5:30:00 AM 3.29 37.922 0.585 7.48 1.22 12.17
2/6/2021 5:45:00 AM 3.28 37.904 0.585 7.49 1.35 12.17
2/6/2021 6:00:00 AM 3.28 37.904 0.585 7.49 0.96 12.11
2/6/2021 6:15:00 AM 3.27 37.886 0.585 7.49 0.97 12.12
2/6/2021 6:30:00 AM 3.25 37.85 0.586 7.49 1.33 11.88
2/6/2021 6:45:00 AM 3.23 37.814 0.586 7.49 1.01 11.78
2/6/2021 7:00:00 AM 3.21 37.778 0.586 7.49 1.45 11.76
2/6/2021 7:15:00 AM 3.21 37.778 0.586 7.5 1.18 11.93
2/6/2021 7:30:00 AM 3.2 37.76 0.586 7.51 1.1 12.04
2/6/2021 7:45:00 AM 3.2 37.76 0.586 7.51 1.31 11.85
2/6/2021 8:00:00 AM 3.21 37.778 0.585 7.51 1.14 11.85
2/6/2021 8:15:00 AM 3.2 37.76 0.585 7.52 1.28 11.94
2/6/2021 8:30:00 AM 3.22 37.796 0.585 7.52 1.45 11.9
2/6/2021 8:45:00 AM 3.24 37.832 0.585 7.52 1.22 11.59
2/6/2021 9:00:00 AM 3.26 37.868 0.584 7.51 1.39 11.78
2/6/2021 9:15:00 AM 3.29 37.922 0.584 7.5 1.53 11.99
2/6/2021 9:30:00 AM 3.32 37.976 0.584 7.51 1.38 12.1
2/6/2021 9:45:00 AM 3.34 38.012 0.584 7.52 1.16 12.25
2/6/2021 10:00:00 AM 3.37 38.066 0.583 7.53 1.26 12.03
2/6/2021 10:15:00 AM 3.4 38.12 0.583 7.54 1.34 11.99
2/6/2021 10:30:00 AM 3.44 38.192 0.582 7.54 1.07 12.06
2/6/2021 10:45:00 AM 3.47 38.246 0.582 7.54 1.95 12.24
2/6/2021 11:00:00 AM 3.53 38.354 0.581 7.54 1.32 12.16
2/6/2021 11:15:00 AM 3.6 38.48 0.581 7.56 1.65 12
2/6/2021 11:30:00 AM 3.7 38.66 0.58 7.56 1.7 12.01
2/6/2021 11:45:00 AM 3.81 38.858 0.58 7.55 1.47 12.03
2/6/2021 12:00:00 PM 3.92 39.056 0.579 7.55 2.26 12.03
2/6/2021 12:15:00 PM 4.06 39.308 0.579 7.55 1.6 11.87
2/6/2021 12:30:00 PM 4.14 39.452 0.579 7.54 1.1 11.47
2/6/2021 12:45:00 PM 4.32 39.776 0.578 7.53 1.38 11.44
2/6/2021 1:00:00 PM 4.43 39.974 0.578 7.53 1.55 11.61
2/6/2021 1:15:00 PM 4.49 40.082 0.578 7.53 1.31 11.4
2/6/2021 1:30:00 PM 4.59 40.262 0.577 7.53 0.93 11.32
2/6/2021 1:45:00 PM 4.56 40.208 0.579 7.52 1.13 11.21
2/6/2021 2:00:00 PM 4.58 40.244 0.579 7.51 1.06 11.14
2/6/2021 2:15:00 PM 4.63 40.334 0.579 7.5 2.09 11.5
2/6/2021 2:30:00 PM 4.65 40.37 0.578 7.5 0.82 10.76
2/6/2021 2:45:00 PM 4.58 40.244 0.579 7.51 1.14 10.58
2/6/2021 3:00:00 PM 4.6 40.28 0.578 7.51 2.23 10.82
2/6/2021 3:15:00 PM 4.52 40.136 0.579 7.51 1.09 10.79
2/6/2021 3:30:00 PM 4.41 39.938 0.58 7.51 1.57 10.95
2/6/2021 3:45:00 PM 4.31 39.758 0.579 7.51 4.45 10.65
2/6/2021 4:00:00 PM 4.22 39.596 0.578 7.5 1.23 10.78
2/6/2021 4:15:00 PM 4.11 39.398 0.578 7.5 1.31 10.66
2/6/2021 4:30:00 PM 4.02 39.236 0.578 7.5 1.78 10.41
2/6/2021 4:45:00 PM 3.95 39.11 0.578 7.5 1.51 10.91
2/6/2021 5:00:00 PM 3.9 39.02 0.578 7.5 1.67 10.9
2/6/2021 5:15:00 PM 3.84 38.912 0.578 7.5 11.06 10.78
2/6/2021 5:30:00 PM 3.81 38.858 0.578 7.5 1.08 10.56
2/6/2021 5:45:00 PM 3.76 38.768 0.578 7.49 1.09 10.47
2/6/2021 6:00:00 PM 3.72 38.696 0.579 7.49 1.31 10.47
2/6/2021 6:15:00 PM 3.66 38.588 0.58 7.48 1.34 10.74
2/6/2021 6:30:00 PM 3.63 38.534 0.579 7.48 1.34 10.76
2/6/2021 6:45:00 PM 3.6 38.48 0.58 7.48 1.33 10.85
2/6/2021 7:00:00 PM 3.56 38.408 0.58 7.49 2.07 10.18
2/6/2021 7:15:00 PM 3.54 38.372 0.58 7.48 1.27 9.86
2/6/2021 7:30:00 PM 3.5 38.3 0.581 7.48 1.25 9.78
2/6/2021 7:45:00 PM 3.49 38.282 0.581 7.47 1.01 10.07
2/6/2021 8:00:00 PM 3.5 38.3 0.581 7.46 0.96 9.97
2/6/2021 8:15:00 PM 3.47 38.246 0.582 7.46 0.85 9.71
2/6/2021 8:30:00 PM 3.44 38.192 0.583 7.46 1.01 9.91
2/6/2021 8:45:00 PM 3.4 38.12 0.584 7.46 0.76 10.13
2/6/2021 9:00:00 PM 3.44 38.192 0.583 7.46 1.45 9.71
2/6/2021 9:15:00 PM 3.43 38.174 0.584 7.45 1.01 9.82
2/6/2021 9:30:00 PM 3.42 38.156 0.585 7.45 1.24 10.45
2/6/2021 9:45:00 PM 3.39 38.102 0.586 7.45 0.66 10.02
2/6/2021 10:00:00 PM 3.41 38.138 0.587 7.44 0.99 9.7
2/6/2021 10:15:00 PM 3.43 38.174 0.587 7.42 1.07 9.43
2/6/2021 10:30:00 PM 3.44 38.192 0.588 7.42 0.89 9.4
2/6/2021 10:45:00 PM 3.41 38.138 0.589 7.42 1.04 9.84
2/6/2021 11:00:00 PM 3.44 38.192 0.589 7.42 1.06 10.09
2/6/2021 11:15:00 PM 3.45 38.21 0.59 7.42 1.04 10.25
2/6/2021 11:30:00 PM 3.47 38.246 0.59 7.42 0.82 9.49
2/6/2021 11:45:00 PM 3.49 38.282 0.591 7.42 0.99 9.19
2/7/2021 12:00:00 AM 3.51 38.318 0.591 7.42 1.25 9.83
2/7/2021 12:15:00 AM 3.53 38.354 0.592 7.43 1.21 9.59
2/7/2021 12:30:00 AM 3.55 38.39 0.593 7.42 1.01 9.1
2/7/2021 12:45:00 AM 3.56 38.408 0.593 7.43 1.28 9.33
2/7/2021 1:00:00 AM 3.58 38.444 0.594 7.43 1.43 9.07
2/7/2021 1:15:00 AM 3.6 38.48 0.595 7.44 1.19 9.07
2/7/2021 1:30:00 AM 3.61 38.498 0.596 7.45 1.18 9.74
2/7/2021 1:45:00 AM 3.62 38.516 0.597 7.45 0.89 9.36
2/7/2021 2:00:00 AM 3.64 38.552 0.598 7.46 1.16 9.69
2/7/2021 2:15:00 AM 3.65 38.57 0.598 7.46 1.03 9.25
2/7/2021 2:30:00 AM 3.66 38.588 0.599 7.46 1.43 9.6
2/7/2021 2:45:00 AM 3.68 38.624 0.6 7.46 1.61 9.3
2/7/2021 3:00:00 AM 3.69 38.642 0.6 7.46 2.09 9.79
2/7/2021 3:15:00 AM 3.71 38.678 0.601 7.47 1.03 9.99
2/7/2021 3:30:00 AM 3.72 38.696 0.602 7.47 0.95 10.35
2/7/2021 3:45:00 AM 3.73 38.714 0.602 7.46 1.01 10.64
2/7/2021 4:00:00 AM 3.75 38.75 0.603 7.45 1.27 10.6
2/7/2021 4:15:00 AM 3.76 38.768 0.603 7.46 2.34 10.97
2/7/2021 4:30:00 AM 3.77 38.786 0.604 7.46 1.3 11.03
2/7/2021 4:45:00 AM 3.77 38.786 0.604 7.46 1.4 10.7
2/7/2021 5:00:00 AM 3.78 38.804 0.604 7.47 1.34 10.82
2/7/2021 5:15:00 AM 3.78 38.804 0.605 7.47 1.54 10.76
2/7/2021 5:30:00 AM 3.79 38.822 0.605 7.46 1.43 9.92
2/7/2021 5:45:00 AM 3.79 38.822 0.605 7.45 1.07 9.8
2/7/2021 6:00:00 AM 3.78 38.804 0.606 7.44 1.05 10.57
2/7/2021 6:15:00 AM 3.78 38.804 0.606 7.44 1.17 10.84
2/7/2021 6:30:00 AM 3.77 38.786 0.607 7.45 1.26 10.98
2/7/2021 6:45:00 AM 3.76 38.768 0.607 7.44 0.76 11
2/7/2021 7:00:00 AM 3.73 38.714 0.608 7.45 1.29 10.12
2/7/2021 7:15:00 AM 3.72 38.696 0.608 7.46 1.45 10.6
2/7/2021 7:30:00 AM 3.72 38.696 0.608 7.47 1.18 10.81
2/7/2021 7:45:00 AM 3.71 38.678 0.608 7.46 1.72 10.95
2/7/2021 8:00:00 AM 3.7 38.66 0.606 7.45 1.81 10.81
2/7/2021 8:15:00 AM 3.69 38.642 0.608 7.43 1.35 10.49
2/7/2021 8:30:00 AM 3.68 38.624 0.608 7.44 1.76 10.56
2/7/2021 8:45:00 AM 3.66 38.588 0.608 7.44 0.74 10.14
2/7/2021 9:00:00 AM 3.64 38.552 0.607 7.46 1.1 10.28
2/7/2021 9:15:00 AM 3.62 38.516 0.607 7.46 1.42 10.27
2/7/2021 9:30:00 AM 3.61 38.498 0.606 7.47 1.06 9.6
2/7/2021 9:45:00 AM 3.6 38.48 0.605 7.47 1.09 9.52
2/7/2021 10:00:00 AM 3.59 38.462 0.605 7.47 0.87 9.57
2/7/2021 10:15:00 AM 3.6 38.48 0.604 7.47 1.7 9.36
2/7/2021 10:30:00 AM 3.6 38.48 0.603 7.47 1.11 9.1
2/7/2021 10:45:00 AM 3.6 38.48 0.603 7.47 2.59 8.46
2/7/2021 11:00:00 AM 3.62 38.516 0.602 7.48 1.84 8.48
2/7/2021 11:15:00 AM 3.63 38.534 0.602 7.48 1.65 8.76
2/7/2021 11:30:00 AM 3.65 38.57 0.601 7.48 1.48 8.89
2/7/2021 11:45:00 AM 3.65 38.57 0.6 7.48 1.3 8.86
2/7/2021 12:00:00 PM 3.68 38.624 0.599 7.47 2 9.6
2/7/2021 12:15:00 PM 3.72 38.696 0.599 7.46 2.3 9.26
2/7/2021 12:30:00 PM 3.76 38.768 0.598 7.45 1.4 8.91
2/7/2021 12:45:00 PM 3.81 38.858 0.598 7.46 2.18 8.99
2/7/2021 1:00:00 PM 3.84 38.912 0.598 7.46 1.47 8.62
2/7/2021 1:15:00 PM 3.86 38.948 0.598 7.46 2.43 8.49
2/7/2021 1:30:00 PM 3.86 38.948 0.598 7.47 1.01 9.02
2/7/2021 1:45:00 PM 3.87 38.966 0.597 7.48 1.42 8.53
2/7/2021 2:00:00 PM 3.88 38.984 0.596 7.48 1.07 8.51
2/7/2021 2:15:00 PM 3.9 39.02 0.596 7.48 0.87 9.79
2/7/2021 2:30:00 PM 3.9 39.02 0.596 7.48 0.66 8.46
2/7/2021 2:45:00 PM 3.91 39.038 0.595 7.46 1.55 8.8
2/7/2021 3:00:00 PM 3.92 39.056 0.595 7.45 1.29 8.14
2/7/2021 3:15:00 PM 3.95 39.11 0.594 7.44 3.32 9.4
2/7/2021 3:30:00 PM 3.95 39.11 0.594 7.45 1.09 9.66
2/7/2021 3:45:00 PM 3.93 39.074 0.594 7.46 2.16 10
2/7/2021 4:00:00 PM 3.92 39.056 0.594 7.47 1.62 10.63
2/7/2021 4:15:00 PM 3.89 39.002 0.595 7.48 1.09 9.4
2/7/2021 4:30:00 PM 3.84 38.912 0.595 7.48 1.23 9.76
2/7/2021 4:45:00 PM 3.79 38.822 0.595 7.48 1.31 10.16
2/7/2021 5:00:00 PM 3.7 38.66 0.595 7.48 1.35 10.32
2/7/2021 5:15:00 PM 3.63 38.534 0.595 7.5 1.78 10.08
2/7/2021 5:30:00 PM 3.59 38.462 0.595 7.5 1.16 9.22
2/7/2021 5:45:00 PM 3.5 38.3 0.596 7.49 1.46 9.04
2/7/2021 6:00:00 PM 3.46 38.228 0.596 7.49 1.55 9.57
2/7/2021 6:15:00 PM 3.43 38.174 0.595 7.48 1.52 8.85
2/7/2021 6:30:00 PM 3.36 38.048 0.595 7.46 1.56 10.02
2/7/2021 6:45:00 PM 3.31 37.958 0.595 7.47 0.79 9.13
2/7/2021 7:00:00 PM 3.3 37.94 0.595 7.45 1.21 8.69
2/7/2021 7:15:00 PM 3.23 37.814 0.596 7.46 0.93 7.8
2/7/2021 7:30:00 PM 3.26 37.868 0.595 7.45 1.62 7.68
2/7/2021 7:45:00 PM 3.22 37.796 0.595 7.44 0.79 8.32
2/7/2021 8:00:00 PM 3.15 37.67 0.595 7.45 1.1 8.88
2/7/2021 8:15:00 PM 3.27 37.886 0.592 7.45 0.79 8.76
2/7/2021 8:30:00 PM 3.15 37.67 0.594 7.45 0.99 8.54
2/7/2021 8:45:00 PM 3.09 37.562 0.594 7.45 3.89 8.93
2/7/2021 9:00:00 PM 3.05 37.49 0.595 7.44 1.34 9.22
2/7/2021 9:15:00 PM 3.03 37.454 0.594 7.43 0.81 9.11
2/7/2021 9:30:00 PM 3.02 37.436 0.594 7.43 1.05 9.19
2/7/2021 9:45:00 PM 2.99 37.382 0.594 7.43 1.32 9.55
2/7/2021 10:00:00 PM 2.97 37.346 0.594 7.43 0.95 9.78
2/7/2021 10:15:00 PM 2.95 37.31 0.594 7.44 1.17 9.51
2/7/2021 10:30:00 PM 2.94 37.292 0.593 7.43 1.02 9.33
2/7/2021 10:45:00 PM 2.92 37.256 0.593 7.43 0.85 9.68
2/7/2021 11:00:00 PM 2.83 37.094 0.594 7.43 0.6 10.2
2/7/2021 11:15:00 PM 2.84 37.112 0.593 7.43 0.88 10
2/7/2021 11:30:00 PM 2.87 37.166 0.592 7.43 0.96 10.33
2/7/2021 11:45:00 PM 2.85 37.13 0.592 7.44 0.66 9.96
2/8/2021 12:00:00 AM 2.88 37.184 0.591 7.42 1.1 10.36
2/8/2021 12:15:00 AM 2.81 37.058 0.591 7.42 1.06 10.53
2/8/2021 12:30:00 AM 2.8 37.04 0.59 7.41 0.77 10.7
2/8/2021 12:45:00 AM 2.8 37.04 0.589 7.42 0.69 11.13
2/8/2021 1:00:00 AM 2.76 36.968 0.589 7.42 0.73 10.67
2/8/2021 1:15:00 AM 2.74 36.932 0.589 7.42 0.8 10.96
2/8/2021 1:30:00 AM 2.72 36.896 0.589 7.42 0.73 10.8
2/8/2021 1:45:00 AM 2.73 36.914 0.587 7.44 0.89 10.19
2/8/2021 2:00:00 AM 2.7 36.86 0.587 7.44 0.99 9.96
2/8/2021 2:15:00 AM 2.72 36.896 0.587 7.44 1 10.22
2/8/2021 2:30:00 AM 2.65 36.77 0.587 7.44 0.7 10.18
2/8/2021 2:45:00 AM 2.68 36.824 0.586 7.45 0.8 9.86
2/8/2021 3:00:00 AM 2.63 36.734 0.586 7.45 0.75 10.5
2/8/2021 3:15:00 AM 2.66 36.788 0.584 7.46 1.08 10.27
2/8/2021 3:30:00 AM 2.59 36.662 0.585 7.47 0.8 10.68
2/8/2021 3:45:00 AM 2.63 36.734 0.584 7.48 0.85 10.56
2/8/2021 4:00:00 AM 2.61 36.698 0.584 7.48 1.01 10.57
2/8/2021 4:15:00 AM 2.59 36.662 0.584 7.48 0.79 10.57
2/8/2021 4:30:00 AM 2.58 36.644 0.583 7.47 0.73 10.87
2/8/2021 4:45:00 AM 2.59 36.662 0.582 7.48 0.99 11.42
2/8/2021 5:00:00 AM 2.57 36.626 0.581 7.49 0.76 10.89
2/8/2021 5:15:00 AM 2.51 36.518 0.582 7.5 0.69 11.22
2/8/2021 5:30:00 AM 2.54 36.572 0.58 7.5 0.76 11.04
2/8/2021 5:45:00 AM 2.56 36.608 0.58 7.5 0.66 10.98
2/8/2021 6:00:00 AM 2.56 36.608 0.58 7.5 0.81 10.62
2/8/2021 6:15:00 AM 2.55 36.59 0.58 7.5 0.98 11.1
2/8/2021 6:30:00 AM 2.49 36.482 0.581 7.5 0.45 11.51
2/8/2021 6:45:00 AM 2.59 36.662 0.578 7.5 0.7 11.09
2/8/2021 7:00:00 AM 2.5 36.5 0.58 7.49 0.52 10.26
2/8/2021 7:15:00 AM 2.48 36.464 0.579 7.49 0.26 11.03
2/8/2021 7:30:00 AM 2.44 36.392 0.579 7.48 0.38 11.03
2/8/2021 7:45:00 AM 2.52 36.536 0.578 7.48 0.75 11.73
2/8/2021 8:00:00 AM 2.4 36.32 0.579 7.49 0.35 11.85
2/8/2021 8:15:00 AM 2.46 36.428 0.578 7.49 0.57 11.94
2/8/2021 8:30:00 AM 2.4 36.32 0.579 7.5 0.33 11.99
2/8/2021 8:45:00 AM 2.4 36.32 0.578 7.49 0.45 12.05
2/8/2021 9:00:00 AM 2.34 36.212 0.58 7.49 0.69 12.56
2/8/2021 9:15:00 AM 2.35 36.23 0.579 7.5 0.4 12.18
2/8/2021 9:30:00 AM 2.38 36.284 0.578 7.49 0.29 12.3
2/8/2021 9:45:00 AM 2.45 36.41 0.577 7.5 0.34 11.95
2/8/2021 10:00:00 AM 2.41 36.338 0.579 7.5 0.42 12.3
2/8/2021 10:15:00 AM 2.43 36.374 0.579 7.48 0.76 12.05
2/8/2021 10:30:00 AM 2.49 36.482 0.579 7.48 0.31 12.13
2/8/2021 10:45:00 AM 2.49 36.482 0.579 7.48 0.46 11.97
2/8/2021 11:00:00 AM 2.59 36.662 0.578 7.48 0.23 12.14
2/8/2021 11:15:00 AM 2.61 36.698 0.578 7.48 0.49 12.18
2/8/2021 11:30:00 AM 2.64 36.752 0.579 7.47 4.76 11.27
2/8/2021 11:45:00 AM 2.73 36.914 0.578 7.48 0.69 12.35
2/8/2021 12:00:00 PM 2.8 37.04 0.578 7.49 0.68 12.52
2/8/2021 12:15:00 PM 2.84 37.112 0.579 7.46 0.51 12.01
2/8/2021 12:30:00 PM 2.92 37.256 0.579 7.45 0.58 11.92
2/8/2021 12:45:00 PM 2.99 37.382 0.579 7.44 1.31 11.77
2/8/2021 1:00:00 PM 3.07 37.526 0.58 7.43 0.91 11.71
2/8/2021 1:15:00 PM 3.17 37.706 0.58 7.44 1.12 11.69
2/8/2021 1:30:00 PM 3.26 37.868 0.58 7.45 0.71 11.84
2/8/2021 1:45:00 PM 3.32 37.976 0.58 7.46 0.76 12.23
2/8/2021 2:00:00 PM 3.35 38.03 0.581 7.46 0.68 11.58
2/8/2021 2:15:00 PM 3.39 38.102 0.581 7.47 0.9 11.68
2/8/2021 2:30:00 PM 3.41 38.138 0.582 7.48 1.06 11.43
2/8/2021 2:45:00 PM 3.41 38.138 0.582 7.49 0.68 12.09
2/8/2021 3:00:00 PM 3.39 38.102 0.583 7.49 0.74 11.7
2/8/2021 3:15:00 PM 3.37 38.066 0.584 7.49 1.12 11.35
2/8/2021 3:30:00 PM 3.35 38.03 0.584 7.48 2.54 12.1
2/8/2021 3:45:00 PM 3.28 37.904 0.585 7.47 0.74 12.47
2/8/2021 4:00:00 PM 3.2 37.76 0.586 7.46 0.83 12.2
2/8/2021 4:15:00 PM 3.15 37.67 0.586 7.46 0.52 12.08
2/8/2021 4:30:00 PM 3.07 37.526 0.586 7.46 1.02 11.81
2/8/2021 4:45:00 PM 2.99 37.382 0.586 7.46 0.4 12.07
2/8/2021 5:00:00 PM 2.9 37.22 0.586 7.46 0.62 12.37
2/8/2021 5:15:00 PM 2.85 37.13 0.587 7.45 0.3 11.93
2/8/2021 5:30:00 PM 2.79 37.022 0.586 7.46 0.83 11.84
2/8/2021 5:45:00 PM 2.73 36.914 0.587 7.45 0.65 11.19
2/8/2021 6:00:00 PM 2.63 36.734 0.588 7.44 0.63 11.21
2/8/2021 6:15:00 PM 2.63 36.734 0.587 7.43 1.27 11.56
2/8/2021 6:30:00 PM 2.57 36.626 0.587 7.42 2.57 12.26
2/8/2021 6:45:00 PM 2.45 36.41 0.588 7.42 0.46 12.15
2/8/2021 7:00:00 PM 2.48 36.464 0.587 7.4 0.39 12.03
2/8/2021 7:15:00 PM 2.42 36.356 0.587 7.4 0.38 11.95
2/8/2021 7:30:00 PM 2.39 36.302 0.588 7.4 0.52 11.95
2/8/2021 7:45:00 PM 2.38 36.284 0.588 7.39 0.32 11.78
2/8/2021 8:00:00 PM 2.37 36.266 0.588 7.38 0.35 12.02
2/8/2021 8:15:00 PM 2.42 36.356 0.587 7.4 0.92 11.83
2/8/2021 8:30:00 PM 2.36 36.248 0.588 7.41 0.53 11.28
2/8/2021 8:45:00 PM 2.39 36.302 0.587 7.4 0.28 11.78
2/8/2021 9:00:00 PM 2.32 36.176 0.588 7.39 0.36 12.07
2/8/2021 9:15:00 PM 2.38 36.284 0.586 7.4 0.48 11.59
2/8/2021 9:30:00 PM 2.23 36.014 0.588 7.39 0.28 12.32
2/8/2021 9:45:00 PM 2.3 36.14 0.587 7.39 0.33 11.84
2/8/2021 10:00:00 PM 2.25 36.05 0.588 7.37 0.32 11.55
2/8/2021 10:15:00 PM 2.23 36.014 0.587 7.36 0.34 12.07
2/8/2021 10:30:00 PM 2.22 35.996 0.587 7.37 0.6 12.52
2/8/2021 10:45:00 PM 2.21 35.978 0.586 7.36 0.84 12.18
2/8/2021 11:00:00 PM 2.22 35.996 0.586 7.34 0.45 12.21
2/8/2021 11:15:00 PM 2.24 36.032 0.585 7.34 0.41 11.85
2/8/2021 11:30:00 PM 2.25 36.05 0.585 7.34 0.27 11.64
2/8/2021 11:45:00 PM 2.28 36.104 0.584 7.35 0.29 10.45
2/9/2021 12:00:00 AM 2.28 36.104 0.584 7.36 0.46 10.3
2/9/2021 12:15:00 AM 2.24 36.032 0.584 7.36 0.65 9.96
2/9/2021 12:30:00 AM 2.25 36.05 0.583 7.36 0.3 10.73
2/9/2021 12:45:00 AM 2.22 35.996 0.583 7.38 0.4 10
2/9/2021 1:00:00 AM 2.26 36.068 0.581 7.38 0.38 11.08
2/9/2021 1:15:00 AM 2.23 36.014 0.581 7.38 0.57 12.31
2/9/2021 1:30:00 AM 2.24 36.032 0.581 7.38 0.33 12.28
2/9/2021 1:45:00 AM 2.25 36.05 0.581 7.39 0.31 11.99
2/9/2021 2:00:00 AM 2.32 36.176 0.58 7.39 0.51 12.23
2/9/2021 2:15:00 AM 2.32 36.176 0.58 7.4 0.44 11.92
2/9/2021 2:30:00 AM 2.34 36.212 0.579 7.4 0.34 12.25
2/9/2021 2:45:00 AM 2.34 36.212 0.579 7.41 0.3 11.6
2/9/2021 3:00:00 AM 2.34 36.212 0.579 7.41 0.29 11.46
2/9/2021 3:15:00 AM 2.35 36.23 0.579 7.4 0.46 11.85
2/9/2021 3:30:00 AM 2.39 36.302 0.577 7.41 0.3 11.98
2/9/2021 3:45:00 AM 2.4 36.32 0.576 7.41 0.75 12.08
2/9/2021 4:00:00 AM 2.4 36.32 0.576 7.42 0.54 12.39
2/9/2021 4:15:00 AM 2.39 36.302 0.576 7.43 0.32 11.94
2/9/2021 4:30:00 AM 2.43 36.374 0.575 7.42 0.27 12.05
2/9/2021 4:45:00 AM 2.41 36.338 0.575 7.42 0.43 12.24
2/9/2021 5:00:00 AM 2.42 36.356 0.574 7.42 0.26 11.89
2/9/2021 5:15:00 AM 2.42 36.356 0.574 7.41 0.31 12.28
2/9/2021 5:30:00 AM 2.41 36.338 0.573 7.41 0.36 12.33
2/9/2021 5:45:00 AM 2.42 36.356 0.572 7.41 0.34 12.32
2/9/2021 6:00:00 AM 2.4 36.32 0.572 7.42 0.22 12.62
2/9/2021 6:15:00 AM 2.41 36.338 0.571 7.42 0.17 12.53
2/9/2021 6:30:00 AM 2.36 36.248 0.571 7.43 0.35 11.86
2/9/2021 6:45:00 AM 2.39 36.302 0.57 7.43 0.25 12.45
2/9/2021 7:00:00 AM 2.38 36.284 0.569 7.44 0.38 12.21
2/9/2021 7:15:00 AM 2.36 36.248 0.569 7.45 0.68 12.16
2/9/2021 7:30:00 AM 2.35 36.23 0.569 7.45 0.43 12.08
2/9/2021 7:45:00 AM 2.35 36.23 0.568 7.45 0.4 11.86
2/9/2021 8:00:00 AM 2.36 36.248 0.568 7.46 1.3 11.49
2/9/2021 8:15:00 AM 2.35 36.23 0.567 7.46 0.38 12.5
2/9/2021 8:30:00 AM 2.35 36.23 0.566 7.45 0.54 12.28
2/9/2021 8:45:00 AM 2.33 36.194 0.566 7.45 4.46 12.41
2/9/2021 9:00:00 AM 2.38 36.284 0.565 7.44 0.27 12.04
2/9/2021 9:15:00 AM 2.34 36.212 0.566 7.44 0.26 12.69
2/9/2021 9:30:00 AM 2.34 36.212 0.566 7.44 0.26 12.78
2/9/2021 9:45:00 AM 2.35 36.23 0.565 7.45 0.25 12.59
2/9/2021 10:00:00 AM 2.34 36.212 0.565 7.45 0.17 12.77
2/9/2021 10:15:00 AM 2.35 36.23 0.565 7.46 0.29 12.66
2/9/2021 10:30:00 AM 2.38 36.284 0.565 7.46 0.36 9.43
2/9/2021 10:45:00 AM 2.37 36.266 0.564 7.46 0.4 12.31
2/9/2021 11:00:00 AM 2.38 36.284 0.564 7.45 0.41 12.67
2/9/2021 11:15:00 AM 2.39 36.302 0.564 7.44 0.63 12.67
2/9/2021 11:30:00 AM 2.41 36.338 0.563 7.44 0.52 12.85
2/9/2021 11:45:00 AM 2.41 36.338 0.563 7.45 0.33 12.61
2/9/2021 12:00:00 PM 2.45 36.41 0.563 7.45 1.09 12.92
2/9/2021 12:15:00 PM 2.5 36.5 0.562 7.47 0.11 12.94
2/9/2021 12:30:00 PM 2.51 36.518 0.562 7.47 0.35 12.87
2/9/2021 12:45:00 PM 2.53 36.554 0.562 7.48 0.39 12.04
2/9/2021 1:00:00 PM 2.54 36.572 0.562 7.48 0.22 12.32
2/9/2021 1:15:00 PM 2.59 36.662 0.561 7.48 0.3 12.74
2/9/2021 1:30:00 PM 2.63 36.734 0.561 7.48 0.56 12.62
2/9/2021 1:45:00 PM 2.64 36.752 0.562 7.48 1.52 12.11
2/9/2021 2:00:00 PM 2.71 36.878 0.562 7.46 0.36 11.44
2/9/2021 2:15:00 PM 2.76 36.968 0.562 7.45 0.77 11.86
2/9/2021 2:30:00 PM 2.77 36.986 0.562 7.45 0.43 10.86
2/9/2021 2:45:00 PM 2.79 37.022 0.562 7.44 0.18 11.22
2/9/2021 3:00:00 PM 2.76 36.968 0.562 7.46 0.27 11.47
2/9/2021 3:15:00 PM 2.75 36.95 0.562 7.45 0.27 11.38
2/9/2021 3:30:00 PM 2.71 36.878 0.562 7.45 0.23 10.88
2/9/2021 3:45:00 PM 2.67 36.806 0.562 7.45 0.22 10.64
2/9/2021 4:00:00 PM 2.63 36.734 0.562 7.43 0.06 10.88
2/9/2021 4:15:00 PM 2.57 36.626 0.564 7.43 0.36 11.09
2/9/2021 4:30:00 PM 2.56 36.608 0.563 7.41 0.25 11.04
2/9/2021 4:45:00 PM 2.54 36.572 0.563 7.4 1.02 11.61
2/9/2021 5:00:00 PM 2.51 36.518 0.563 7.4 0.33 11.05
2/9/2021 5:15:00 PM 2.49 36.482 0.562 7.4 0.23 11.21
2/9/2021 5:30:00 PM 2.48 36.464 0.562 7.39 0.14 11.72
2/9/2021 5:45:00 PM 2.45 36.41 0.562 7.39 0.29 12.18
2/9/2021 6:00:00 PM 2.43 36.374 0.562 7.38 0.29 12.33
2/9/2021 6:15:00 PM 2.41 36.338 0.563 7.38 0.2 11.76
2/9/2021 6:30:00 PM 2.4 36.32 0.563 7.38 0.18 11.97
2/9/2021 6:45:00 PM 2.41 36.338 0.562 7.38 0.2 12.14
2/9/2021 7:00:00 PM 2.37 36.266 0.562 7.38 0.17 11.72
2/9/2021 7:15:00 PM 2.32 36.176 0.563 7.39 0.23 11.88
2/9/2021 7:30:00 PM 2.32 36.176 0.563 7.39 0.17 11.07
2/9/2021 7:45:00 PM 2.32 36.176 0.564 7.38 0.56 11.79
2/9/2021 8:00:00 PM 2.25 36.05 0.565 7.38 0.26 11.55
2/9/2021 8:15:00 PM 2.28 36.104 0.564 7.38 0.27 11.99
2/9/2021 8:30:00 PM 2.25 36.05 0.565 7.38 0.25 12.3
2/9/2021 8:45:00 PM 2.25 36.05 0.565 7.37 0.2 12.29
2/9/2021 9:00:00 PM 2.22 35.996 0.565 7.37 0.65 12.08
2/9/2021 9:15:00 PM 2.16 35.888 0.566 7.36 0.25 12.07
2/9/2021 9:30:00 PM 2.17 35.906 0.566 7.35 0.2 12
2/9/2021 9:45:00 PM 2.16 35.888 0.566 7.34 0.29 11.97
2/9/2021 10:00:00 PM 2.13 35.834 0.566 7.34 0.29 12.01
2/9/2021 10:15:00 PM 2.13 35.834 0.566 7.34 0.23 11.68
2/9/2021 10:30:00 PM 2.14 35.852 0.566 7.34 0.15 11.28
2/9/2021 10:45:00 PM 2.13 35.834 0.566 7.34 0.31 11.02
2/9/2021 11:00:00 PM 2.12 35.816 0.565 7.34 0.16 11.89
2/9/2021 11:15:00 PM 2.17 35.906 0.565 7.34 0.23 11.28
2/9/2021 11:30:00 PM 2.15 35.87 0.565 7.34 0.22 10.7
2/9/2021 11:45:00 PM 2.14 35.852 0.565 7.34 0.11 10.49
2/10/2021 12:00:00 AM 2.12 35.816 0.565 7.34 0.26 11.29
2/10/2021 12:15:00 AM 2.07 35.726 0.566 7.34 0.65 11.92
2/10/2021 12:30:00 AM 2.09 35.762 0.565 7.34 0.18 11.44
2/10/2021 12:45:00 AM 2.1 35.78 0.565 7.35 0.74 11.43
2/10/2021 1:00:00 AM 2.1 35.78 0.565 7.36 0.26 10.88
2/10/2021 1:15:00 AM 2.13 35.834 0.565 7.37 0.15 8.57
2/10/2021 1:30:00 AM 2.12 35.816 0.565 7.37 0.42 10.71
2/10/2021 1:45:00 AM 2.11 35.798 0.565 7.36 0.25 11.27
2/10/2021 2:00:00 AM 2.14 35.852 0.564 7.37 0.29 11.9
2/10/2021 2:15:00 AM 2.17 35.906 0.564 7.38 0.29 11.46
2/10/2021 2:30:00 AM 2.18 35.924 0.564 7.38 0.29 12.01
2/10/2021 2:45:00 AM 2.17 35.906 0.564 7.38 0.32 11.8
2/10/2021 3:00:00 AM 2.17 35.906 0.563 7.39 0.21 12.36
2/10/2021 3:15:00 AM 2.17 35.906 0.563 7.4 0.71 12.65
2/10/2021 3:30:00 AM 2.18 35.924 0.563 7.41 0.31 12.47
2/10/2021 3:45:00 AM 2.18 35.924 0.562 7.42 0.24 12.2
2/10/2021 4:00:00 AM 2.21 35.978 0.561 7.43 0.24 12.55
2/10/2021 4:15:00 AM 2.19 35.942 0.561 7.44 0.32 12.71
2/10/2021 4:30:00 AM 2.16 35.888 0.561 7.44 0.37 12.36
2/10/2021 4:45:00 AM 2.19 35.942 0.56 7.45 0.22 12.64
2/10/2021 5:00:00 AM 2.15 35.87 0.56 7.45 0.27 12.4
2/10/2021 5:15:00 AM 2.19 35.942 0.559 7.44 0.15 12.62
2/10/2021 5:30:00 AM 2.16 35.888 0.558 7.45 0.33 12.6
2/10/2021 5:45:00 AM 2.16 35.888 0.558 7.46 0.23 12.65
2/10/2021 6:00:00 AM 2.16 35.888 0.557 7.45 0.18 12.06
2/10/2021 6:15:00 AM 2.12 35.816 0.557 7.46 0.31 12.32
2/10/2021 6:30:00 AM 2.13 35.834 0.556 7.47 0.29 12.51
2/10/2021 6:45:00 AM 2.14 35.852 0.555 7.47 0.41 12.65
2/10/2021 7:00:00 AM 2.15 35.87 0.554 7.46 0.61 12.74
2/10/2021 7:15:00 AM 2.14 35.852 0.554 7.46 0.23 12.68
2/10/2021 7:30:00 AM 2.16 35.888 0.553 7.47 0.18 12.42
2/10/2021 7:45:00 AM 2.17 35.906 0.552 7.48 0.36 12.48
2/10/2021 8:00:00 AM 2.16 35.888 0.551 7.48 0.3 12.54
2/10/2021 8:15:00 AM 2.2 35.96 0.549 7.47 0.31 11.94
2/10/2021 8:30:00 AM 2.21 35.978 0.548 7.47 0.48 12.85
2/10/2021 8:45:00 AM 2.27 36.086 0.547 7.48 0.22 13.26
2/10/2021 9:00:00 AM 2.29 36.122 0.546 7.5 0.22 13.08
2/10/2021 9:15:00 AM 2.31 36.158 0.545 7.49 0.37 12.8
2/10/2021 9:30:00 AM 2.33 36.194 0.544 7.5 0.25 12.87
2/10/2021 9:45:00 AM 2.35 36.23 0.544 7.51 0.24 13.18
2/10/2021 10:00:00 AM 2.41 36.338 0.542 7.52 0.2 13.66
2/10/2021 10:15:00 AM 2.45 36.41 0.541 7.53 0.66 13.29
2/10/2021 10:30:00 AM 2.49 36.482 0.541 7.53 0.3 13.37
2/10/2021 10:45:00 AM 2.52 36.536 0.54 7.54 0.18 13.19
2/10/2021 11:00:00 AM 2.55 36.59 0.539 7.55 0.26 13.11
2/10/2021 11:15:00 AM 2.6 36.68 0.538 7.55 0.18 13.07
2/10/2021 11:30:00 AM 2.65 36.77 0.537 7.55 0.46 13.28
2/10/2021 11:45:00 AM 2.69 36.842 0.536 7.55 1.58 13.23
2/10/2021 12:00:00 PM 2.74 36.932 0.535 7.55 0.28 12.88
2/10/2021 12:15:00 PM 2.78 37.004 0.535 7.55 0.2 12.78
2/10/2021 12:30:00 PM 2.8 37.04 0.534 7.55 0.27 12.86
2/10/2021 12:45:00 PM 2.81 37.058 0.533 7.57 0.26 13.45
2/10/2021 1:00:00 PM 2.86 37.148 0.532 7.56 0.12 13.36
2/10/2021 1:15:00 PM 2.89 37.202 0.531 7.57 0.21 12.99
2/10/2021 1:30:00 PM 2.88 37.184 0.53 7.56 0.37 12.79
2/10/2021 1:45:00 PM 2.88 37.184 0.53 7.55 0.28 13.18
2/10/2021 2:00:00 PM 2.88 37.184 0.531 7.52 0.18 13.05
2/10/2021 2:15:00 PM 2.89 37.202 0.531 7.5 0.33 12.87
2/10/2021 2:30:00 PM 2.91 37.238 0.53 7.49 0.58 12.43
2/10/2021 2:45:00 PM 2.91 37.238 0.529 7.5 0.52 12.91
2/10/2021 3:00:00 PM 2.9 37.22 0.529 7.5 0.66 12.06
2/10/2021 3:15:00 PM 2.91 37.238 0.528 7.49 0.34 12.5
2/10/2021 3:30:00 PM 2.9 37.22 0.528 7.49 0.17 13.13
2/10/2021 3:45:00 PM 2.88 37.184 0.528 7.49 0.3 12.99
2/10/2021 4:00:00 PM 2.86 37.148 0.528 7.47 0.4 13.21
2/10/2021 4:15:00 PM 2.86 37.148 0.527 7.48 0.22 12.7
2/10/2021 4:30:00 PM 2.83 37.094 0.527 7.48 0.23 12.63
2/10/2021 4:45:00 PM 2.8 37.04 0.526 7.49 0.28 12.56
2/10/2021 5:00:00 PM 2.78 37.004 0.526 7.49 0.1 12.64
2/10/2021 5:15:00 PM 2.75 36.95 0.526 7.48 0.17 12.86
2/10/2021 5:30:00 PM 2.72 36.896 0.526 7.47 0.33 12.62
2/10/2021 5:45:00 PM 2.71 36.878 0.526 7.47 0.29 12.66
2/10/2021 6:00:00 PM 2.66 36.788 0.526 7.46 0.57 12.4
2/10/2021 6:15:00 PM 2.64 36.752 0.526 7.45 0.43 12.33
2/10/2021 6:30:00 PM 2.64 36.752 0.527 7.43 0.48 12.21
2/10/2021 6:45:00 PM 2.62 36.716 0.527 7.42 0.61 11.37
2/10/2021 7:00:00 PM 2.64 36.752 0.526 7.42 0.42 11.25
2/10/2021 7:15:00 PM 2.59 36.662 0.527 7.42 0.33 11.89
2/10/2021 7:30:00 PM 2.59 36.662 0.528 7.41 1.4 11.46
2/10/2021 7:45:00 PM 2.6 36.68 0.528 7.41 0.3 10.78
2/10/2021 8:00:00 PM 2.6 36.68 0.528 7.42 0.25 10.78
2/10/2021 8:15:00 PM 2.6 36.68 0.529 7.42 0.41 10.36
2/10/2021 8:30:00 PM 2.59 36.662 0.53 7.41 0.17 10.11
2/10/2021 8:45:00 PM 2.59 36.662 0.531 7.41 0.41 11.27
2/10/2021 9:00:00 PM 2.58 36.644 0.532 7.41 0.31 12.15
2/10/2021 9:15:00 PM 2.57 36.626 0.532 7.4 0.29 12.24
2/10/2021 9:30:00 PM 2.57 36.626 0.533 7.4 0.38 11.78
2/10/2021 9:45:00 PM 2.57 36.626 0.534 7.4 0.48 12.15
2/10/2021 10:00:00 PM 2.55 36.59 0.535 7.38 0.33 11.47
2/10/2021 10:15:00 PM 2.53 36.554 0.535 7.4 0.18 11.77
2/10/2021 10:30:00 PM 2.49 36.482 0.536 7.4 0.39 11.8
2/10/2021 10:45:00 PM 2.46 36.428 0.537 7.4 0.33 11.46
2/10/2021 11:00:00 PM 2.47 36.446 0.537 7.39 0.3 11.39
2/10/2021 11:15:00 PM 2.41 36.338 0.538 7.39 0.24 11.98
2/10/2021 11:30:00 PM 2.44 36.392 0.538 7.39 0.27 11.61
2/10/2021 11:45:00 PM 2.36 36.248 0.54 7.38 0.44 11.17
2/11/2021 12:00:00 AM 2.38 36.284 0.539 7.38 0.4 11.28
2/11/2021 12:15:00 AM 2.38 36.284 0.54 7.38 0.64 9
2/11/2021 12:30:00 AM 2.36 36.248 0.541 7.38 0.24 10.66
2/11/2021 12:45:00 AM 2.36 36.248 0.541 7.38 0.42 10.97
2/11/2021 1:00:00 AM 2.34 36.212 0.542 7.39 0.21 11.82
2/11/2021 1:15:00 AM 2.33 36.194 0.544 7.39 0.26 11.66
2/11/2021 1:30:00 AM 2.32 36.176 0.545 7.41 0.33 10.88
2/11/2021 1:45:00 AM 2.35 36.23 0.545 7.4 0.23 10.64
2/11/2021 2:00:00 AM 2.38 36.284 0.546 7.4 0.27 10.72
2/11/2021 2:15:00 AM 2.39 36.302 0.547 7.41 0.21 11.83
2/11/2021 2:30:00 AM 2.37 36.266 0.548 7.41 0.28 12.25
2/11/2021 2:45:00 AM 2.39 36.302 0.548 7.42 0.48 12.32
2/11/2021 3:00:00 AM 2.41 36.338 0.549 7.43 1.15 12.1
2/11/2021 3:15:00 AM 2.42 36.356 0.55 7.43 0.36 12.27
2/11/2021 3:30:00 AM 2.46 36.428 0.55 7.44 0.51 12.06
2/11/2021 3:45:00 AM 2.45 36.41 0.551 7.45 0.4 12.24
2/11/2021 4:00:00 AM 2.47 36.446 0.552 7.47 0.42 12.5
2/11/2021 4:15:00 AM 2.48 36.464 0.552 7.48 0.19 11.84
2/11/2021 4:30:00 AM 2.47 36.446 0.553 7.49 0.47 12.34
2/11/2021 4:45:00 AM 2.49 36.482 0.553 7.5 0.47 12.26
2/11/2021 5:00:00 AM 2.52 36.536 0.553 7.5 1.79 12.31
2/11/2021 5:15:00 AM 2.52 36.536 0.553 7.5 0.4 12.06
2/11/2021 5:30:00 AM 2.54 36.572 0.553 7.5 0.31 12.1
2/11/2021 5:45:00 AM 2.52 36.536 0.553 7.51 0.13 12.04
2/11/2021 6:00:00 AM 2.54 36.572 0.552 7.52 0.22 12.44
2/11/2021 6:15:00 AM 2.56 36.608 0.552 7.52 0.3 12.23
2/11/2021 6:30:00 AM 2.55 36.59 0.551 7.53 0.78 12.24
2/11/2021 6:45:00 AM 2.55 36.59 0.551 7.53 0.14 12.84
2/11/2021 7:00:00 AM 2.55 36.59 0.55 7.54 0.24 12.53
2/11/2021 7:15:00 AM 2.54 36.572 0.55 7.54 0.27 12
2/11/2021 7:30:00 AM 2.57 36.626 0.548 7.53 1.52 12.09
2/11/2021 7:45:00 AM 2.57 36.626 0.548 7.5 0.59 12.58
2/11/2021 8:00:00 AM 2.58 36.644 0.548 7.51 0.63 12.61
2/11/2021 8:15:00 AM 2.56 36.608 0.548 7.52 0.36 12.57
2/11/2021 8:30:00 AM 2.58 36.644 0.547 7.51 0.42 12.61
2/11/2021 8:45:00 AM 2.55 36.59 0.547 7.52 0.33 12.57
2/11/2021 9:00:00 AM 2.56 36.608 0.546 7.52 0.24 12.17
2/11/2021 9:15:00 AM 2.57 36.626 0.544 7.53 0.23 12.75
2/11/2021 9:30:00 AM 2.57 36.626 0.543 7.54 2.24 12.73
2/11/2021 9:45:00 AM 2.58 36.644 0.542 7.55 0.24 12.95
2/11/2021 10:00:00 AM 2.58 36.644 0.541 7.55 0.33 12.99
2/11/2021 10:15:00 AM 2.62 36.716 0.54 7.55 0.34 12.5
2/11/2021 10:30:00 AM 2.63 36.734 0.539 7.54 0.06 12.7
2/11/2021 10:45:00 AM 2.65 36.77 0.538 7.53 0.17 12.4
2/11/2021 11:00:00 AM 2.7 36.86 0.537 7.54 0.29 11.33
2/11/2021 11:15:00 AM 2.75 36.95 0.536 7.53 0.14 11.23
2/11/2021 11:30:00 AM 2.79 37.022 0.535 7.54 0.27 10.25
2/11/2021 11:45:00 AM 2.84 37.112 0.534 7.56 0.28 11.49
2/11/2021 12:00:00 PM 2.85 37.13 0.532 7.57 0.18 12.12
2/11/2021 12:15:00 PM 2.88 37.184 0.53 7.58 0.35 12.26
2/11/2021 12:30:00 PM 2.9 37.22 0.529 7.59 0.24 11.75
2/11/2021 12:45:00 PM 2.9 37.22 0.528 7.59 0.51 12.03
2/11/2021 1:00:00 PM 2.9 37.22 0.527 7.59 0.48 12.74
2/11/2021 1:15:00 PM 2.91 37.238 0.526 7.6 0.21 12.07
2/11/2021 1:30:00 PM 2.91 37.238 0.525 7.6 0.3 12.07
2/11/2021 1:45:00 PM 2.91 37.238 0.524 7.6 0.34 11.94
2/11/2021 2:00:00 PM 2.9 37.22 0.523 7.59 0.34 12.02
2/11/2021 2:15:00 PM 2.91 37.238 0.522 7.58 0.2 10.69
2/11/2021 2:30:00 PM 2.91 37.238 0.522 7.57 0.28 9.68
2/11/2021 2:45:00 PM 2.9 37.22 0.521 7.56 0.33 7.51
2/11/2021 3:00:00 PM 2.87 37.166 0.521 7.56 2.25 9.26
2/11/2021 3:15:00 PM 2.85 37.13 0.52 7.56 0.54 8.08
2/11/2021 3:30:00 PM 2.83 37.094 0.52 7.54 0.24 7.05
2/11/2021 3:45:00 PM 2.85 37.13 0.518 7.54 0.31 7.69
2/11/2021 4:00:00 PM 2.81 37.058 0.518 7.54 0.32 8.89
2/11/2021 4:15:00 PM 2.81 37.058 0.516 7.54 0.82 6.97
2/11/2021 4:30:00 PM 2.78 37.004 0.516 7.53 0.29 7.87
2/11/2021 4:45:00 PM 2.77 36.986 0.515 7.53 0.12 6.46
2/11/2021 5:00:00 PM 2.74 36.932 0.515 7.53 0.26 7.13
2/11/2021 5:15:00 PM 2.72 36.896 0.514 7.52 0.19 8.11
2/11/2021 5:30:00 PM 2.68 36.824 0.514 7.51 0.32 8.93
2/11/2021 5:45:00 PM 2.67 36.806 0.513 7.5 0.16 7.24
2/11/2021 6:00:00 PM 2.64 36.752 0.514 7.49 0.42 7.09
2/11/2021 6:15:00 PM 2.61 36.698 0.514 7.49 0.3 5.59
2/11/2021 6:30:00 PM 2.63 36.734 0.514 7.47 0.74 4.74
2/11/2021 6:45:00 PM 2.59 36.662 0.514 7.46 0.49 6.94
2/11/2021 7:00:00 PM 2.57 36.626 0.514 7.45 0.25 5.3
2/11/2021 7:15:00 PM 2.56 36.608 0.513 7.44 0.22 5.78
2/11/2021 7:30:00 PM 2.57 36.626 0.514 7.42 0.12 5.32
2/11/2021 7:45:00 PM 2.51 36.518 0.515 7.41 0.32 4.43
2/11/2021 8:00:00 PM 2.52 36.536 0.514 7.42 0.14 4.75
2/11/2021 8:15:00 PM 2.5 36.5 0.515 7.42 0.18 5.27
2/11/2021 8:30:00 PM 2.52 36.536 0.515 7.41 0.3 3.92
2/11/2021 8:45:00 PM 2.5 36.5 0.516 7.4 0.44 3.47
2/11/2021 9:00:00 PM 2.48 36.464 0.517 7.4 0.48 4.1
2/11/2021 9:15:00 PM 2.48 36.464 0.517 7.39 0.6 3.7
2/11/2021 9:30:00 PM 2.46 36.428 0.517 7.39 1.99 4.3
2/11/2021 9:45:00 PM 2.45 36.41 0.517 7.38 0.24 4.37
2/11/2021 10:00:00 PM 2.47 36.446 0.517 7.38 0.37 5.53
2/11/2021 10:15:00 PM 2.46 36.428 0.518 7.36 0.24 4.91
2/11/2021 10:30:00 PM 2.44 36.392 0.519 7.37 0.38 3.34
2/11/2021 10:45:00 PM 2.43 36.374 0.519 7.37 0.06 3.79
2/11/2021 11:00:00 PM 2.44 36.392 0.519 7.37 0.09 4.11
2/11/2021 11:15:00 PM 2.44 36.392 0.519 7.38 0.33 3.64
2/11/2021 11:30:00 PM 2.46 36.428 0.519 7.37 0.29 2.68
2/11/2021 11:45:00 PM 2.46 36.428 0.52 7.37 0.13 3.34
2/12/2021 12:00:00 AM 2.39 36.302 0.521 7.38 0.27 4.25
2/12/2021 12:15:00 AM 2.41 36.338 0.521 7.37 0.29 5.23
2/12/2021 12:30:00 AM 2.35 36.23 0.522 7.37 0.58 7.18
2/12/2021 12:45:00 AM 2.39 36.302 0.521 7.38 0.1 6.27
2/12/2021 1:00:00 AM 2.37 36.266 0.522 7.38 0.27 8.14
2/12/2021 1:15:00 AM 2.4 36.32 0.522 7.38 0.39 7.54
2/12/2021 1:30:00 AM 2.35 36.23 0.523 7.38 0.61 8.87
2/12/2021 1:45:00 AM 2.38 36.284 0.523 7.39 0.32 9.33
2/12/2021 2:00:00 AM 2.36 36.248 0.523 7.39 0.36 10.05
2/12/2021 2:15:00 AM 2.37 36.266 0.523 7.4 0.35 6.62
2/12/2021 2:30:00 AM 2.37 36.266 0.523 7.4 0.28 5.14
2/12/2021 2:45:00 AM 2.38 36.284 0.523 7.41 0.25 6.12
2/12/2021 3:00:00 AM 2.36 36.248 0.523 7.42 0.17 6.32
2/12/2021 3:15:00 AM 2.34 36.212 0.523 7.41 0.32 5.95
2/12/2021 3:30:00 AM 2.37 36.266 0.523 7.41 0.46 3.64
2/12/2021 3:45:00 AM 2.36 36.248 0.523 7.41 0.33 3.61
2/12/2021 4:00:00 AM 2.34 36.212 0.524 7.41 0.18 4.27
2/12/2021 4:15:00 AM 2.33 36.194 0.523 7.42 0.4 4.8
2/12/2021 4:30:00 AM 2.34 36.212 0.523 7.42 0.22 3.46
2/12/2021 4:45:00 AM 2.34 36.212 0.523 7.41 0.24 3.25
2/12/2021 5:00:00 AM 2.31 36.158 0.524 7.42 0.32 4.21
2/12/2021 5:15:00 AM 2.3 36.14 0.523 7.42 0.46 3.39
2/12/2021 5:30:00 AM 2.28 36.104 0.523 7.44 0.46 7.18
2/12/2021 5:45:00 AM 2.31 36.158 0.522 7.44 0.34 7.24
2/12/2021 6:00:00 AM 2.28 36.104 0.521 7.45 1.47 9.63
2/12/2021 6:15:00 AM 2.28 36.104 0.521 7.46 0.27 7.47
2/12/2021 6:30:00 AM 2.3 36.14 0.519 7.48 0.2 3.26
2/12/2021 6:45:00 AM 2.3 36.14 0.519 7.48 0.21 4.28
2/12/2021 7:00:00 AM 2.28 36.104 0.519 7.49 0.3 4.77
2/12/2021 7:15:00 AM 2.28 36.104 0.519 7.49 0.44 5.6
2/12/2021 7:30:00 AM 2.31 36.158 0.517 7.5 0.29 4.28
2/12/2021 7:45:00 AM 2.32 36.176 0.516 7.5 0.73 4.22
2/12/2021 8:00:00 AM 2.33 36.194 0.515 7.51 0.32 3.75
2/12/2021 8:15:00 AM 2.31 36.158 0.515 7.52 0.31 3.2
2/12/2021 8:30:00 AM 2.33 36.194 0.514 7.53 0.27 4.47
2/12/2021 8:45:00 AM 2.37 36.266 0.513 7.51 0.62 3.5
2/12/2021 9:00:00 AM 2.39 36.302 0.512 7.51 0.19 3.37
2/12/2021 9:15:00 AM 2.4 36.32 0.511 7.52 0.25 2.95
2/12/2021 9:30:00 AM 2.41 36.338 0.511 7.53 0.28 3.5
2/12/2021 9:45:00 AM 2.44 36.392 0.51 7.54 0.28 3.69
2/12/2021 10:00:00 AM 2.47 36.446 0.509 7.54 0.22 4.51
2/12/2021 10:15:00 AM 2.5 36.5 0.509 7.54 0.35 2.55
2/12/2021 10:30:00 AM 2.53 36.554 0.508 7.55 0.25 2.23
2/12/2021 10:45:00 AM 2.58 36.644 0.507 7.56 0.24 1.88
2/12/2021 11:00:00 AM 2.59 36.662 0.505 7.56 0.25 2.46
2/12/2021 11:15:00 AM 2.62 36.716 0.505 7.56 0.17 2.95
2/12/2021 11:30:00 AM 2.63 36.734 0.504 7.56 0.29 2.71
2/12/2021 11:45:00 AM 2.64 36.752 0.503 7.57 0.26 2.31
2/12/2021 12:00:00 PM 2.66 36.788 0.502 7.57 0.34 3.19
2/12/2021 12:15:00 PM 2.7 36.86 0.501 7.58 0.33 4.84
2/12/2021 12:30:00 PM 2.73 36.914 0.5 7.58 0.38 5.63
2/12/2021 12:45:00 PM 2.77 36.986 0.499 7.57 0.14 6.05
2/12/2021 1:00:00 PM 2.8 37.04 0.499 7.56 0.29 5.9
2/12/2021 1:15:00 PM 2.84 37.112 0.498 7.57 0.18 3.88
2/12/2021 1:30:00 PM 2.87 37.166 0.497 7.57 0.25 4.11
2/12/2021 1:45:00 PM 2.89 37.202 0.496 7.58 0.25 3.83
2/12/2021 2:00:00 PM 2.9 37.22 0.496 7.58 0.29 3.06
2/12/2021 2:15:00 PM 2.91 37.238 0.495 7.58 0.37 1.94
2/12/2021 2:30:00 PM 2.92 37.256 0.495 7.58 0.32 2.69
2/12/2021 2:45:00 PM 2.91 37.238 0.494 7.58 0.14 2.42
2/12/2021 3:00:00 PM 2.9 37.22 0.494 7.58 0.36 1.77
2/12/2021 3:15:00 PM 2.87 37.166 0.494 7.58 0.27 1.57
2/12/2021 3:30:00 PM 2.84 37.112 0.493 7.57 0.74 1.63
2/12/2021 3:45:00 PM 2.82 37.076 0.492 7.57 0.23 1.6
2/12/2021 4:00:00 PM 2.79 37.022 0.492 7.57 0.2 1.66
2/12/2021 4:15:00 PM 2.77 36.986 0.491 7.56 0.25 3.85
2/12/2021 4:30:00 PM 2.74 36.932 0.49 7.55 0.25 3.51
2/12/2021 4:45:00 PM 2.73 36.914 0.49 7.55 0.2 1.91
2/12/2021 5:00:00 PM 2.73 36.914 0.489 7.55 0.09 2.5
2/12/2021 5:15:00 PM 2.7 36.86 0.488 7.55 0.2 2.25
2/12/2021 5:30:00 PM 2.65 36.77 0.489 7.54 0.34 4.37
2/12/2021 5:45:00 PM 2.67 36.806 0.488 7.54 0.37 3.15
2/12/2021 6:00:00 PM 2.64 36.752 0.487 7.53 0.57 3.76
2/12/2021 6:15:00 PM 2.66 36.788 0.486 7.53 0.32 2.79
2/12/2021 6:30:00 PM 2.6 36.68 0.487 7.52 0.2 3
2/12/2021 6:45:00 PM 2.6 36.68 0.486 7.52 0.16 1.93
2/12/2021 7:00:00 PM 2.6 36.68 0.486 7.51 0.12 1.57
2/12/2021 7:15:00 PM 2.56 36.608 0.486 7.51 0.38 1.07
2/12/2021 7:30:00 PM 2.54 36.572 0.486 7.51 0.28 1.84
2/12/2021 7:45:00 PM 2.53 36.554 0.486 7.48 0.13 2.21
2/12/2021 8:00:00 PM 2.51 36.518 0.486 7.48 0.19 2.06
2/12/2021 8:15:00 PM 2.52 36.536 0.486 7.48 0.3 1.42
2/12/2021 8:30:00 PM 2.46 36.428 0.487 7.46 0.26 3.39
2/12/2021 8:45:00 PM 2.48 36.464 0.486 7.45 0.37 4.05
2/12/2021 9:00:00 PM 2.46 36.428 0.487 7.46 0.23 2.54
2/12/2021 9:15:00 PM 2.46 36.428 0.486 7.45 0.17 2.1
2/12/2021 9:30:00 PM 2.45 36.41 0.487 7.45 0.21 1.79
2/12/2021 9:45:00 PM 2.45 36.41 0.487 7.44 0.18 1.49
2/12/2021 10:00:00 PM 2.43 36.374 0.487 7.43 0.18 1.31
2/12/2021 10:15:00 PM 2.45 36.41 0.488 7.45 0.17 1.14
2/12/2021 10:30:00 PM 2.46 36.428 0.488 7.45 0.39 0.96
2/12/2021 10:45:00 PM 2.45 36.41 0.489 7.45 0.26 0.61
2/12/2021 11:00:00 PM 2.39 36.302 0.49 7.44 0.16 2.61
2/12/2021 11:15:00 PM 2.39 36.302 0.49 7.45 0.08 3.09
2/12/2021 11:30:00 PM 2.4 36.32 0.49 7.45 0.1 3.46
2/12/2021 11:45:00 PM 2.4 36.32 0.49 7.46 0.09 3.12
2/13/2021 12:00:00 AM 2.38 36.284 0.491 7.46 0.3 2.83
2/13/2021 12:15:00 AM 2.41 36.338 0.491 7.46 0.64 3.01
2/13/2021 12:30:00 AM 2.36 36.248 0.492 7.46 0.19 2.92
2/13/2021 12:45:00 AM 2.39 36.302 0.492 7.46 0.19 3.1
2/13/2021 1:00:00 AM 2.39 36.302 0.493 7.47 0.41 4.24
2/13/2021 1:15:00 AM 2.38 36.284 0.494 7.48 0.25 3.89
2/13/2021 1:30:00 AM 2.37 36.266 0.495 7.48 0.35 4.03
2/13/2021 1:45:00 AM 2.4 36.32 0.495 7.48 0.1 3.79
2/13/2021 2:00:00 AM 2.38 36.284 0.496 7.48 0.19 4
2/13/2021 2:15:00 AM 2.38 36.284 0.497 7.49 0.22 3.25
2/13/2021 2:30:00 AM 2.37 36.266 0.498 7.49 0.23 4.05
2/13/2021 2:45:00 AM 2.41 36.338 0.498 7.5 0.18 2.76
2/13/2021 3:00:00 AM 2.38 36.284 0.499 7.5 0.08 3.63
2/13/2021 3:15:00 AM 2.38 36.284 0.5 7.5 0.2 3.83
2/13/2021 3:30:00 AM 2.39 36.302 0.5 7.5 0.21 3.75
2/13/2021 3:45:00 AM 2.4 36.32 0.501 7.5 0.4 4.73
2/13/2021 4:00:00 AM 2.37 36.266 0.502 7.51 0.2 3.96
2/13/2021 4:15:00 AM 2.38 36.284 0.503 7.51 0.25 4.08
2/13/2021 4:30:00 AM 2.37 36.266 0.504 7.51 0.18 3.46
2/13/2021 4:45:00 AM 2.37 36.266 0.504 7.52 0.26 3.56
2/13/2021 5:00:00 AM 2.39 36.302 0.504 7.52 0.37 2.09
2/13/2021 5:15:00 AM 2.36 36.248 0.505 7.52 0.3 3.01
2/13/2021 5:30:00 AM 2.4 36.32 0.506 7.53 0.16 2.86
2/13/2021 5:45:00 AM 2.41 36.338 0.506 7.53 0.16 2.04
2/13/2021 6:00:00 AM 2.39 36.302 0.507 7.53 0.17 3.25
2/13/2021 6:15:00 AM 2.37 36.266 0.508 7.54 0.3 7.61
2/13/2021 6:30:00 AM 2.38 36.284 0.508 7.54 0.35 8.68
2/13/2021 6:45:00 AM 2.33 36.194 0.509 7.54 0.22 9
2/13/2021 7:00:00 AM 2.35 36.23 0.509 7.55 0.17 8.55
2/13/2021 7:15:00 AM 2.38 36.284 0.509 7.55 0.21 6.58
2/13/2021 7:30:00 AM 2.38 36.284 0.509 7.54 0.17 6.55
2/13/2021 7:45:00 AM 2.38 36.284 0.509 7.56 0.14 8.26
2/13/2021 8:00:00 AM 2.39 36.302 0.51 7.55 0.3 4.32
2/13/2021 8:15:00 AM 2.4 36.32 0.51 7.56 0.16 3.73
2/13/2021 8:30:00 AM 2.39 36.302 0.51 7.56 0.31 3.53
2/13/2021 8:45:00 AM 2.4 36.32 0.51 7.56 0.37 3.75
2/13/2021 9:00:00 AM 2.4 36.32 0.51 7.58 0.23 3.52
2/13/2021 9:15:00 AM 2.41 36.338 0.51 7.58 0.33 2.44
2/13/2021 9:30:00 AM 2.43 36.374 0.51 7.59 0.41 1.85
2/13/2021 9:45:00 AM 2.43 36.374 0.51 7.59 0.39 5.07
2/13/2021 10:00:00 AM 2.43 36.374 0.51 7.6 0.43 6.61
2/13/2021 10:15:00 AM 2.46 36.428 0.51 7.6 0.29 4.97
2/13/2021 10:30:00 AM 2.47 36.446 0.51 7.61 0.31 5.78
2/13/2021 10:45:00 AM 2.49 36.482 0.51 7.61 0.44 5.59
2/13/2021 11:00:00 AM 2.5 36.5 0.51 7.62 2.58 6.11
2/13/2021 11:15:00 AM 2.51 36.518 0.51 7.62 0.31 6.56
2/13/2021 11:30:00 AM 2.52 36.536 0.51 7.62 0.21 5.9
2/13/2021 11:45:00 AM 2.56 36.608 0.509 7.63 0.26 9
2/13/2021 12:00:00 PM 2.56 36.608 0.509 7.63 0.36 6.14
2/13/2021 12:15:00 PM 2.56 36.608 0.509 7.64 0.4 4.61
2/13/2021 12:30:00 PM 2.58 36.644 0.509 7.63 0.4 2.98
2/13/2021 12:45:00 PM 2.59 36.662 0.509 7.63 0.25 3.78
2/13/2021 1:00:00 PM 2.58 36.644 0.509 7.63 0.19 5.43
2/13/2021 1:15:00 PM 2.57 36.626 0.509 7.63 0.28 9.49
2/13/2021 1:30:00 PM 2.58 36.644 0.509 7.63 0.27 9.29
2/13/2021 1:45:00 PM 2.55 36.59 0.509 7.63 0.38 10.34
2/13/2021 2:00:00 PM 2.55 36.59 0.509 7.63 0.25 9.8
2/13/2021 2:15:00 PM 2.55 36.59 0.509 7.63 0.16 9.8
2/13/2021 2:30:00 PM 2.54 36.572 0.508 7.62 0.21 10.03
2/13/2021 2:45:00 PM 2.54 36.572 0.508 7.62 0.22 9.77
2/13/2021 3:00:00 PM 2.52 36.536 0.508 7.61 0.21 10.27
2/13/2021 3:15:00 PM 2.52 36.536 0.508 7.61 0.25 8.27
2/13/2021 3:30:00 PM 2.48 36.464 0.509 7.61 0.49 9.72
2/13/2021 3:45:00 PM 2.49 36.482 0.508 7.6 0.39 9.86
2/13/2021 4:00:00 PM 2.48 36.464 0.508 7.59 0.32 10.49
2/13/2021 4:15:00 PM 2.46 36.428 0.508 7.58 0.21 10.06
2/13/2021 4:30:00 PM 2.44 36.392 0.508 7.58 0.29 8.39
2/13/2021 4:45:00 PM 2.42 36.356 0.508 7.57 0.15 9.04
2/13/2021 5:00:00 PM 2.4 36.32 0.508 7.56 0.08 9.26
2/13/2021 5:15:00 PM 2.41 36.338 0.508 7.55 0.29 6.71
2/13/2021 5:30:00 PM 2.4 36.32 0.507 7.55 0.2 5.7
2/13/2021 5:45:00 PM 2.36 36.248 0.508 7.53 0.16 5.82
2/13/2021 6:00:00 PM 2.33 36.194 0.508 7.51 2.48 6.39
2/13/2021 6:15:00 PM 2.32 36.176 0.508 7.51 0.33 7.83
2/13/2021 6:30:00 PM 2.31 36.158 0.508 7.5 0.95 8.51
2/13/2021 6:45:00 PM 2.3 36.14 0.508 7.5 0.13 7.28
2/13/2021 7:00:00 PM 2.3 36.14 0.507 7.48 0.34 4.86
2/13/2021 7:15:00 PM 2.31 36.158 0.507 7.47 0.77 4.21
2/13/2021 7:30:00 PM 2.25 36.05 0.508 7.48 0.43 5.55
2/13/2021 7:45:00 PM 2.22 35.996 0.508 7.44 1.29 5.73
2/13/2021 8:00:00 PM 2.27 36.086 0.507 7.44 0.18 5.83
2/13/2021 8:15:00 PM 2.28 36.104 0.507 7.42 0.49 4.46
2/13/2021 8:30:00 PM 2.22 35.996 0.508 7.42 0.21 6.01
2/13/2021 8:45:00 PM 2.23 36.014 0.507 7.41 0.31 5.67
2/13/2021 9:00:00 PM 2.2 35.96 0.508 7.41 0.3 5.99
2/13/2021 9:15:00 PM 2.16 35.888 0.508 7.4 1.29 6.8
2/13/2021 9:30:00 PM 2.18 35.924 0.508 7.4 0.18 6.6
2/13/2021 9:45:00 PM 2.19 35.942 0.507 7.4 0.33 5.05
2/13/2021 10:00:00 PM 2.17 35.906 0.508 7.4 0.31 5.05
2/13/2021 10:15:00 PM 2.12 35.816 0.508 7.4 0.27 6.32
2/13/2021 10:30:00 PM 2.17 35.906 0.508 7.42 0.17 5.33
2/13/2021 10:45:00 PM 2.13 35.834 0.508 7.42 0.22 5.59
2/13/2021 11:00:00 PM 2.12 35.816 0.509 7.43 1.86 5.12
2/13/2021 11:15:00 PM 2.14 35.852 0.508 7.43 0.38 4.53
2/13/2021 11:30:00 PM 2.15 35.87 0.508 7.43 0.65 4.11
2/13/2021 11:45:00 PM 2.1 35.78 0.509 7.43 0.31 3.52
2/14/2021 12:00:00 AM 2.12 35.816 0.509 7.43 0.51 5.3
2/14/2021 12:15:00 AM 2.12 35.816 0.509 7.43 0.21 4.33
2/14/2021 12:30:00 AM 2.12 35.816 0.509 7.43 0.37 4.27
2/14/2021 12:45:00 AM 2.1 35.78 0.51 7.43 0.44 4.09
2/14/2021 1:00:00 AM 2.09 35.762 0.51 7.43 0.36 5.43
2/14/2021 1:15:00 AM 2.08 35.744 0.51 7.43 0.21 8.49
2/14/2021 1:30:00 AM 2.05 35.69 0.51 7.43 0.37 10.43
2/14/2021 1:45:00 AM 2.07 35.726 0.51 7.43 0.23 11.02
2/14/2021 2:00:00 AM 2.05 35.69 0.511 7.4 0.6 10.13
2/14/2021 2:15:00 AM 2.07 35.726 0.511 7.42 0.35 10.04
2/14/2021 2:30:00 AM 2.06 35.708 0.511 7.42 0.15 8.51
2/14/2021 2:45:00 AM 2.06 35.708 0.511 7.43 0.2 10.06
2/14/2021 3:00:00 AM 2.04 35.672 0.512 7.43 1.29 10.73
2/14/2021 3:15:00 AM 2.04 35.672 0.512 7.43 0.25 11.11
2/14/2021 3:30:00 AM 2.06 35.708 0.512 7.43 0.05 9.71
2/14/2021 3:45:00 AM 2.04 35.672 0.513 7.43 0.38 7.21
2/14/2021 4:00:00 AM 2.05 35.69 0.513 7.44 0.54 10.38
2/14/2021 4:15:00 AM 2.04 35.672 0.514 7.45 0.33 11.46
2/14/2021 4:30:00 AM 2.04 35.672 0.514 7.45 0.2 11.25
2/14/2021 4:45:00 AM 2.07 35.726 0.514 7.46 0.17 11.5
2/14/2021 5:00:00 AM 2.04 35.672 0.514 7.46 0.25 11.7
2/14/2021 5:15:00 AM 2.05 35.69 0.514 7.46 0.36 11.43
2/14/2021 5:30:00 AM 2.04 35.672 0.515 7.46 0.23 11.48
2/14/2021 5:45:00 AM 2.08 35.744 0.514 7.46 0.13 10.94
2/14/2021 6:00:00 AM 2.05 35.69 0.515 7.48 0.28 10.84
2/14/2021 6:15:00 AM 2.09 35.762 0.515 7.49 1.93 10.26
2/14/2021 6:30:00 AM 2.08 35.744 0.515 7.5 0.18 8.73
2/14/2021 6:45:00 AM 2.05 35.69 0.516 7.5 0.12 8.98
2/14/2021 7:00:00 AM 2.02 35.636 0.517 7.5 0.44 11.42
2/14/2021 7:15:00 AM 2.04 35.672 0.517 7.51 0.16 10.2
2/14/2021 7:30:00 AM 2.05 35.69 0.517 7.5 0.47 9.41
2/14/2021 7:45:00 AM 2.05 35.69 0.517 7.5 0.16 7.54
2/14/2021 8:00:00 AM 2.04 35.672 0.517 7.51 0.32 11.03
2/14/2021 8:15:00 AM 2.03 35.654 0.518 7.51 0.17 10.12
2/14/2021 8:30:00 AM 2.05 35.69 0.517 7.51 0.84 9.65
2/14/2021 8:45:00 AM 2.05 35.69 0.518 7.53 0.96 10.05
2/14/2021 9:00:00 AM 2.07 35.726 0.518 7.53 0.57 9.57
2/14/2021 9:15:00 AM 2.09 35.762 0.518 7.53 0.63 8.95
2/14/2021 9:30:00 AM 2.09 35.762 0.518 7.52 0.8 11.32
2/14/2021 9:45:00 AM 2.12 35.816 0.518 7.52 0.46 11.32
2/14/2021 10:00:00 AM 2.15 35.87 0.518 7.51 0.48 11.96
2/14/2021 10:15:00 AM 2.19 35.942 0.518 7.52 0.24 11.86
2/14/2021 10:30:00 AM 2.23 36.014 0.517 7.53 0.35 11.73
2/14/2021 10:45:00 AM 2.27 36.086 0.517 7.53 1.06 12.44
2/14/2021 11:00:00 AM 2.32 36.176 0.517 7.55 0.45 12.43
2/14/2021 11:15:00 AM 2.36 36.248 0.517 7.55 0.95 12.48
2/14/2021 11:30:00 AM 2.43 36.374 0.516 7.55 1.03 12.55
2/14/2021 11:45:00 AM 2.52 36.536 0.515 7.55 1.97 11.22
2/14/2021 12:00:00 PM 2.59 36.662 0.515 7.55 1.1 11.77
2/14/2021 12:15:00 PM 2.65 36.77 0.515 7.56 0.53 10.93
2/14/2021 12:30:00 PM 2.72 36.896 0.515 7.55 0.7 12.1
2/14/2021 12:45:00 PM 2.8 37.04 0.514 7.57 0.66 12.42
2/14/2021 1:00:00 PM 2.88 37.184 0.514 7.56 1.03 12.56
2/14/2021 1:15:00 PM 2.98 37.364 0.513 7.56 0.88 12.27
2/14/2021 1:30:00 PM 3.03 37.454 0.513 7.54 0.63 12.06
2/14/2021 1:45:00 PM 3.1 37.58 0.513 7.56 0.75 11.71
2/14/2021 2:00:00 PM 3.13 37.634 0.513 7.56 0.93 10.83
2/14/2021 2:15:00 PM 3.15 37.67 0.513 7.56 0.56 11.2
2/14/2021 2:30:00 PM 3.22 37.796 0.512 7.55 0.85 11.49
2/14/2021 2:45:00 PM 3.25 37.85 0.512 7.56 1.05 10.84
2/14/2021 3:00:00 PM 3.22 37.796 0.513 7.56 0.53 12.29
2/14/2021 3:15:00 PM 3.19 37.742 0.513 7.56 0.98 10.63
2/14/2021 3:30:00 PM 3.14 37.652 0.513 7.57 0.36 10.44
2/14/2021 3:45:00 PM 3.12 37.616 0.513 7.57 0.4 11.96
2/14/2021 4:00:00 PM 3.07 37.526 0.513 7.57 0.32 11.91
2/14/2021 4:15:00 PM 3.02 37.436 0.513 7.57 0.29 11.68
2/14/2021 4:30:00 PM 2.95 37.31 0.513 7.58 0.56 11.88
2/14/2021 4:45:00 PM 2.9 37.22 0.513 7.58 1.71 11.83
2/14/2021 5:00:00 PM 2.83 37.094 0.513 7.57 0.59 11.27
2/14/2021 5:15:00 PM 2.78 37.004 0.513 7.57 0.22 11.67
2/14/2021 5:30:00 PM 2.73 36.914 0.512 7.56 0.27 11.84
2/14/2021 5:45:00 PM 2.68 36.824 0.512 7.56 0.28 11.9
2/14/2021 6:00:00 PM 2.64 36.752 0.512 7.56 0.3 11.8
2/14/2021 6:15:00 PM 2.61 36.698 0.512 7.55 2.32 12.17
2/14/2021 6:30:00 PM 2.57 36.626 0.512 7.54 0.18 11.7
2/14/2021 6:45:00 PM 2.56 36.608 0.512 7.54 0.54 11.72
2/14/2021 7:00:00 PM 2.53 36.554 0.512 7.53 0.36 11.97
2/14/2021 7:15:00 PM 2.53 36.554 0.512 7.52 0.34 11.57
2/14/2021 7:30:00 PM 2.51 36.518 0.512 7.51 0.11 11.66
2/14/2021 7:45:00 PM 2.51 36.518 0.512 7.5 0.64 11.49
2/14/2021 8:00:00 PM 2.5 36.5 0.512 7.49 0.58 11.35
2/14/2021 8:15:00 PM 2.5 36.5 0.512 7.48 0.66 11.7
2/14/2021 8:30:00 PM 2.49 36.482 0.513 7.47 0.45 11.74
2/14/2021 8:45:00 PM 2.51 36.518 0.512 7.47 0.34 11.67
2/14/2021 9:00:00 PM 2.53 36.554 0.512 7.46 0.31 11.25
2/14/2021 9:15:00 PM 2.49 36.482 0.513 7.46 0.13 11.31
2/14/2021 9:30:00 PM 2.52 36.536 0.512 7.46 0.22 11.43
2/14/2021 9:45:00 PM 2.53 36.554 0.512 7.45 0.45 11.42
2/14/2021 10:00:00 PM 2.53 36.554 0.512 7.44 0.41 10.72
2/14/2021 10:15:00 PM 2.51 36.518 0.513 7.44 0.28 11.03
2/14/2021 10:30:00 PM 2.53 36.554 0.512 7.42 0.15 10.86
2/14/2021 10:45:00 PM 2.51 36.518 0.513 7.42 0.28 11.22
2/14/2021 11:00:00 PM 2.53 36.554 0.512 7.42 0.4 11.28
2/14/2021 11:15:00 PM 2.52 36.536 0.512 7.42 0.34 11.07
2/14/2021 11:30:00 PM 2.53 36.554 0.512 7.42 0.24 11.17
2/14/2021 11:45:00 PM 2.53 36.554 0.513 7.42 0.1 10.48
2/15/2021 12:00:00 AM 2.54 36.572 0.513 7.42 0.34 11.1
2/15/2021 12:15:00 AM 2.56 36.608 0.513 7.42 0.23 11.29
2/15/2021 12:30:00 AM 2.57 36.626 0.513 7.42 0.3 11.23
2/15/2021 12:45:00 AM 2.57 36.626 0.513 7.43 0.2 11.23
2/15/2021 1:00:00 AM 2.59 36.662 0.513 7.42 0.17 10.97
2/15/2021 1:15:00 AM 2.57 36.626 0.513 7.42 0.19 11.66
2/15/2021 1:30:00 AM 2.62 36.716 0.513 7.42 0.23 11.43
2/15/2021 1:45:00 AM 2.63 36.734 0.513 7.42 0.21 11.6
2/15/2021 2:00:00 AM 2.63 36.734 0.513 7.43 0.45 11.53
2/15/2021 2:15:00 AM 2.64 36.752 0.513 7.43 0.43 11.42
2/15/2021 2:30:00 AM 2.67 36.806 0.513 7.43 0.07 11.61
2/15/2021 2:45:00 AM 2.67 36.806 0.513 7.43 0.19 11.57
2/15/2021 3:00:00 AM 2.68 36.824 0.514 7.43 0.71 11.28
2/15/2021 3:15:00 AM 2.7 36.86 0.514 7.44 0.31 11.81
2/15/2021 3:30:00 AM 2.72 36.896 0.514 7.47 0.21 11.86
2/15/2021 3:45:00 AM 2.73 36.914 0.514 7.5 1.09 12.05
2/15/2021 4:00:00 AM 2.74 36.932 0.515 7.5 0.19 11.94
2/15/2021 4:15:00 AM 2.76 36.968 0.515 7.49 0.31 11.5
2/15/2021 4:30:00 AM 2.77 36.986 0.515 7.48 0.43 11.83
2/15/2021 4:45:00 AM 2.79 37.022 0.515 7.48 0.68 11.51
2/15/2021 5:00:00 AM 2.81 37.058 0.516 7.48 0.22 11.43
2/15/2021 5:15:00 AM 2.82 37.076 0.516 7.48 5.72 11.79
2/15/2021 5:30:00 AM 2.84 37.112 0.516 7.5 0.62 11.76
2/15/2021 5:45:00 AM 2.85 37.13 0.517 7.52 0.33 11.86
2/15/2021 6:00:00 AM 2.86 37.148 0.517 7.52 0.18 12.04
2/15/2021 6:15:00 AM 2.87 37.166 0.517 7.52 0.29 12.07
2/15/2021 6:30:00 AM 2.88 37.184 0.518 7.52 0.46 12.02
2/15/2021 6:45:00 AM 2.9 37.22 0.518 7.52 4.45 11.88
2/15/2021 7:00:00 AM 2.91 37.238 0.519 7.53 0.2 11.9
2/15/2021 7:15:00 AM 2.92 37.256 0.519 7.53 0.29 11.41
2/15/2021 7:30:00 AM 2.93 37.274 0.519 7.53 0.33 11.77
2/15/2021 7:45:00 AM 2.95 37.31 0.52 7.55 0.25 11.85
2/15/2021 8:00:00 AM 2.96 37.328 0.52 7.55 0.31 11.96
2/15/2021 8:15:00 AM 2.97 37.346 0.521 7.56 0.37 11.89
2/15/2021 8:30:00 AM 2.98 37.364 0.521 7.56 0.28 11.73
2/15/2021 8:45:00 AM 2.99 37.382 0.522 7.55 0.25 11.86
2/15/2021 9:00:00 AM 3 37.4 0.522 7.56 0.3 11.74
2/15/2021 9:15:00 AM 3.02 37.436 0.522 7.56 0.28 12
2/15/2021 9:30:00 AM 3.04 37.472 0.522 7.57 0.26 11.77
2/15/2021 9:45:00 AM 3.06 37.508 0.522 7.58 0.25 11.84
2/15/2021 10:00:00 AM 3.08 37.544 0.522 7.59 0.51 12.03
2/15/2021 10:15:00 AM 3.1 37.58 0.522 7.6 0.14 11.95
2/15/2021 10:30:00 AM 3.12 37.616 0.522 7.61 0.52 11.73
2/15/2021 10:45:00 AM 3.14 37.652 0.522 7.63 0.16 11.62
2/15/2021 11:00:00 AM 3.16 37.688 0.522 7.64 0.3 11.79
2/15/2021 11:15:00 AM 3.18 37.724 0.522 7.65 0.25 11.75
2/15/2021 11:30:00 AM 3.19 37.742 0.522 7.66 0.37 11.6
2/15/2021 11:45:00 AM 3.21 37.778 0.522 7.67 0.62 11.86
2/15/2021 12:00:00 PM 3.24 37.832 0.522 7.68 0.22 11.35
2/15/2021 12:15:00 PM 3.3 37.94 0.521 7.68 0.18 11.69
2/15/2021 12:30:00 PM 3.35 38.03 0.521 7.68 0.3 11.83
2/15/2021 12:45:00 PM 3.42 38.156 0.521 7.67 0.29 12.17
2/15/2021 1:00:00 PM 3.44 38.192 0.521 7.67 0.26 12.14
2/15/2021 1:15:00 PM 3.46 38.228 0.521 7.67 0.36 12.1
2/15/2021 1:30:00 PM 3.48 38.264 0.521 7.67 0.25 12.42
2/15/2021 1:45:00 PM 3.51 38.318 0.52 7.67 0.18 12.2
2/15/2021 2:00:00 PM 3.54 38.372 0.52 7.67 0.37 12.55
2/15/2021 2:15:00 PM 3.53 38.354 0.52 7.68 0.38 11.64
2/15/2021 2:30:00 PM 3.52 38.336 0.52 7.68 0.19 11.11
2/15/2021 2:45:00 PM 3.51 38.318 0.52 7.67 0.55 10.91
2/15/2021 3:00:00 PM 3.49 38.282 0.52 7.67 0.29 11.52
2/15/2021 3:15:00 PM 3.47 38.246 0.519 7.67 0.33 11.43
2/15/2021 3:30:00 PM 3.44 38.192 0.519 7.66 0.19 11.83
2/15/2021 3:45:00 PM 3.42 38.156 0.519 7.65 0.3 11.71
2/15/2021 4:00:00 PM 3.39 38.102 0.519 7.64 0.49 11.57
2/15/2021 4:15:00 PM 3.37 38.066 0.519 7.63 0.4 11.69
2/15/2021 4:30:00 PM 3.34 38.012 0.519 7.64 0.39 11.38
2/15/2021 4:45:00 PM 3.31 37.958 0.518 7.64 1.22 11.51
2/15/2021 5:00:00 PM 3.29 37.922 0.518 7.63 0.63 11.78
2/15/2021 5:15:00 PM 3.27 37.886 0.518 7.63 0.25 11.62
2/15/2021 5:30:00 PM 3.26 37.868 0.518 7.62 0.3 11.94
2/15/2021 5:45:00 PM 3.24 37.832 0.518 7.61 0.2 11.55
2/15/2021 6:00:00 PM 3.23 37.814 0.517 7.6 0.26 11.56
2/15/2021 6:15:00 PM 3.21 37.778 0.517 7.59 0.5 11.78
2/15/2021 6:30:00 PM 3.2 37.76 0.517 7.59 0.67 11.32
2/15/2021 6:45:00 PM 3.19 37.742 0.517 7.59 0.35 11.38
2/15/2021 7:00:00 PM 3.17 37.706 0.517 7.57 0.62 11.33
2/15/2021 7:15:00 PM 3.17 37.706 0.516 7.57 0.36 11.56
2/15/2021 7:30:00 PM 3.16 37.688 0.517 7.55 0.37 11.61
2/15/2021 7:45:00 PM 3.17 37.706 0.516 7.55 0.21 11.6
2/15/2021 8:00:00 PM 3.17 37.706 0.517 7.54 0.2 11.06
2/15/2021 8:15:00 PM 3.16 37.688 0.516 7.53 0.13 11.36
2/15/2021 8:30:00 PM 3.15 37.67 0.517 7.52 0.53 11.44
2/15/2021 8:45:00 PM 3.15 37.67 0.516 7.49 0.23 11.33
2/15/2021 9:00:00 PM 3.12 37.616 0.516 7.48 0.31 11.45
2/15/2021 9:15:00 PM 3.13 37.634 0.516 7.44 0.35 11.45
2/15/2021 9:30:00 PM 3.13 37.634 0.516 7.43 0.68 11.25
2/15/2021 9:45:00 PM 3.13 37.634 0.516 7.42 0.32 11.46
2/15/2021 10:00:00 PM 3.12 37.616 0.516 7.41 0.16 11.26
2/15/2021 10:15:00 PM 3.14 37.652 0.515 7.41 1.89 11.23
2/15/2021 10:30:00 PM 3.13 37.634 0.514 7.4 0.38 11.1
2/15/2021 10:45:00 PM 3.13 37.634 0.514 7.39 0.32 11.07
2/15/2021 11:00:00 PM 3.12 37.616 0.513 7.39 0.59 11.29
2/15/2021 11:15:00 PM 3.12 37.616 0.512 7.39 0.41 10.33
2/15/2021 11:30:00 PM 3.12 37.616 0.511 7.39 0.82 11.44
2/15/2021 11:45:00 PM 3.12 37.616 0.51 7.39 0.62 11.1
2/16/2021 12:00:00 AM 3.12 37.616 0.509 7.39 0.29 11.24
2/16/2021 12:15:00 AM 3.12 37.616 0.508 7.39 1.25 11.34
2/16/2021 12:30:00 AM 3.12 37.616 0.508 7.39 0.88 11.32
2/16/2021 12:45:00 AM 3.11 37.598 0.51 7.38 1.46 10.45
2/16/2021 1:00:00 AM 3.1 37.58 0.513 7.39 0.69 11.44
2/16/2021 1:15:00 AM 3.11 37.598 0.516 7.39 0.32 11.15
2/16/2021 1:30:00 AM 3.15 37.67 0.517 7.41 2.08 8.15
2/16/2021 1:45:00 AM 3.13 37.634 0.518 7.42 0.61 9.7
2/16/2021 2:00:00 AM 3.14 37.652 0.517 7.42 3.81 10.66
2/16/2021 2:15:00 AM 3.13 37.634 0.517 7.41 0.66 10.57
2/16/2021 2:30:00 AM 3.15 37.67 0.516 7.41 0.83 11.46
2/16/2021 2:45:00 AM 3.17 37.706 0.514 7.42 0.26 11.37
2/16/2021 3:00:00 AM 3.18 37.724 0.513 7.43 0.32 10.74
2/16/2021 3:15:00 AM 3.2 37.76 0.511 7.43 0.58 10.75
2/16/2021 3:30:00 AM 3.21 37.778 0.509 7.43 0.62 9.88
2/16/2021 3:45:00 AM 3.22 37.796 0.507 7.43 0.5 9.6
2/16/2021 4:00:00 AM 3.22 37.796 0.508 7.43 0.77 8.63
2/16/2021 4:15:00 AM 3.24 37.832 0.509 7.42 0.61 9.28
2/16/2021 4:30:00 AM 3.25 37.85 0.509 7.43 0.55 10.21
2/16/2021 4:45:00 AM 3.26 37.868 0.509 7.45 0.65 10.51
2/16/2021 5:00:00 AM 3.27 37.886 0.509 7.46 0.9 10.93
2/16/2021 5:15:00 AM 3.33 37.994 0.509 7.46 2.93 9.28
2/16/2021 5:30:00 AM 3.32 37.976 0.511 7.47 1.05 6.37
2/16/2021 5:45:00 AM 3.33 37.994 0.512 7.47 0.86 4.13
2/16/2021 6:00:00 AM 3.34 38.012 0.513 7.5 0.92 3.74
2/16/2021 6:15:00 AM 3.35 38.03 0.515 7.51 0.55 3.15
2/16/2021 6:30:00 AM 3.36 38.048 0.517 7.51 1.01 1.79
2/16/2021 6:45:00 AM 3.38 38.084 0.518 7.5 0.75 1.89
2/16/2021 7:00:00 AM 3.39 38.102 0.52 7.5 0.93 0.37
2/16/2021 7:15:00 AM 3.4 38.12 0.521 7.5 0.77 0.4
2/16/2021 7:30:00 AM 3.41 38.138 0.522 7.49 3.02 1.73
2/16/2021 7:45:00 AM 3.44 38.192 0.523 7.5 161.1 0.36
2/16/2021 8:00:00 AM 3.46 38.228 0.521 7.49 0.58 0.33
2/16/2021 8:15:00 AM 3.44 38.192 0.523 7.46 1.62 0.24
2/16/2021 8:30:00 AM 3.45 38.21 0.524 7.4 2.33 0.38
2/16/2021 8:45:00 AM 3.46 38.228 0.525 7.33 0.95 0.24
2/16/2021 9:00:00 AM 3.47 38.246 0.525 7.24 2.2 0.12
2/16/2021 9:15:00 AM 3.49 38.282 0.526 7.16 2.2 0.08
2/16/2021 9:30:00 AM 3.5 38.3 0.524 7.15 1.11 0.07
2/16/2021 9:45:00 AM 3.52 38.336 0.524 7.12 1.52 0.07
2/16/2021 10:00:00 AM 3.53 38.354 0.524 7.08 1.48 0.07
2/16/2021 10:15:00 AM 3.54 38.372 0.527 7.03 3.91 0.07
2/16/2021 10:30:00 AM 3.55 38.39 0.528 6.99 1.2 0.07
2/16/2021 10:45:00 AM 3.56 38.408 0.529 6.98 1.65 0.07
2/16/2021 11:00:00 AM 3.57 38.426 0.53 6.97 4.62 0.1
2/16/2021 11:15:00 AM 3.58 38.444 0.533 6.95 1.47 0.07
2/16/2021 11:30:00 AM 3.59 38.462 0.536 6.94 2.1 0.08
2/16/2021 11:45:00 AM 3.6 38.48 0.538 6.92 2.18 0.07
2/16/2021 12:00:00 PM 3.61 38.498 0.538 6.92 1.95 0.12
2/16/2021 12:15:00 PM 3.62 38.516 0.536 6.92 1.05 0.08
2/16/2021 12:30:00 PM 3.64 38.552 0.533 6.93 1.24 0.16
2/16/2021 12:45:00 PM 3.67 38.606 0.528 6.93 1.61 0.14
2/16/2021 1:00:00 PM 3.71 38.678 0.522 6.97 1.12 0.22
2/16/2021 1:15:00 PM 3.74 38.732 0.518 6.97 2.02 0.32
2/16/2021 1:30:00 PM 3.78 38.804 0.512 7.03 1.36 1.89
2/16/2021 1:45:00 PM 3.81 38.858 0.512 7.03 1.6 1.24
2/16/2021 2:00:00 PM 3.85 38.93 0.51 7.07 1.25 3.24
2/16/2021 2:15:00 PM 3.88 38.984 0.51 7.11 1.69 2.79
2/16/2021 2:30:00 PM 3.9 39.02 0.51 7.14 2.04 2.46
2/16/2021 2:45:00 PM 3.99 39.182 0.508 7.18 2.1 8.31
2/16/2021 3:00:00 PM 3.99 39.182 0.508 7.24 1.73 7.12
2/16/2021 3:15:00 PM 3.99 39.182 0.507 7.29 2.08 8.15
2/16/2021 3:30:00 PM 3.95 39.11 0.506 7.31 2.71 11.03
2/16/2021 3:45:00 PM 3.91 39.038 0.506 7.32 2.85 11.01
2/16/2021 4:00:00 PM 3.88 38.984 0.506 7.32 3.97 11.24
2/16/2021 4:15:00 PM 3.86 38.948 0.506 7.31 3.98 11.93
2/16/2021 4:30:00 PM 3.84 38.912 0.506 7.31 881.8 11.83
2/16/2021 4:45:00 PM 3.83 38.894 0.506 7.3 765.2 12.32
2/16/2021 5:00:00 PM 3.82 38.876 0.506 7.32 728.8 12.96
2/16/2021 5:15:00 PM 3.83 38.894 0.505 7.34 712 13.11
2/16/2021 5:30:00 PM 3.84 38.912 0.505 7.36 713.5 13.21
2/16/2021 5:45:00 PM 3.85 38.93 0.505 7.37 714.3 13.19
2/16/2021 6:00:00 PM 3.86 38.948 0.505 7.37 714.3 13.2
2/16/2021 6:15:00 PM 3.89 39.002 0.504 7.38 714.1 13.25
2/16/2021 6:30:00 PM 3.91 39.038 0.504 7.39 715.5 13.25
2/16/2021 6:45:00 PM 3.98 39.164 0.502 7.42 715.4 13.26
2/16/2021 7:00:00 PM 4.02 39.236 0.497 7.43 716.9 13.27
2/16/2021 7:15:00 PM 4.07 39.326 0.495 7.43 715.4 13.28
2/16/2021 7:30:00 PM 4.13 39.434 0.493 7.44 716 13.29
2/16/2021 7:45:00 PM 4.16 39.488 0.491 7.45 715.9 13.31
2/16/2021 8:00:00 PM 4.19 39.542 0.488 7.46 717.1 13.34
2/16/2021 8:15:00 PM 4.22 39.596 0.485 7.46 716.5 13.37
2/16/2021 8:30:00 PM 4.22 39.596 0.485 7.46 718.4 13.38
2/16/2021 8:45:00 PM 4.19 39.542 0.481 7.46 716.4 13.4
2/16/2021 9:00:00 PM 4.16 39.488 0.478 7.46 717.4 13.41
2/16/2021 9:15:00 PM 4.11 39.398 0.476 7.46 717.6 13.43
2/16/2021 9:30:00 PM 4.06 39.308 0.475 7.46 719.4 13.41
2/16/2021 9:45:00 PM 4.01 39.218 0.475 7.48 719.5 13.39
2/16/2021 10:00:00 PM 3.94 39.092 0.475 7.48 722 13.43
2/16/2021 10:15:00 PM 3.88 38.984 0.477 7.48 721.4 13.42
2/16/2021 10:30:00 PM 3.82 38.876 0.481 7.47 721.5 13.28
2/16/2021 10:45:00 PM 3.76 38.768 0.486 7.47 720.7 13.4
2/16/2021 11:00:00 PM 3.71 38.678 0.491 7.46 721.3 13.41
2/16/2021 11:15:00 PM 3.65 38.57 0.496 7.46 721.7 13.37
2/16/2021 11:30:00 PM 3.6 38.48 0.502 7.44 721.9 13.37
2/16/2021 11:45:00 PM 3.52 38.336 0.508 7.44 722.9 13.32
2/17/2021 12:00:00 AM 3.45 38.21 0.517 7.4 724.1 13.34
2/17/2021 12:15:00 AM 3.4 38.12 0.522 7.39 726.2 13.36
2/17/2021 12:30:00 AM 3.34 38.012 0.531 7.37 726.1 13.32
2/17/2021 12:45:00 AM 3.29 37.922 0.539 7.37 726.9 13.2
2/17/2021 1:00:00 AM 3.23 37.814 0.543 7.37 727.8 13.08
2/17/2021 1:15:00 AM 3.19 37.742 0.547 7.37 727 13.02
2/17/2021 1:30:00 AM 3.12 37.616 0.548 7.37 727 13.14
2/17/2021 1:45:00 AM 3.05 37.49 0.549 7.36 727.2 13.26
2/17/2021 2:00:00 AM 2.99 37.382 0.548 7.36 729.1 13.35
2/17/2021 2:15:00 AM 2.92 37.256 0.546 7.35 727.9 13.26
2/17/2021 2:30:00 AM 2.86 37.148 0.544 7.34 727.3 13.42
2/17/2021 2:45:00 AM 2.79 37.022 0.541 7.34 727.4 13.41
2/17/2021 3:00:00 AM 2.73 36.914 0.538 7.33 727.6 13.42
2/17/2021 3:15:00 AM 2.66 36.788 0.534 7.31 727.9 13.4
2/17/2021 3:30:00 AM 2.61 36.698 0.53 7.3 725.8 13.47
2/17/2021 3:45:00 AM 2.55 36.59 0.524 7.29 728.7 13.45
2/17/2021 4:00:00 AM 2.5 36.5 0.52 7.29 728.2 13.44
2/17/2021 4:15:00 AM 2.47 36.446 0.514 7.29 729.1 13.49
2/17/2021 4:30:00 AM 2.44 36.392 0.508 7.29 728.3 13.52
2/17/2021 4:45:00 AM 2.41 36.338 0.505 7.28 729 13.52
2/17/2021 5:00:00 AM 2.38 36.284 0.502 7.29 730 13.49
2/17/2021 5:15:00 AM 2.34 36.212 0.501 7.29 728.9 13.53
2/17/2021 5:30:00 AM 2.3 36.14 0.503 7.29 728 13.57
2/17/2021 5:45:00 AM 2.27 36.086 0.505 7.28 727.7 13.54
2/17/2021 6:00:00 AM 2.24 36.032 0.509 7.26 728.4 13.52
2/17/2021 6:15:00 AM 2.2 35.96 0.514 7.25 729.2 13.56
2/17/2021 6:30:00 AM 2.16 35.888 0.519 7.24 728.4 13.56
2/17/2021 6:45:00 AM 2.13 35.834 0.525 7.24 729.7 13.57
2/17/2021 7:00:00 AM 2.1 35.78 0.53 7.23 728.5 13.61
2/17/2021 7:15:00 AM 2.08 35.744 0.535 7.22 726.5 13.6
2/17/2021 7:30:00 AM 2.06 35.708 0.539 7.22 724.9 13.58
2/17/2021 7:45:00 AM 2.04 35.672 0.543 7.22 726.6 13.63
2/17/2021 8:00:00 AM 2.03 35.654 0.546 7.21 726.9 13.65
2/17/2021 8:15:00 AM 2.03 35.654 0.548 7.2 726.3 13.68
2/17/2021 8:30:00 AM 2.03 35.654 0.55 7.2 726.2 13.69
2/17/2021 8:45:00 AM 2.03 35.654 0.551 7.19 724.6 13.72
2/17/2021 9:00:00 AM 2.03 35.654 0.552 7.19 723.8 13.76
2/17/2021 9:15:00 AM 2.02 35.636 0.552 7.2 724.5 13.78
2/17/2021 9:30:00 AM 2.01 35.618 0.552 7.2 723.3 13.76
2/17/2021 9:45:00 AM 2 35.6 0.552 7.2 725.4 13.77
2/17/2021 10:00:00 AM 1.99 35.582 0.551 7.21 727.5 13.78
2/17/2021 10:15:00 AM 2 35.6 0.55 7.21 726.6 13.8
2/17/2021 10:30:00 AM 2.03 35.654 0.548 7.21 727.2 13.82
2/17/2021 10:45:00 AM 2.08 35.744 0.545 7.21 725.2 13.83
2/17/2021 11:00:00 AM 2.12 35.816 0.542 7.2 723.3 13.85
2/17/2021 11:15:00 AM 2.16 35.888 0.537 7.2 723.7 13.85
2/17/2021 11:30:00 AM 2.2 35.96 0.532 7.2 722 13.84
2/17/2021 11:45:00 AM 2.23 36.014 0.527 7.2 722.1 13.83
2/17/2021 12:00:00 PM 2.27 36.086 0.523 7.19 721.2 13.84
2/17/2021 12:15:00 PM 2.31 36.158 0.518 7.19 720.4 13.85
2/17/2021 12:30:00 PM 2.34 36.212 0.513 7.19 720.8 13.86
2/17/2021 12:45:00 PM 2.37 36.266 0.508 7.18 720.7 13.85
2/17/2021 1:00:00 PM 2.38 36.284 0.504 7.17 718.4 13.88
2/17/2021 1:15:00 PM 2.4 36.32 0.497 7.16 718.2 13.92
2/17/2021 1:30:00 PM 2.41 36.338 0.49 7.17 718.6 13.88
2/17/2021 1:45:00 PM 2.45 36.41 0.484 7.18 714.8 13.87
2/17/2021 2:00:00 PM 2.49 36.482 0.474 7.19 718.1 13.86
2/17/2021 2:15:00 PM 2.57 36.626 0.468 7.19 716.4 13.88
2/17/2021 2:30:00 PM 2.64 36.752 0.462 7.19 714.6 13.9
2/17/2021 2:45:00 PM 2.72 36.896 0.458 7.19 715.2 13.9
2/17/2021 3:00:00 PM 2.77 36.986 0.453 7.18 715.1 13.92
2/17/2021 3:15:00 PM 2.8 37.04 0.448 7.18 715.4 13.89
2/17/2021 3:30:00 PM 2.82 37.076 0.442 7.19 713.5 13.91
2/17/2021 3:45:00 PM 2.8 37.04 0.436 7.19 714 13.91
2/17/2021 4:00:00 PM 2.79 37.022 0.434 7.18 713.6 13.92
2/17/2021 4:15:00 PM 2.75 36.95 0.43 7.18 713.2 13.94
2/17/2021 4:30:00 PM 2.73 36.914 0.427 7.18 715.3 13.95
2/17/2021 4:45:00 PM 2.69 36.842 0.423 7.18 712.8 13.91
2/17/2021 5:00:00 PM 2.67 36.806 0.42 7.18 711.7 13.92
2/17/2021 5:15:00 PM 2.64 36.752 0.417 7.18 712.9 13.9
2/17/2021 5:30:00 PM 2.62 36.716 0.414 7.17 714.2 13.88
2/17/2021 5:45:00 PM 2.6 36.68 0.412 7.17 712.6 13.9
2/17/2021 6:00:00 PM 2.58 36.644 0.41 7.17 712.8 13.89
2/17/2021 6:15:00 PM 2.57 36.626 0.407 7.17 713.2 13.88
2/17/2021 6:30:00 PM 2.55 36.59 0.404 7.17 713.3 13.85
2/17/2021 6:45:00 PM 2.54 36.572 0.4 7.17 714 13.9
2/17/2021 7:00:00 PM 2.54 36.572 0.397 7.18 715.4 13.86
2/17/2021 7:15:00 PM 2.53 36.554 0.395 7.18 713.8 13.91
2/17/2021 7:30:00 PM 2.52 36.536 0.393 7.18 712.9 13.94
2/17/2021 7:45:00 PM 2.51 36.518 0.391 7.18 713.9 13.93
2/17/2021 8:00:00 PM 2.5 36.5 0.39 7.18 713.7 13.95
2/17/2021 8:15:00 PM 2.49 36.482 0.388 7.17 713.4 13.97
2/17/2021 8:30:00 PM 2.47 36.446 0.386 7.18 713 13.95
2/17/2021 8:45:00 PM 2.46 36.428 0.385 7.18 714.4 13.99
2/17/2021 9:00:00 PM 2.44 36.392 0.383 7.19 714.2 13.97
2/17/2021 9:15:00 PM 2.42 36.356 0.381 7.18 716.3 13.95
2/17/2021 9:30:00 PM 2.4 36.32 0.38 7.18 715 14.01
2/17/2021 9:45:00 PM 2.39 36.302 0.378 7.18 713.8 13.96
2/17/2021 10:00:00 PM 2.37 36.266 0.376 7.18 716.8 13.96
2/17/2021 10:15:00 PM 2.36 36.248 0.375 7.17 715.6 13.96
2/17/2021 10:30:00 PM 2.33 36.194 0.374 7.17 714.9 13.99
2/17/2021 10:45:00 PM 2.32 36.176 0.372 7.16 714.3 13.98
2/17/2021 11:00:00 PM 2.29 36.122 0.371 7.17 714 13.96
2/17/2021 11:15:00 PM 2.28 36.104 0.37 7.16 713.7 13.95
2/17/2021 11:30:00 PM 2.26 36.068 0.369 7.16 714.9 13.95
2/17/2021 11:45:00 PM 2.24 36.032 0.367 7.15 713.2 13.97
2/18/2021 12:00:00 AM 2.22 35.996 0.366 7.15 713.6 13.95
2/18/2021 12:15:00 AM 2.21 35.978 0.365 7.17 714.1 13.99
2/18/2021 12:30:00 AM 2.2 35.96 0.365 7.17 713.2 13.99
2/18/2021 12:45:00 AM 2.18 35.924 0.364 7.17 713.9 13.97
2/18/2021 1:00:00 AM 2.17 35.906 0.363 7.18 713.9 13.97
2/18/2021 1:15:00 AM 2.15 35.87 0.362 7.18 713.2 13.97
2/18/2021 1:30:00 AM 2.14 35.852 0.361 7.18 713.5 13.98
2/18/2021 1:45:00 AM 2.13 35.834 0.361 7.17 713.5 13.98
2/18/2021 2:00:00 AM 2.12 35.816 0.36 7.17 713.7 13.97
2/18/2021 2:15:00 AM 2.11 35.798 0.36 7.18 713.3 13.99
2/18/2021 2:30:00 AM 2.1 35.78 0.359 7.17 713.8 13.98
2/18/2021 2:45:00 AM 2.09 35.762 0.358 7.17 714.4 13.98
2/18/2021 3:00:00 AM 2.09 35.762 0.358 7.17 713.9 13.94
2/18/2021 3:15:00 AM 2.08 35.744 0.357 7.17 713.3 13.97
2/18/2021 3:30:00 AM 2.06 35.708 0.356 7.16 713.4 13.97
2/18/2021 3:45:00 AM 2.06 35.708 0.355 7.16 713.8 13.93
2/18/2021 4:00:00 AM 2.04 35.672 0.355 7.15 714.3 13.95
2/18/2021 4:15:00 AM 2.03 35.654 0.354 7.15 714.5 13.93
2/18/2021 4:30:00 AM 2.02 35.636 0.354 7.14 713 13.98
2/18/2021 4:45:00 AM 2.02 35.636 0.353 7.14 712.8 13.96
2/18/2021 5:00:00 AM 2 35.6 0.353 7.14 712.6 14
2/18/2021 5:15:00 AM 1.99 35.582 0.353 7.14 711.6 13.97
2/18/2021 5:30:00 AM 1.98 35.564 0.352 7.14 712.1 13.99
2/18/2021 5:45:00 AM 1.98 35.564 0.352 7.14 712.8 13.98
2/18/2021 6:00:00 AM 1.97 35.546 0.352 7.15 712.9 13.97
2/18/2021 6:15:00 AM 1.95 35.51 0.351 7.15 713.7 13.95
2/18/2021 6:30:00 AM 1.94 35.492 0.351 7.15 713.1 13.96
2/18/2021 6:45:00 AM 1.93 35.474 0.351 7.14 713.6 13.95
2/18/2021 7:00:00 AM 1.9 35.42 0.35 7.15 713.1 13.94
2/18/2021 7:15:00 AM 1.87 35.366 0.35 7.15 712.5 13.92
2/18/2021 7:30:00 AM 1.84 35.312 0.35 7.15 712.9 13.93
2/18/2021 7:45:00 AM 1.82 35.276 0.35 7.15 710.4 13.93
2/18/2021 8:00:00 AM 1.79 35.222 0.349 7.15 712.1 13.95
2/18/2021 8:15:00 AM 1.77 35.186 0.349 7.15 711.6 13.96
2/18/2021 8:30:00 AM 1.76 35.168 0.349 7.15 711.8 13.97
2/18/2021 8:45:00 AM 1.73 35.114 0.348 7.13 709.7 13.97
2/18/2021 9:00:00 AM 1.7 35.06 0.348 7.13 710.4 14
2/18/2021 9:15:00 AM 1.68 35.024 0.348 7.13 709.4 14.01
2/18/2021 9:30:00 AM 1.65 34.97 0.347 7.12 709.6 14.03
2/18/2021 9:45:00 AM 1.64 34.952 0.346 7.11 709.8 14.04
2/18/2021 10:00:00 AM 1.64 34.952 0.346 7.12 709.3 14.08
2/18/2021 10:15:00 AM 1.66 34.988 0.346 7.13 708.3 14.11
2/18/2021 10:30:00 AM 1.66 34.988 0.346 7.12 708.7 14.12
2/18/2021 10:45:00 AM 1.68 35.024 0.345 7.13 707.3 14.13
2/18/2021 11:00:00 AM 1.66 34.988 0.345 7.12 707 14.12
2/18/2021 11:15:00 AM 1.66 34.988 0.345 7.12 706.8 14.15
2/18/2021 11:30:00 AM 1.65 34.97 0.345 7.14 706.4 14.14
2/18/2021 11:45:00 AM 1.65 34.97 0.345 7.14 706.5 14.16
2/18/2021 12:00:00 PM 1.66 34.988 0.345 7.15 706.2 14.19
2/18/2021 12:15:00 PM 1.66 34.988 0.345 7.15 703.4 14.17
2/18/2021 12:30:00 PM 1.66 34.988 0.345 7.15 704.9 14.16
2/18/2021 12:45:00 PM 1.67 35.006 0.345 7.15 704.3 14.18
2/18/2021 1:00:00 PM 1.66 34.988 0.345 7.14 704.4 14.19
2/18/2021 1:15:00 PM 1.65 34.97 0.345 7.15 704.4 14.19
2/18/2021 1:30:00 PM 1.66 34.988 0.344 7.15 704.4 14.2
2/18/2021 1:45:00 PM 1.65 34.97 0.344 7.14 704.2 14.21
2/18/2021 2:00:00 PM 1.65 34.97 0.344 7.14 703 14.24
2/18/2021 2:15:00 PM 1.66 34.988 0.344 7.14 702.8 14.24
2/18/2021 2:30:00 PM 1.66 34.988 0.344 7.14 704.4 14.28
2/18/2021 2:45:00 PM 1.65 34.97 0.344 7.14 704.7 14.3
2/18/2021 3:00:00 PM 1.65 34.97 0.343 7.14 703.6 14.3
2/18/2021 3:15:00 PM 1.65 34.97 0.343 7.13 703.6 14.32
2/18/2021 3:30:00 PM 1.66 34.988 0.343 7.14 702.7 14.33
2/18/2021 3:45:00 PM 1.67 35.006 0.343 7.14 703 14.36
2/18/2021 4:00:00 PM 1.68 35.024 0.343 7.14 702.4 14.36
2/18/2021 4:15:00 PM 1.69 35.042 0.343 7.14 702.2 14.35
2/18/2021 4:30:00 PM 1.69 35.042 0.343 7.15 701.3 14.35
2/18/2021 4:45:00 PM 1.69 35.042 0.343 7.16 702.1 14.34
2/18/2021 5:00:00 PM 1.69 35.042 0.343 7.17 701.7 14.31
2/18/2021 5:15:00 PM 1.68 35.024 0.343 7.18 701 14.32
2/18/2021 5:30:00 PM 1.68 35.024 0.343 7.18 702.1 14.3
2/18/2021 5:45:00 PM 1.67 35.006 0.342 7.18 701.1 14.28
2/18/2021 6:00:00 PM 1.66 34.988 0.342 7.18 700.4 14.27
2/18/2021 6:15:00 PM 1.67 35.006 0.342 7.18 700.6 14.25
2/18/2021 6:30:00 PM 1.67 35.006 0.342 7.19 699.8 14.26
2/18/2021 6:45:00 PM 1.64 34.952 0.342 7.2 700.4 14.26
2/18/2021 7:00:00 PM 1.64 34.952 0.342 7.21 699.8 14.25
2/18/2021 7:15:00 PM 1.64 34.952 0.342 7.22 700.2 14.25
2/18/2021 7:30:00 PM 1.65 34.97 0.342 7.23 699.5 14.27
2/18/2021 7:45:00 PM 1.64 34.952 0.342 7.25 700.5 14.29
2/18/2021 8:00:00 PM 1.67 35.006 0.341 7.24 700 14.29
2/18/2021 8:15:00 PM 1.67 35.006 0.341 7.25 701 14.3
2/18/2021 8:30:00 PM 1.67 35.006 0.341 7.24 698.8 14.32
2/18/2021 8:45:00 PM 1.67 35.006 0.341 7.25 698.6 14.33
2/18/2021 9:00:00 PM 1.69 35.042 0.341 7.23 697.6 14.33
2/18/2021 9:15:00 PM 1.69 35.042 0.341 7.22 697.4 14.32
2/18/2021 9:30:00 PM 1.68 35.024 0.341 7.22 696.8 14.31
2/18/2021 9:45:00 PM 1.68 35.024 0.341 7.21 696.1 14.34
2/18/2021 10:00:00 PM 1.68 35.024 0.341 7.21 696.1 14.34
2/18/2021 10:15:00 PM 1.67 35.006 0.341 7.22 695 14.34
2/18/2021 10:30:00 PM 1.66 34.988 0.341 7.22 695 14.34
2/18/2021 10:45:00 PM 1.67 35.006 0.341 7.22 694.9 14.31
2/18/2021 11:00:00 PM 1.66 34.988 0.341 7.22 694.1 14.29
2/18/2021 11:15:00 PM 1.64 34.952 0.341 7.21 695.1 14.3
2/18/2021 11:30:00 PM 1.64 34.952 0.341 7.2 695.1 14.29
2/18/2021 11:45:00 PM 1.62 34.916 0.341 7.2 693.8 14.28
2/19/2021 12:00:00 AM 1.6 34.88 0.342 7.19 694.3 14.31
2/19/2021 12:15:00 AM 1.59 34.862 0.342 7.19 694 14.28
2/19/2021 12:30:00 AM 1.59 34.862 0.342 7.18 693.8 14.26
2/19/2021 12:45:00 AM 1.58 34.844 0.342 7.18 694.2 14.25
2/19/2021 1:00:00 AM 1.56 34.808 0.342 7.17 695.5 14.24
2/19/2021 1:15:00 AM 1.54 34.772 0.343 7.17 697.1 14.25
2/19/2021 1:30:00 AM 1.55 34.79 0.343 7.18 697.5 14.21
2/19/2021 1:45:00 AM 1.54 34.772 0.343 7.17 698.5 14.21
2/19/2021 2:00:00 AM 1.52 34.736 0.343 7.15 700.1 14.2
2/19/2021 2:15:00 AM 1.52 34.736 0.343 7.15 700.1 14.2
2/19/2021 2:30:00 AM -100000 -179968 -100000 -100000 -100000 -100000
2/19/2021 12:00:00 PM -100000 -179968 -100000 -100000 -100000 -100000
2/19/2021 12:15:00 PM -100000 -179968 -100000 -100000 -100000 -100000
2/19/2021 12:30:00 PM -100000 -179968 -100000 -100000 -100000 -100000
2/19/2021 12:45:00 PM -100000 -179968 -100000 -100000 -100000 -100000
2/19/2021 1:00:00 PM -100000 -179968 -100000 -100000 -100000 -100000
2/19/2021 1:15:00 PM -100000 -179968 -100000 -100000 -100000 -100000
2/19/2021 1:30:00 PM -100000 -179968 -100000 -100000 -100000 -100000
2/19/2021 1:45:00 PM 2.1 35.78 0.366 7.1 707.6 14.4
2/19/2021 2:00:00 PM 2.13 35.834 0.367 7.11 713.4 14.37
2/19/2021 2:15:00 PM 2.16 35.888 0.367 7.12 719.4 14.36
2/19/2021 2:30:00 PM 2.17 35.906 0.367 7.11 723.1 14.33
2/19/2021 2:45:00 PM 2.18 35.924 0.368 7.11 730.2 14.36
2/19/2021 3:00:00 PM 2.18 35.924 0.368 7.1 738.5 14.36
2/19/2021 3:15:00 PM 2.2 35.96 0.368 7.1 745.7 14.35
2/19/2021 3:30:00 PM 2.21 35.978 0.369 7.11 752.3 14.34
2/19/2021 3:45:00 PM 2.2 35.96 0.369 7.1 757.8 14.33
2/19/2021 4:00:00 PM 2.21 35.978 0.369 7.1 762.7 14.3
2/19/2021 4:15:00 PM 2.21 35.978 0.37 7.1 767.1 14.29
2/19/2021 4:30:00 PM 2.22 35.996 0.37 7.09 770.7 14.27
2/19/2021 4:45:00 PM 2.22 35.996 0 13.89 0 0
2/20/2021 8:00:00 AM 2.25 36.05 0.405 7.14 774.7 11.92
2/20/2021 8:15:00 AM 2.24 36.032 0.405 7.12 782.4 11.84
2/20/2021 8:30:00 AM 2.21 35.978 0.406 7.12 787.6 11.72
2/20/2021 8:45:00 AM 2.15 35.87 0.407 7.12 792.6 12.1
2/20/2021 9:00:00 AM 2.23 36.014 0.407 7.12 796.2 12.09
2/20/2021 9:15:00 AM 2.12 35.816 0.408 7.11 800.3 12.53
2/20/2021 9:30:00 AM 2.2 35.96 0.408 7.12 803 12.82
2/20/2021 9:45:00 AM 2.1 35.78 0.41 7.11 805.9 12.92
2/20/2021 10:00:00 AM 2.18 35.924 0.409 7.11 810.2 13.19
2/20/2021 10:15:00 AM 2.26 36.068 0.409 7.12 811.9 12.7
2/20/2021 10:30:00 AM 2.27 36.086 0.41 7.13 814.1 12.74
2/20/2021 10:45:00 AM 2.25 36.05 0.411 7.11 817.5 13.35
2/20/2021 11:00:00 AM 2.22 35.996 0.412 7.11 818.7 13.87
2/20/2021 11:15:00 AM 2.35 36.23 0.412 7.13 820.2 13.72
2/20/2021 11:30:00 AM 2.39 36.302 0.412 7.14 823.3 12.61
2/20/2021 11:45:00 AM 2.42 36.356 0.413 7.15 826.9 12.31
2/20/2021 12:00:00 PM 2.44 36.392 0.414 7.14 828 11.35
2/20/2021 12:15:00 PM 2.45 36.41 0.416 7.11 831.3 10.18
2/20/2021 12:30:00 PM 2.49 36.482 0.418 7.09 834.8 9.36
2/20/2021 12:45:00 PM 2.51 36.518 0.42 7.06 837.7 9.16
2/20/2021 1:00:00 PM 2.55 36.59 0.422 7.06 841.4 9.48
2/20/2021 1:15:00 PM 2.58 36.644 0.423 7.03 845.8 9.94
2/20/2021 1:30:00 PM 2.62 36.716 0.424 7.03 849.1 10.22
2/20/2021 1:45:00 PM 2.69 36.842 0.426 7.03 853.7 9.99
2/20/2021 2:00:00 PM 2.69 36.842 0.427 7.05 858.9 10.44
2/20/2021 2:15:00 PM 2.73 36.914 0.427 7.06 866 11.31
2/20/2021 2:30:00 PM 2.77 36.986 0.428 7.08 872.6 12.64
2/20/2021 2:45:00 PM 2.79 37.022 0.428 7.08 884.1 12.5
2/20/2021 3:00:00 PM 2.8 37.04 0.427 7.1 896.1 12.67
2/20/2021 3:15:00 PM 2.82 37.076 0.427 7.11 909.5 12.82
2/20/2021 3:30:00 PM 2.83 37.094 0.427 6.93 925.2 13.45
2/20/2021 3:45:00 PM 2.85 37.13 0.427 7.09 941.2 12.47
2/20/2021 4:00:00 PM 2.86 37.148 0.428 7.1 954.7 12.28
2/20/2021 4:15:00 PM 2.86 37.148 0.428 7.12 974.2 12.5
2/20/2021 4:30:00 PM 2.86 37.148 0.428 7.13 997.2 13
2/20/2021 4:45:00 PM 2.87 37.166 0.428 7.15 1018 12.99
2/20/2021 5:00:00 PM 2.87 37.166 0.428 7.18 1039 13.2
2/20/2021 5:15:00 PM 2.87 37.166 0.429 7.19 1066 13.1
2/20/2021 5:30:00 PM 2.88 37.184 0.429 7.21 1097 13.24
2/20/2021 5:45:00 PM 2.88 37.184 0.429 7.2 1142 12.68
2/20/2021 6:00:00 PM 2.88 37.184 0.429 7.22 1216 12.46
2/20/2021 6:15:00 PM 2.88 37.184 0.429 7.21 1317 12.5
2/20/2021 6:30:00 PM 2.88 37.184 0.43 7.21 1432 12.78
2/20/2021 6:45:00 PM 2.87 37.166 0.43 7.21 1573 12.1
2/20/2021 7:00:00 PM 2.88 37.184 0.43 7.21 1708 11.75
2/20/2021 7:15:00 PM 2.88 37.184 0.431 7.17 1808 11.91
2/20/2021 7:30:00 PM 2.85 37.13 0.431 7.19 1907 11.89
2/20/2021 7:45:00 PM 2.87 37.166 0.431 7.2 2001 11.54
2/20/2021 8:00:00 PM 2.88 37.184 0.432 7.21 2095 12.11
2/20/2021 8:15:00 PM 2.86 37.148 0.433 7.21 2179 11.9
2/20/2021 8:30:00 PM 2.87 37.166 0.433 7.2 2260 11.3
2/20/2021 8:45:00 PM 2.88 37.184 0.434 7.19 2341 11.49
2/20/2021 9:00:00 PM 2.89 37.202 0.435 7.19 2439 11.19
2/20/2021 9:15:00 PM 2.89 37.202 0.435 7.18 2534 10.83
2/20/2021 9:30:00 PM 2.89 37.202 0.436 7.16 2641 10.25
2/20/2021 9:45:00 PM 2.9 37.22 0.437 7.15 2784 9.73
2/20/2021 10:00:00 PM 2.9 37.22 0.438 7.14 2934 9.12
2/20/2021 10:15:00 PM 2.9 37.22 0.439 7.14 3060 9.15
2/20/2021 10:30:00 PM 2.91 37.238 0.44 7.16 3171 9.25
2/20/2021 10:45:00 PM 2.91 37.238 0.441 7.16 3239 8.98
2/20/2021 11:00:00 PM 2.92 37.256 0.442 7.14 3287 8.9
2/20/2021 11:15:00 PM 2.93 37.274 0.443 7.14 3335 8.99
2/20/2021 11:30:00 PM 2.93 37.274 0.443 7.13 3390 8.6
2/20/2021 11:45:00 PM 2.94 37.292 0.443 7.13 3426 8.55
2/21/2021 12:00:00 AM 2.94 37.292 0.444 7.13 3472 8.45
2/21/2021 12:15:00 AM 2.95 37.31 0.446 7.13 3549 7.89
2/21/2021 12:30:00 AM 2.95 37.31 0.446 7.12 3646 7.33
2/21/2021 12:45:00 AM 2.95 37.31 0.448 7.12 3753 7.77
2/21/2021 1:00:00 AM 2.95 37.31 0.448 7.11 3867 7.66
2/21/2021 1:15:00 AM 2.93 37.274 0.451 7.11 3941 7.56
2/21/2021 1:30:00 AM 2.92 37.256 0.452 7.1 4048 7.32
2/21/2021 1:45:00 AM 2.92 37.256 0.453 7.1 4128 6.48
2/21/2021 2:00:00 AM 2.91 37.238 0.454 7.09 4203 5.75
2/21/2021 2:15:00 AM 2.9 37.22 0.455 7.09 4296 4.95
2/21/2021 2:30:00 AM 2.89 37.202 0.457 7.08 4369 4.4
2/21/2021 2:45:00 AM 2.86 37.148 0.46 7.06 4423 3.7
2/21/2021 3:00:00 AM 2.86 37.148 0.463 7.03 4463 2.87
2/21/2021 3:15:00 AM 2.86 37.148 0.467 7.01 4476 1.98
2/21/2021 3:30:00 AM 2.85 37.13 0.471 6.99 4463 2.04
2/21/2021 3:45:00 AM 2.87 37.166 0.476 6.96 4398 1.61
2/21/2021 4:00:00 AM 2.86 37.148 0.48 6.96 4360 1.45
2/21/2021 4:15:00 AM 2.87 37.166 0.483 6.95 4242 1.27
2/21/2021 4:30:00 AM 2.87 37.166 0.485 6.96 3596 1.66
2/21/2021 4:45:00 AM 2.91 37.238 0.487 6.96 1.77 1.2
2/21/2021 5:00:00 AM 2.85 37.13 0.489 6.95 1.63 0.57
2/21/2021 5:15:00 AM 2.85 37.13 0.492 6.93 2.71 0.36
2/21/2021 5:30:00 AM 2.83 37.094 0.496 6.91 8.5 0.32
2/21/2021 5:45:00 AM 2.79 37.022 0.501 6.91 166.5 0.3
2/21/2021 6:00:00 AM 2.85 37.13 0.505 6.92 294.3 0.08
2/21/2021 6:15:00 AM 2.85 37.13 0.507 6.92 456.6 0.08
2/21/2021 6:30:00 AM 2.86 37.148 0.509 6.93 10.84 0.08
2/21/2021 6:45:00 AM 2.82 37.076 0.51 6.92 4.56 0.47
2/21/2021 7:00:00 AM 2.8 37.04 0.509 6.91 2.68 0.15
2/21/2021 7:15:00 AM 2.77 36.986 0.508 6.89 5.77 0.13
2/21/2021 7:30:00 AM 2.77 36.986 0.512 6.89 5.99 0.17
2/21/2021 7:45:00 AM 2.77 36.986 0.512 6.9 3.95 0.15
2/21/2021 8:00:00 AM 2.77 36.986 0.514 6.9 1.75 0.14
2/21/2021 8:15:00 AM 2.77 36.986 0.516 6.91 1.8 0.11
2/21/2021 8:30:00 AM 2.74 36.932 0.517 6.9 2.4 0.1
2/21/2021 8:45:00 AM 2.73 36.914 0.514 6.89 2.4 0.1
2/21/2021 9:00:00 AM 2.72 36.896 0.52 6.88 1.61 0.1
2/21/2021 9:15:00 AM 2.71 36.878 0.523 6.88 1.67 0.09
2/21/2021 9:30:00 AM 2.69 36.842 0.522 6.89 1.8 0.1
2/21/2021 9:45:00 AM 2.71 36.878 0.521 6.91 1.55 0.13
2/21/2021 10:00:00 AM 2.69 36.842 0.523 6.9 1.58 0.11
2/21/2021 10:15:00 AM 2.69 36.842 0.523 6.9 1.74 0.11
2/21/2021 10:30:00 AM 2.68 36.824 0.525 6.89 2.15 0.09
2/21/2021 10:45:00 AM 2.67 36.806 0.525 6.9 1.49 0.14
2/21/2021 11:00:00 AM 2.67 36.806 0.527 6.88 1.86 0.12
2/21/2021 11:15:00 AM 2.68 36.824 0.529 6.87 1.55 0.18
2/21/2021 11:30:00 AM 2.69 36.842 0.53 6.87 24.85 0.13
2/21/2021 11:45:00 AM 2.7 36.86 0.532 6.86 1.37 0.09
2/21/2021 12:00:00 PM 2.71 36.878 0.533 6.85 1.39 0.09
2/21/2021 12:15:00 PM 2.72 36.896 0.532 6.84 1.59 0.08
2/21/2021 12:30:00 PM 2.74 36.932 0.534 6.85 1.4 0.09
2/21/2021 12:45:00 PM 2.75 36.95 0.535 6.84 1.67 0.08
2/21/2021 1:00:00 PM 2.76 36.968 0.536 6.83 1.58 0.1
2/21/2021 1:15:00 PM 2.78 37.004 0.537 6.82 1.24 0.12
2/21/2021 1:30:00 PM 2.82 37.076 0.537 6.81 1.27 0.1
2/21/2021 1:45:00 PM 2.85 37.13 0.536 6.82 1.47 0.13
2/21/2021 2:00:00 PM 2.88 37.184 0.537 6.81 1.56 0.17
2/21/2021 2:15:00 PM 2.91 37.238 0.539 6.8 1.87 0.17
2/21/2021 2:30:00 PM 2.93 37.274 0.54 6.78 1.61 0.23
2/21/2021 2:45:00 PM 2.96 37.328 0.541 6.79 1.42 0.13
2/21/2021 3:00:00 PM 2.99 37.382 0.54 6.8 1.52 0.13
2/21/2021 3:15:00 PM 3.01 37.418 0.542 6.79 1.51 0.1
2/21/2021 3:30:00 PM 3.04 37.472 0.54 6.82 1.49 0.11
2/21/2021 3:45:00 PM 3.07 37.526 0.54 6.84 1.83 0.19
2/21/2021 4:00:00 PM 3.08 37.544 0.541 6.84 1.48 0.14
2/21/2021 4:15:00 PM 3.1 37.58 0.542 6.88 1.41 0.1
2/21/2021 4:30:00 PM 3.11 37.598 0.542 6.88 1.34 0.08
2/21/2021 4:45:00 PM 3.11 37.598 0.542 6.9 1.16 0.08
2/21/2021 5:00:00 PM 3.12 37.616 0.541 6.92 1.5 0.08
2/21/2021 5:15:00 PM 3.12 37.616 0.542 6.94 2.29 0.07
2/21/2021 5:30:00 PM 3.12 37.616 0.543 6.95 1.49 0.07
2/21/2021 5:45:00 PM 3.12 37.616 0.544 6.96 1.49 0.07
2/21/2021 6:00:00 PM 3.12 37.616 0.544 6.97 1.62 0.07
2/21/2021 6:15:00 PM 3.11 37.598 0.543 6.97 1.5 0.08
2/21/2021 6:30:00 PM 3.11 37.598 0.543 6.97 1.59 0.07
2/21/2021 6:45:00 PM 3.11 37.598 0.542 6.97 1.56 0.07
2/21/2021 7:00:00 PM 3.1 37.58 0.542 6.97 1.55 0.07
2/21/2021 7:15:00 PM 3.1 37.58 0.543 6.97 1.88 0.07
2/21/2021 7:30:00 PM 3.1 37.58 0.544 6.97 2.11 0.07
2/21/2021 7:45:00 PM 3.1 37.58 0.545 6.97 1.66 0.07
2/21/2021 8:00:00 PM 3.1 37.58 0.546 6.96 1.9 0.07
2/21/2021 8:15:00 PM 3.09 37.562 0.547 6.95 1.79 0.07
2/21/2021 8:30:00 PM 3.1 37.58 0.545 6.96 2.07 0.07
2/21/2021 8:45:00 PM 3.1 37.58 0.544 6.95 2.5 0.07
2/21/2021 9:00:00 PM 3.1 37.58 0.543 6.95 1.52 0.07
2/21/2021 9:15:00 PM 3.1 37.58 0.544 6.96 1.76 0.07
2/21/2021 9:30:00 PM 3.11 37.598 0.544 6.97 11.65 0.07
2/21/2021 9:45:00 PM 3.11 37.598 0.545 6.97 1.78 0.07
2/21/2021 10:00:00 PM 3.12 37.616 0.546 6.98 2.15 0.07
2/21/2021 10:15:00 PM 3.12 37.616 0.547 6.97 1.84 0.07
2/21/2021 10:30:00 PM 3.12 37.616 0.548 6.98 2.28 0.07
2/21/2021 10:45:00 PM 3.13 37.634 0.549 6.98 1.9 0.07
2/21/2021 11:00:00 PM 3.14 37.652 0.549 6.99 1.91 0.07
2/21/2021 11:15:00 PM 3.14 37.652 0.551 6.98 1.7 0.07
2/21/2021 11:30:00 PM 3.14 37.652 0.551 6.99 2.1 0.07
2/21/2021 11:45:00 PM 3.15 37.67 0.549 6.99 1.91 0.07
2/22/2021 12:00:00 AM 3.16 37.688 0.55 7 2.29 0.07
2/22/2021 12:15:00 AM 3.17 37.706 0.548 7 1.67 0.07
2/22/2021 12:30:00 AM 3.18 37.724 0.549 7 1.83 0.07
2/22/2021 12:45:00 AM 3.19 37.742 0.549 7.01 1.87 0.09
2/22/2021 1:00:00 AM 3.19 37.742 0.548 7.01 2.16 0.09
2/22/2021 1:15:00 AM 3.2 37.76 0.549 7.02 2.93 0.07
2/22/2021 1:30:00 AM 3.2 37.76 0.551 7.02 1.76 0.07
2/22/2021 1:45:00 AM 3.21 37.778 0.55 7.03 1.9 0.07
2/22/2021 2:00:00 AM 3.21 37.778 0.551 7.03 2.11 0.07
2/22/2021 2:15:00 AM 3.21 37.778 0.551 7.04 1.91 0.07
2/22/2021 2:30:00 AM 3.22 37.796 0.551 7.05 1.59 0.07
2/22/2021 2:45:00 AM 3.22 37.796 0.551 7.05 1.61 0.07
2/22/2021 3:00:00 AM 3.22 37.796 0.55 7.05 1.86 0.07
2/22/2021 3:15:00 AM 3.22 37.796 0.55 7.05 1.51 0.07
2/22/2021 3:30:00 AM 3.22 37.796 0.548 7.06 1.88 0.07
2/22/2021 3:45:00 AM 3.22 37.796 0.549 7.06 1.5 0.07
2/22/2021 4:00:00 AM 3.21 37.778 0.548 7.07 1.89 0.07
2/22/2021 4:15:00 AM 3.21 37.778 0.551 7.08 1.83 0.07
2/22/2021 4:30:00 AM 3.2 37.76 0.55 7.09 1.75 0.08
2/22/2021 4:45:00 AM 3.2 37.76 0.549 7.1 1.5 0.07
2/22/2021 5:00:00 AM 3.2 37.76 0.549 7.1 1.9 0.07
2/22/2021 5:15:00 AM 3.19 37.742 0.551 7.1 1.54 0.07
2/22/2021 5:30:00 AM 3.19 37.742 0.551 7.11 1.71 0.07
2/22/2021 5:45:00 AM 3.18 37.724 0.55 7.12 1.48 0.07
2/22/2021 6:00:00 AM 3.18 37.724 0.549 7.12 1.74 0.07
2/22/2021 6:15:00 AM 3.17 37.706 0.548 7.12 1.98 0.07
2/22/2021 6:30:00 AM 3.17 37.706 0.548 7.13 4.39 0.07
2/22/2021 6:45:00 AM 3.16 37.688 0.549 7.13 1.56 0.07
2/22/2021 7:00:00 AM 3.16 37.688 0.546 7.13 1.58 0.07
2/22/2021 7:15:00 AM 3.16 37.688 0.545 7.13 1.54 0.07
2/22/2021 7:30:00 AM 3.16 37.688 0.547 7.14 1.42 0.07
2/22/2021 7:45:00 AM 3.16 37.688 0.548 7.14 1.51 0.07
2/22/2021 8:00:00 AM 3.16 37.688 0.548 7.14 1.74 0.07
2/22/2021 8:15:00 AM 3.15 37.67 0.547 7.14 1.48 0.07
2/22/2021 8:30:00 AM 3.14 37.652 0.547 7.14 1.44 0.07
2/22/2021 8:45:00 AM 3.15 37.67 0.549 7.15 1.49 0.07
2/22/2021 9:00:00 AM 3.13 37.634 0.548 7.16 1.7 0.07
2/22/2021 9:15:00 AM 3.13 37.634 0.546 7.16 1.53 0.07
2/22/2021 9:30:00 AM 3.11 37.598 0.546 7.17 1.5 0.07
2/22/2021 9:45:00 AM 3.11 37.598 0.546 7.18 1.23 0.07
2/22/2021 10:00:00 AM 3.09 37.562 0.546 7.18 5.98 0.07
2/22/2021 10:15:00 AM 3.1 37.58 0.55 7.19 1.57 0.07
2/22/2021 10:30:00 AM 3.09 37.562 0.548 7.19 1.62 0.07
2/22/2021 10:45:00 AM 3.07 37.526 0.549 7.2 1.29 0.07
2/22/2021 11:00:00 AM 3.06 37.508 0.548 7.2 1.5 0.07
2/22/2021 11:15:00 AM 3.05 37.49 0.546 7.2 1.65 0.08
2/22/2021 11:30:00 AM 3.04 37.472 0.545 7.21 1.47 0.07
2/22/2021 11:45:00 AM 3.03 37.454 0.547 7.22 2.02 0.07
2/22/2021 12:00:00 PM 3.01 37.418 0.55 7.21 2.58 0.07
2/22/2021 12:15:00 PM 3 37.4 0.548 7.21 1.69 0.08
2/22/2021 12:30:00 PM 3 37.4 0.546 7.21 1.98 0.07
2/22/2021 12:45:00 PM 3 37.4 0.547 7.2 1.34 0.07
2/22/2021 1:00:00 PM 2.99 37.382 0.546 7.2 2.23 0.07
2/22/2021 1:15:00 PM 2.98 37.364 0.549 7.2 1.41 0.07
2/22/2021 1:30:00 PM 2.98 37.364 0.551 7.19 1.83 0.07
2/22/2021 1:45:00 PM 2.98 37.364 0.553 7.18 1.52 0.07
2/22/2021 2:00:00 PM 2.98 37.364 0.55 7.18 1.33 0.07
2/22/2021 2:15:00 PM 2.97 37.346 0.549 7.18 1.58 0.07
2/22/2021 2:30:00 PM 2.98 37.364 0.554 7.18 1.6 0.07
2/22/2021 2:45:00 PM 2.98 37.364 0.552 7.17 1.51 0.07
2/22/2021 3:00:00 PM 2.98 37.364 0.552 7.17 1.54 0.07
2/22/2021 3:15:00 PM 2.98 37.364 0.55 7.17 1.48 0.07
2/22/2021 3:30:00 PM 2.99 37.382 0.55 7.17 1.96 0.07
2/22/2021 3:45:00 PM 2.98 37.364 0.552 7.17 1.58 0.07
2/22/2021 4:00:00 PM 2.99 37.382 0.555 7.18 1.34 0.07
2/22/2021 4:15:00 PM 2.99 37.382 0.556 7.17 1.6 0.07
2/22/2021 4:30:00 PM 3 37.4 0.558 7.17 1.78 0.07
2/22/2021 4:45:00 PM 2.99 37.382 0.556 7.17 1.89 0.07
2/22/2021 5:00:00 PM 2.99 37.382 0.557 7.18 1.46 0.07
2/22/2021 5:15:00 PM 2.99 37.382 0.554 7.18 1.58 0.07
2/22/2021 5:30:00 PM 2.99 37.382 0.554 7.19 1.49 0.07
2/22/2021 5:45:00 PM 2.98 37.364 0.551 7.19 1.19 0.07
2/22/2021 6:00:00 PM 2.99 37.382 0.549 7.19 1.39 0.07
2/22/2021 6:15:00 PM 2.98 37.364 0.548 7.2 1.45 0.07
2/22/2021 6:30:00 PM 2.98 37.364 0.55 7.22 1.77 0.07
2/22/2021 6:45:00 PM 2.99 37.382 0.549 7.22 1.51 0.07
2/22/2021 7:00:00 PM 2.98 37.364 0.553 7.22 1.9 0.07
2/22/2021 7:15:00 PM 2.98 37.364 0.55 7.23 1.67 0.07
2/22/2021 7:30:00 PM 2.99 37.382 0.551 7.23 1.43 0.07
2/22/2021 7:45:00 PM 2.98 37.364 0.55 7.23 1.67 0.07
2/22/2021 8:00:00 PM 2.98 37.364 0.551 7.23 1.23 0.07
2/22/2021 8:15:00 PM 2.96 37.328 0.551 7.23 1.35 0.07
2/22/2021 8:30:00 PM 2.97 37.346 0.553 7.23 1.55 0.07
2/22/2021 8:45:00 PM 2.96 37.328 0.555 7.22 1.24 0.07
2/22/2021 9:00:00 PM 2.97 37.346 0.558 7.22 1.58 0.07
2/22/2021 9:15:00 PM 2.94 37.292 0.549 7.22 1.34 0.07
2/22/2021 9:30:00 PM 2.93 37.274 0.548 7.22 1.89 0.07
2/22/2021 9:45:00 PM 2.93 37.274 0.552 7.22 1.53 0.08
2/22/2021 10:00:00 PM 2.93 37.274 0.548 7.21 2 0.08
2/22/2021 10:15:00 PM 2.93 37.274 0.55 7.21 1.64 0.07
2/22/2021 10:30:00 PM 2.92 37.256 0.546 7.2 1.54 0.07
2/22/2021 10:45:00 PM 2.92 37.256 0.544 7.2 1.56 0.08
2/22/2021 11:00:00 PM 2.91 37.238 0.54 7.2 1.71 0.08
2/22/2021 11:15:00 PM 2.92 37.256 0.54 7.19 1.54 0.07
2/22/2021 11:30:00 PM 2.91 37.238 0.543 7.18 1.36 0.07
2/22/2021 11:45:00 PM 2.91 37.238 0.545 7.18 1.65 0.07
2/23/2021 12:00:00 AM 2.91 37.238 0.544 7.2 1.59 0.07
2/23/2021 12:15:00 AM 2.91 37.238 0.543 7.21 1.48 0.07
2/23/2021 12:30:00 AM 2.92 37.256 0.543 7.22 1.64 0.07
2/23/2021 12:45:00 AM 2.91 37.238 0.54 7.21 1.6 0.1
2/23/2021 1:00:00 AM 2.92 37.256 0.541 7.2 1.5 0.07
2/23/2021 1:15:00 AM 2.92 37.256 0.543 7.21 1.47 0.07
2/23/2021 1:30:00 AM 2.92 37.256 0.545 7.21 1.61 0.07
2/23/2021 1:45:00 AM 2.92 37.256 0.547 7.21 1.89 0.07
2/23/2021 2:00:00 AM 2.92 37.256 0.548 7.21 1.42 0.07
2/23/2021 2:15:00 AM 2.92 37.256 0.551 7.22 1.77 0.07
2/23/2021 2:30:00 AM 2.92 37.256 0.551 7.22 1.74 0.07
2/23/2021 2:45:00 AM 2.92 37.256 0.551 7.22 1.3 0.07
2/23/2021 3:00:00 AM 2.92 37.256 0.55 7.23 1.72 0.07
2/23/2021 3:15:00 AM 2.92 37.256 0.546 7.22 1.62 0.07
2/23/2021 3:30:00 AM 2.91 37.238 0.546 7.23 1.57 0.07
2/23/2021 3:45:00 AM 2.91 37.238 0.545 7.23 1.29 0.07
2/23/2021 4:00:00 AM 2.91 37.238 0.544 7.24 1.39 0.07
2/23/2021 4:15:00 AM 2.91 37.238 0.545 7.23 1.58 0.08
2/23/2021 4:30:00 AM 2.91 37.238 0.547 7.23 1.37 0.07
2/23/2021 4:45:00 AM 2.91 37.238 0.546 7.24 1.36 0.07
2/23/2021 5:00:00 AM 2.91 37.238 0.549 7.23 1.26 0.07
2/23/2021 5:15:00 AM 2.9 37.22 0.549 7.24 1.37 0.07
2/23/2021 5:30:00 AM 2.9 37.22 0.548 7.23 1.36 0.07
2/23/2021 5:45:00 AM 2.89 37.202 0.546 7.24 2.28 0.12
2/23/2021 6:00:00 AM 2.88 37.184 0.545 7.24 1.46 0.08
2/23/2021 6:15:00 AM 2.87 37.166 0.546 7.25 1.33 0.07
2/23/2021 6:30:00 AM 2.87 37.166 0.545 7.24 1.43 0.07
2/23/2021 6:45:00 AM 2.87 37.166 0.546 7.25 1.54 0.07
2/23/2021 7:00:00 AM 2.87 37.166 0.545 7.26 1.57 0.07
2/23/2021 7:15:00 AM 2.86 37.148 0.542 7.26 1.84 0.07
2/23/2021 7:30:00 AM 2.87 37.166 0.548 7.27 1.52 0.08
2/23/2021 7:45:00 AM 2.86 37.148 0.549 7.28 1.51 0.08
2/23/2021 8:00:00 AM 2.86 37.148 0.548 7.28 1.42 0.07
2/23/2021 8:15:00 AM 2.86 37.148 0.547 7.28 1.38 0.07
2/23/2021 8:30:00 AM 2.85 37.13 0.546 7.28 1.43 0.07
2/23/2021 8:45:00 AM 2.84 37.112 0.546 7.28 1.33 0.07
2/23/2021 9:00:00 AM 2.84 37.112 0.546 7.27 1.42 0.08
2/23/2021 9:15:00 AM 2.84 37.112 0.546 7.27 1.35 0.07
2/23/2021 9:30:00 AM 2.84 37.112 0.547 7.27 1.29 0.07
2/23/2021 9:45:00 AM 2.84 37.112 0.547 7.26 1.31 0.07
2/23/2021 10:00:00 AM 2.84 37.112 0.548 7.25 1.35 0.07
2/23/2021 10:15:00 AM 2.84 37.112 0.547 7.24 1.49 0.08
2/23/2021 10:30:00 AM 2.84 37.112 0.545 7.24 1.54 0.07
2/23/2021 10:45:00 AM 2.83 37.094 0.546 7.24 1.43 0.07
2/23/2021 11:00:00 AM 2.84 37.112 0.545 7.25 1.34 0.07
2/23/2021 11:15:00 AM 2.83 37.094 0.546 7.26 1.36 0.08
2/23/2021 11:30:00 AM 2.84 37.112 0.547 7.27 1.45 0.07
2/23/2021 11:45:00 AM 2.83 37.094 0.547 7.28 1.46 0.07
2/23/2021 12:00:00 PM 2.84 37.112 0.546 7.3 1.62 0.07
2/23/2021 12:15:00 PM 2.83 37.094 0.545 7.3 1.4 0.08
2/23/2021 12:30:00 PM 2.83 37.094 0.545 7.3 1.68 0.07
2/23/2021 12:45:00 PM 2.84 37.112 0.542 7.29 1.75 0.07
2/23/2021 1:00:00 PM 2.85 37.13 0.544 7.27 1.39 0.07
2/23/2021 1:15:00 PM 2.85 37.13 0.545 7.27 1.4 0.07
2/23/2021 1:30:00 PM 2.87 37.166 0.545 7.24 1.4 0.07
2/23/2021 1:45:00 PM 2.89 37.202 0.545 7.22 1.42 0.08
2/23/2021 2:00:00 PM 2.92 37.256 0.542 7.23 1.69 0.08
2/23/2021 2:15:00 PM 2.94 37.292 0.545 7.22 2.39 0.07
2/23/2021 2:30:00 PM 2.97 37.346 0.544 7.24 1.5 0.07
2/23/2021 2:45:00 PM 2.98 37.364 0.545 7.23 1.92 0.08
2/23/2021 3:00:00 PM 2.99 37.382 0.545 7.24 1.24 0.07
2/23/2021 3:15:00 PM 3.01 37.418 0.543 7.24 1.29 0.07
2/23/2021 3:30:00 PM 3.01 37.418 0.543 7.25 1.22 0.07
2/23/2021 3:45:00 PM 3.02 37.436 0.544 7.25 1.6 0.07
2/23/2021 4:00:00 PM 3.03 37.454 0.543 7.27 3.17 0.07
2/23/2021 4:15:00 PM 3.03 37.454 0.541 7.27 3.22 0.07
2/23/2021 4:30:00 PM 3.05 37.49 0.543 7.25 1.15 0.08
2/23/2021 4:45:00 PM 3.05 37.49 0.544 7.25 1.53 0.07
2/23/2021 5:00:00 PM 3.05 37.49 0.542 7.26 1.49 0.07
2/23/2021 5:15:00 PM 3.05 37.49 0.545 7.26 1.17 0.07
2/23/2021 5:30:00 PM 3.06 37.508 0.544 7.25 1.83 0.07
2/23/2021 5:45:00 PM 3.07 37.526 0.544 7.26 2.25 0.07
2/23/2021 6:00:00 PM 3.07 37.526 0.543 7.26 1.31 0.07
2/23/2021 6:15:00 PM 3.08 37.544 0.542 7.27 1.16 0.07
2/23/2021 6:30:00 PM 3.08 37.544 0.542 7.27 1.27 0.07
2/23/2021 6:45:00 PM 3.09 37.562 0.542 7.28 1.47 0.07
2/23/2021 7:00:00 PM 3.09 37.562 0.543 7.28 1.49 0.07
2/23/2021 7:15:00 PM 3.1 37.58 0.545 7.28 1.41 0.07
2/23/2021 7:30:00 PM 3.1 37.58 0.542 7.28 1.28 0.07
2/23/2021 7:45:00 PM 3.1 37.58 0.545 7.28 1.56 0.21
2/23/2021 8:00:00 PM 3.11 37.598 0.544 7.28 1.2 0.08
2/23/2021 8:15:00 PM 3.11 37.598 0.545 7.27 1.48 0.07
2/23/2021 8:30:00 PM 3.12 37.616 0.544 7.27 1.52 0.07
2/23/2021 8:45:00 PM 3.12 37.616 0.544 7.27 1.52 0.07
2/23/2021 9:00:00 PM 3.12 37.616 0.546 7.27 2.04 0.07
2/23/2021 9:15:00 PM 3.13 37.634 0.543 7.26 1.36 0.07
2/23/2021 9:30:00 PM 3.13 37.634 0.544 7.25 1.26 0.07
2/23/2021 9:45:00 PM 3.14 37.652 0.545 7.25 1.6 0.07
2/23/2021 10:00:00 PM 3.14 37.652 0.545 7.24 1.84 0.07
2/23/2021 10:15:00 PM 3.15 37.67 0.546 7.23 1.14 0.07
2/23/2021 10:30:00 PM 3.16 37.688 0.545 7.22 1.41 0.07
2/23/2021 10:45:00 PM 3.17 37.706 0.546 7.22 1.45 0.07
2/23/2021 11:00:00 PM 3.17 37.706 0.546 7.22 1.32 0.07
2/23/2021 11:15:00 PM 3.18 37.724 0.551 7.22 1.42 0.07
2/23/2021 11:30:00 PM 3.19 37.742 0.555 7.22 1.86 0.07
2/23/2021 11:45:00 PM 3.19 37.742 0.554 7.22 1.29 0.07
2/24/2021 12:00:00 AM 3.19 37.742 0.556 7.22 1.32 0.07
2/24/2021 12:15:00 AM 3.2 37.76 0.554 7.23 1.51 0.07
2/24/2021 12:30:00 AM 3.21 37.778 0.553 7.23 1.28 0.07
2/24/2021 12:45:00 AM 3.22 37.796 0.552 7.23 1.44 0.07
2/24/2021 1:00:00 AM 3.23 37.814 0.555 7.23 1.33 0.07
2/24/2021 1:15:00 AM 3.23 37.814 0.555 7.24 1.4 0.07
2/24/2021 1:30:00 AM 3.24 37.832 0.556 7.24 1.34 0.07
2/24/2021 1:45:00 AM 3.25 37.85 0.55 7.24 1.29 0.07
2/24/2021 2:00:00 AM 3.26 37.868 0.548 7.24 1.34 0.07
2/24/2021 2:15:00 AM 3.26 37.868 0.551 7.25 1.2 0.07
2/24/2021 2:30:00 AM 3.27 37.886 0.556 7.25 1.42 0.07
2/24/2021 2:45:00 AM 3.27 37.886 0.555 7.24 1.24 0.07
2/24/2021 3:00:00 AM 3.27 37.886 0.556 7.25 1.21 0.07
2/24/2021 3:15:00 AM 3.28 37.904 0.554 7.25 1.25 0.07
2/24/2021 3:30:00 AM 3.28 37.904 0.553 7.25 1.38 0.07
2/24/2021 3:45:00 AM 3.28 37.904 0.553 7.25 1.02 0.07
2/24/2021 4:00:00 AM 3.29 37.922 0.553 7.24 1.27 0.07
2/24/2021 4:15:00 AM 3.29 37.922 0.555 7.24 1.72 0.07
2/24/2021 4:30:00 AM 3.29 37.922 0.558 7.24 1.4 0.07
2/24/2021 4:45:00 AM 3.3 37.94 0.558 7.24 1.21 0.07
2/24/2021 5:00:00 AM 3.29 37.922 0.554 7.25 1.38 0.07
2/24/2021 5:15:00 AM 3.3 37.94 0.553 7.25 1.17 0.07
2/24/2021 5:30:00 AM 3.3 37.94 0.557 7.24 1.58 0.07
2/24/2021 5:45:00 AM 3.29 37.922 0.56 7.25 1.34 0.07
2/24/2021 6:00:00 AM 3.29 37.922 0.564 7.25 1.28 0.07
2/24/2021 6:15:00 AM 3.29 37.922 0.563 7.26 1.26 0.08
2/24/2021 6:30:00 AM 3.29 37.922 0.56 7.25 1.88 0.07
2/24/2021 6:45:00 AM 3.28 37.904 0.567 7.26 1.32 0.07
2/24/2021 7:00:00 AM 3.28 37.904 0.565 7.27 1.4 0.07
2/24/2021 7:15:00 AM 3.27 37.886 0.56 7.28 1.14 0.07
2/24/2021 7:30:00 AM 3.26 37.868 0.557 7.28 1.66 0.07
2/24/2021 7:45:00 AM 3.26 37.868 0.553 7.29 1.75 0.07
2/24/2021 8:00:00 AM 3.25 37.85 0.549 7.29 1.21 0.07
2/24/2021 8:15:00 AM 3.24 37.832 0.544 7.28 1.23 0.07
2/24/2021 8:30:00 AM 3.25 37.85 0.54 7.28 1.92 0.07
2/24/2021 8:45:00 AM 3.24 37.832 0.537 7.28 1.39 0.07
2/24/2021 9:00:00 AM 3.24 37.832 0.534 7.28 1.38 0.07
2/24/2021 9:15:00 AM 3.24 37.832 0.533 7.3 1.6 0.07
2/24/2021 9:30:00 AM 3.24 37.832 0.531 7.28 1.27 0.07
2/24/2021 9:45:00 AM 3.23 37.814 0.526 7.26 1.13 0.07
2/24/2021 10:00:00 AM 3.23 37.814 0.523 7.25 1.5 0.07
2/24/2021 10:15:00 AM 3.24 37.832 0.52 7.23 1.33 0.07
2/24/2021 10:30:00 AM 3.23 37.814 0.52 7.21 1.3 0.08
2/24/2021 10:45:00 AM 3.23 37.814 0.518 7.17 1.47 0.08
2/24/2021 11:00:00 AM 3.24 37.832 0.517 7.15 1.92 0.11
2/24/2021 11:15:00 AM 3.25 37.85 0.514 7.13 1.64 0.14
2/24/2021 11:30:00 AM 3.26 37.868 0.512 7.12 1.42 0.2
2/24/2021 11:45:00 AM 3.28 37.904 0.511 7.08 1.59 0.28
2/24/2021 12:00:00 PM 3.3 37.94 0.511 7.05 1.36 0.34
2/24/2021 12:15:00 PM 3.32 37.976 0.511 7.03 1.64 0.33
2/24/2021 12:30:00 PM 3.34 38.012 0.512 7.01 1.72 0.43
2/24/2021 12:45:00 PM 3.36 38.048 0.509 6.98 2.22 0.39
2/24/2021 1:00:00 PM 3.4 38.12 0.509 6.96 1.89 0.49
2/24/2021 1:15:00 PM 3.44 38.192 0.505 6.95 2.09 0.44
2/24/2021 1:30:00 PM 3.48 38.264 0.502 6.93 1.55 0.53
2/24/2021 1:45:00 PM 3.53 38.354 0.498 6.92 1.91 0.52
2/24/2021 2:00:00 PM 3.6 38.48 0.492 6.92 1.93 0.76
2/24/2021 2:15:00 PM 3.65 38.57 0.49 6.91 1.95 1
2/24/2021 2:30:00 PM 3.7 38.66 0.488 6.9 1.92 1.11
2/24/2021 2:45:00 PM 3.78 38.804 0.486 6.93 2.27 1.41
2/24/2021 3:00:00 PM 3.86 38.948 0.483 6.93 2.25 2.04
2/24/2021 3:15:00 PM 3.91 39.038 0.48 6.92 2.05 2.14
2/24/2021 3:30:00 PM 3.97 39.146 0.476 6.93 2.33 2.43
2/24/2021 3:45:00 PM 4.07 39.326 0.468 6.93 3.09 2.88
2/24/2021 4:00:00 PM 4.09 39.362 0.468 6.94 2.58 3.06
2/24/2021 4:15:00 PM 4.12 39.416 0.467 6.94 2.28 2.94
2/24/2021 4:30:00 PM 4.12 39.416 0.471 6.94 2.34 2.71
2/24/2021 4:45:00 PM 4.13 39.434 0.473 6.95 2.32 2.41
2/24/2021 5:00:00 PM 4.17 39.506 0.474 6.95 2.53 2.33
2/24/2021 5:15:00 PM 4.21 39.578 0.469 6.95 2.38 2.58
2/24/2021 5:30:00 PM 4.24 39.632 0.467 6.96 2.21 2.82
2/24/2021 5:45:00 PM 4.3 39.74 0.463 7.01 3.35 3.57
2/24/2021 6:00:00 PM 4.38 39.884 0.458 7.07 2.96 5
2/24/2021 6:15:00 PM 4.46 40.028 0.454 7.12 2.68 6.98
2/24/2021 6:30:00 PM 4.51 40.118 0.452 7.16 3.03 8.11
2/24/2021 6:45:00 PM 4.52 40.136 0.45 7.16 2.84 8.16
2/24/2021 7:00:00 PM 4.54 40.172 0.45 7.17 2.95 8.19
2/24/2021 7:15:00 PM 4.58 40.244 0.448 7.18 2.77 8.43
2/24/2021 7:30:00 PM 4.74 40.532 0.447 7.23 2.89 10.35
2/24/2021 7:45:00 PM 4.79 40.622 0.447 7.22 3.46 10.5
2/24/2021 8:00:00 PM 4.94 40.892 0.446 7.25 2.98 11.17
2/24/2021 8:15:00 PM 5 41 0.447 7.28 2.99 11.52
2/24/2021 8:30:00 PM 5.17 41.306 0.447 7.32 2.95 11.83
2/24/2021 8:45:00 PM 5.14 41.252 0.448 7.32 4.59 11.92
2/24/2021 9:00:00 PM 5.16 41.288 0.45 7.34 11.61 12.32
2/24/2021 9:15:00 PM 5.27 41.486 0.45 7.35 2.96 12.06
2/24/2021 9:30:00 PM 5.28 41.504 0.452 7.36 4.15 12.12
2/24/2021 9:45:00 PM 5.41 41.738 0.452 7.37 3.48 12.41
2/24/2021 10:00:00 PM 5.42 41.756 0.455 7.39 2.76 12.49
2/24/2021 10:15:00 PM 5.46 41.828 0.456 7.4 3.31 12.5
2/24/2021 10:30:00 PM 5.48 41.864 0.458 7.41 9.45 12.54
2/24/2021 10:45:00 PM 5.63 42.134 0.459 7.43 3.76 12.73
2/24/2021 11:00:00 PM 5.65 42.17 0.461 7.43 3.68 12.76
2/24/2021 11:15:00 PM 5.69 42.242 0.462 7.45 3.91 12.83
2/24/2021 11:30:00 PM 5.66 42.188 0.463 7.47 5.1 12.89
2/24/2021 11:45:00 PM 5.68 42.224 0.465 7.49 3.8 12.89
2/25/2021 12:00:00 AM 5.66 42.188 0.465 7.5 3.62 12.88
2/25/2021 12:15:00 AM 5.64 42.152 0.466 7.51 5.32 12.93
2/25/2021 12:30:00 AM 5.61 42.098 0.467 7.52 3.92 12.89
2/25/2021 12:45:00 AM 5.59 42.062 0.467 7.52 4.17 12.92
2/25/2021 1:00:00 AM 5.56 42.008 0.468 7.51 4.26 12.89
2/25/2021 1:15:00 AM 5.54 41.972 0.468 7.52 4.33 12.85
2/25/2021 1:30:00 AM 5.51 41.918 0.468 7.52 4.39 12.83
2/25/2021 1:45:00 AM 5.49 41.882 0.468 7.51 4.04 12.79
2/25/2021 2:00:00 AM 5.46 41.828 0.468 7.51 4.29 12.8
2/25/2021 2:15:00 AM 5.43 41.774 0.468 7.5 4.47 12.76
2/25/2021 2:30:00 AM 5.4 41.72 0.467 7.49 4.27 12.73
2/25/2021 2:45:00 AM 5.38 41.684 0.467 7.48 4.43 12.67
2/25/2021 3:00:00 AM 5.37 41.666 0.466 7.48 4.72 12.68
2/25/2021 3:15:00 AM 5.35 41.63 0.466 7.46 5.14 12.66
2/25/2021 3:30:00 AM 5.35 41.63 0.465 7.45 5.7 12.65
2/25/2021 3:45:00 AM 5.33 41.594 0.465 7.44 5.08 12.61
2/25/2021 4:00:00 AM 5.31 41.558 0.464 7.43 4.64 12.58
2/25/2021 4:15:00 AM 5.29 41.522 0.464 7.42 4.6 12.58
2/25/2021 4:30:00 AM 5.26 41.468 0.464 7.43 4.89 12.57
2/25/2021 4:45:00 AM 5.24 41.432 0.463 7.43 5.54 12.55
2/25/2021 5:00:00 AM 5.2 41.36 0.462 7.42 4.47 12.53
2/25/2021 5:15:00 AM 5.18 41.324 0.461 7.41 4.35 12.51
2/25/2021 5:30:00 AM 5.16 41.288 0.46 7.41 4.75 12.52
2/25/2021 5:45:00 AM 5.13 41.234 0.459 7.4 5.9 12.51
2/25/2021 6:00:00 AM 5.11 41.198 0.458 7.4 4.9 12.5
2/25/2021 6:15:00 AM 5.1 41.18 0.457 7.39 5.76 12.49
2/25/2021 6:30:00 AM 5.09 41.162 0.456 7.38 5.33 12.5
2/25/2021 6:45:00 AM 5.07 41.126 0.455 7.38 5.59 12.5
2/25/2021 7:00:00 AM 5.05 41.09 0.454 7.38 6.85 12.51
2/25/2021 7:15:00 AM 5.04 41.072 0.452 7.37 5.49 12.48
2/25/2021 7:30:00 AM 5.04 41.072 0.452 7.36 5.7 12.5
2/25/2021 7:45:00 AM 5.03 41.054 0.45 7.35 5.98 12.52
2/25/2021 8:00:00 AM 5.03 41.054 0.449 7.35 7.78 12.49
2/25/2021 8:15:00 AM 5.03 41.054 0.448 7.34 7.26 12.52
2/25/2021 8:30:00 AM 5.05 41.09 0.447 7.34 5.82 12.55
2/25/2021 8:45:00 AM 5.06 41.108 0.447 7.34 6.22 12.59
2/25/2021 9:00:00 AM 5.09 41.162 0.446 7.33 7.11 12.57
2/25/2021 9:15:00 AM 5.11 41.198 0.445 7.32 7.67 12.61
2/25/2021 9:30:00 AM 5.13 41.234 0.444 7.32 7.06 12.59
2/25/2021 9:45:00 AM 5.17 41.306 0.443 7.32 7.89 12.6
2/25/2021 10:00:00 AM 5.2 41.36 0.442 7.31 7.99 12.62
2/25/2021 10:15:00 AM 5.24 41.432 0.441 7.31 8.64 12.65
2/25/2021 10:30:00 AM 5.28 41.504 0.44 7.33 7.52 12.63
2/25/2021 10:45:00 AM 5.34 41.612 0.439 7.32 8.03 12.66
2/25/2021 11:00:00 AM 5.4 41.72 0.437 7.33 8.72 12.66
2/25/2021 11:15:00 AM 5.47 41.846 0.436 7.32 7.9 12.65
2/25/2021 11:30:00 AM 5.53 41.954 0.434 7.33 8.03 12.65
2/25/2021 11:45:00 AM 5.6 42.08 0.432 7.33 8.23 12.67
2/25/2021 12:00:00 PM 5.67 42.206 0.431 7.32 8.88 12.67
2/25/2021 12:15:00 PM 5.75 42.35 0.428 7.34 8.74 12.69
2/25/2021 12:30:00 PM 5.83 42.494 0.425 7.33 8.15 12.71
2/25/2021 12:45:00 PM 5.9 42.62 0.422 7.33 8.6 12.73
2/25/2021 1:00:00 PM 5.97 42.746 0.42 7.33 9.68 12.75
2/25/2021 1:15:00 PM 6.05 42.89 0.417 7.32 9.12 12.77
2/25/2021 1:30:00 PM 6.12 43.016 0.414 7.33 8.69 12.79
2/25/2021 1:45:00 PM 6.18 43.124 0.412 7.32 8.92 12.78
2/25/2021 2:00:00 PM 6.25 43.25 0.408 7.33 9.57 12.78
2/25/2021 2:15:00 PM 6.3 43.34 0.406 7.33 9.51 12.82
2/25/2021 2:30:00 PM 6.35 43.43 0.402 7.32 10.4 12.8
2/25/2021 2:45:00 PM 6.39 43.502 0.399 7.31 10.68 12.79
2/25/2021 3:00:00 PM 6.41 43.538 0.397 7.32 9.5 12.81
2/25/2021 3:15:00 PM 6.44 43.592 0.395 7.32 9.51 12.8
2/25/2021 3:30:00 PM 6.45 43.61 0.392 7.3 11.53 12.81
2/25/2021 3:45:00 PM 6.45 43.61 0.39 7.32 11.5 12.8
2/25/2021 4:00:00 PM 6.43 43.574 0.387 7.33 11.58 12.82
2/25/2021 4:15:00 PM 6.42 43.556 0.386 7.34 11.18 12.79
2/25/2021 4:30:00 PM 6.38 43.484 0.385 7.33 11.23 12.75
2/25/2021 4:45:00 PM 6.35 43.43 0.383 7.32 11.13 12.75
2/25/2021 5:00:00 PM 6.32 43.376 0.381 7.32 12.16 12.72
2/25/2021 5:15:00 PM 6.28 43.304 0.38 7.32 11.77 12.73
2/25/2021 5:30:00 PM 6.25 43.25 0.378 7.32 12.9 12.68
2/25/2021 5:45:00 PM 6.22 43.196 0.377 7.31 14.56 12.68
2/25/2021 6:00:00 PM 6.18 43.124 0.377 7.3 12.07 12.62
2/25/2021 6:15:00 PM 6.15 43.07 0.375 7.29 13.78 12.68
2/25/2021 6:30:00 PM 6.12 43.016 0.374 7.29 13.41 12.61
2/25/2021 6:45:00 PM 6.09 42.962 0.373 7.3 15.64 12.61
2/25/2021 7:00:00 PM 6.05 42.89 0.371 7.3 14.47 12.61
2/25/2021 7:15:00 PM 6.02 42.836 0.37 7.29 15.97 12.59
2/25/2021 7:30:00 PM 5.98 42.764 0.368 7.29 16.63 12.57
2/25/2021 7:45:00 PM 5.93 42.674 0.367 7.28 15.5 12.59
2/25/2021 8:00:00 PM 5.89 42.602 0.364 7.27 16.9 12.56
2/25/2021 8:15:00 PM 5.84 42.512 0.361 7.26 16.71 12.57
2/25/2021 8:30:00 PM 5.79 42.422 0.36 7.26 16.5 12.55
2/25/2021 8:45:00 PM 5.75 42.35 0.36 7.25 15.9 12.58
2/25/2021 9:00:00 PM 5.7 42.26 0.358 7.24 15.55 12.57
2/25/2021 9:15:00 PM 5.65 42.17 0.357 7.23 18.86 12.55
2/25/2021 9:30:00 PM 5.6 42.08 0.355 7.22 19.34 12.53
2/25/2021 9:45:00 PM 5.55 41.99 0.352 7.21 18.76 12.56
2/25/2021 10:00:00 PM 5.5 41.9 0.349 7.19 17.41 12.55
2/25/2021 10:15:00 PM 5.45 41.81 0.346 7.18 18 12.53
2/25/2021 10:30:00 PM 5.41 41.738 0.345 7.17 18.39 12.47
2/25/2021 10:45:00 PM 5.36 41.648 0.34 7.16 19.95 12.53
2/25/2021 11:00:00 PM 5.32 41.576 0.338 7.17 20.47 12.56
2/25/2021 11:15:00 PM 5.28 41.504 0.339 7.17 21.49 12.57
2/25/2021 11:30:00 PM 5.25 41.45 0.338 7.17 20.13 12.58
2/25/2021 11:45:00 PM 5.21 41.378 0.338 7.18 19.55 12.59
2/26/2021 12:00:00 AM 5.17 41.306 0.337 7.17 21.03 12.62
2/26/2021 12:15:00 AM 5.15 41.27 0.334 7.17 19.46 12.59
2/26/2021 12:30:00 AM 5.11 41.198 0.334 7.16 19.13 12.59
2/26/2021 12:45:00 AM 5.09 41.162 0.333 7.15 23.04 12.6
2/26/2021 1:00:00 AM 5.06 41.108 0.331 7.15 18.97 12.62
2/26/2021 1:15:00 AM 5.04 41.072 0.329 7.14 108.1 12.62
2/26/2021 1:30:00 AM 5.01 41.018 0.328 7.14 23.09 12.62
2/26/2021 1:45:00 AM 4.99 40.982 0.325 7.14 21.48 12.65
2/26/2021 2:00:00 AM 4.96 40.928 0.32 7.14 21.06 12.62
2/26/2021 2:15:00 AM 4.94 40.892 0.319 7.14 22.25 12.64
2/26/2021 2:30:00 AM 4.92 40.856 0.318 7.13 21.83 12.62
2/26/2021 2:45:00 AM 4.9 40.82 0.317 7.13 20.55 12.61
2/26/2021 3:00:00 AM 4.89 40.802 0.311 7.13 21.14 12.64
2/26/2021 3:15:00 AM 4.87 40.766 0.312 7.12 23.44 12.62
2/26/2021 3:30:00 AM 4.85 40.73 0.309 7.12 21.81 12.67
2/26/2021 3:45:00 AM 4.83 40.694 0.309 7.11 22.39 12.64
2/26/2021 4:00:00 AM 4.82 40.676 0.306 7.11 21.28 12.67
2/26/2021 4:15:00 AM 4.8 40.64 0.305 7.11 21.13 12.65
2/26/2021 4:30:00 AM 4.77 40.586 0.306 7.12 20.77 12.66
2/26/2021 4:45:00 AM 4.76 40.568 0.304 7.12 21.14 12.69
2/26/2021 5:00:00 AM 4.73 40.514 0.302 7.11 19.66 12.7
2/26/2021 5:15:00 AM 4.71 40.478 0.302 7.11 24.03 12.7
2/26/2021 5:30:00 AM 4.69 40.442 0.302 7.11 22.79 12.71
2/26/2021 5:45:00 AM 4.67 40.406 0.303 7.11 21.94 12.73
2/26/2021 6:00:00 AM 4.63 40.334 0.303 7.1 21.06 12.73
2/26/2021 6:15:00 AM 4.61 40.298 0.301 7.1 22.32 12.74
2/26/2021 6:30:00 AM 4.58 40.244 0.3 7.1 23.27 12.76
2/26/2021 6:45:00 AM 4.56 40.208 0.299 7.09 19.47 12.72
2/26/2021 7:00:00 AM 4.53 40.154 0.298 7.08 21.34 12.75
2/26/2021 7:15:00 AM 4.5 40.1 0.297 7.06 21.26 12.72
2/26/2021 7:30:00 AM 4.49 40.082 0.296 7.08 23.22 12.77
2/26/2021 7:45:00 AM 4.47 40.046 0.294 7.08 21.2 12.77
2/26/2021 8:00:00 AM 4.46 40.028 0.293 7.07 23.39 12.78
2/26/2021 8:15:00 AM 4.46 40.028 0.291 7.09 21.2 12.76
2/26/2021 8:30:00 AM 4.45 40.01 0.29 7.08 22.57 12.79
2/26/2021 8:45:00 AM 4.46 40.028 0.289 7.08 22.2 12.8
2/26/2021 9:00:00 AM 4.47 40.046 0.287 7.08 23.5 12.82
2/26/2021 9:15:00 AM 4.48 40.064 0.286 7.09 23.33 12.84
2/26/2021 9:30:00 AM 4.5 40.1 0.285 7.09 22.48 12.86
2/26/2021 9:45:00 AM 4.52 40.136 0.285 7.09 23.13 12.87
2/26/2021 10:00:00 AM 4.55 40.19 0.285 7.09 26.93 12.88
2/26/2021 10:15:00 AM 4.58 40.244 0.284 7.1 19.2 12.91
2/26/2021 10:30:00 AM 4.62 40.316 0.283 7.11 23.21 12.93
2/26/2021 10:45:00 AM 4.67 40.406 0.282 7.1 29.35 12.9
2/26/2021 11:00:00 AM 4.73 40.514 0.281 7.11 22.69 12.92
2/26/2021 11:15:00 AM 4.77 40.586 0.28 7.1 23.72 12.91
2/26/2021 11:30:00 AM 4.82 40.676 0.279 7.11 23.54 12.93
2/26/2021 11:45:00 AM 4.88 40.784 0.278 7.1 23.33 12.95
2/26/2021 12:00:00 PM 4.93 40.874 0.277 7.1 23.54 12.94
2/26/2021 12:15:00 PM 4.98 40.964 0.277 7.11 21.98 12.95
2/26/2021 12:30:00 PM 5.03 41.054 0.276 7.1 22.79 12.95
2/26/2021 12:45:00 PM 5.07 41.126 0.275 7.11 21.97 12.97
2/26/2021 1:00:00 PM 5.1 41.18 0.275 7.11 20.01 12.97
2/26/2021 1:15:00 PM 5.12 41.216 0.274 7.12 22.9 12.98
2/26/2021 1:30:00 PM 5.15 41.27 0.274 7.11 22.69 12.98
2/26/2021 1:45:00 PM 5.18 41.324 0.274 7.12 22.9 12.99
2/26/2021 2:00:00 PM 5.22 41.396 0.273 7.13 22.18 13
2/26/2021 2:15:00 PM 5.24 41.432 0.273 7.11 19.59 13
2/26/2021 2:30:00 PM 5.26 41.468 0.273 7.11 22.52 13.02
2/26/2021 2:45:00 PM 5.27 41.486 0.273 7.13 21.32 13.01
2/26/2021 3:00:00 PM 5.27 41.486 0.273 7.13 20.51 13.02
2/26/2021 3:15:00 PM 5.28 41.504 0.272 7.14 20.29 12.99
2/26/2021 3:30:00 PM 5.29 41.522 0.272 7.13 19.51 12.99
2/26/2021 3:45:00 PM 5.3 41.54 0.272 7.13 18.99 13
2/26/2021 4:00:00 PM 5.29 41.522 0.272 7.13 19.1 13.02
2/26/2021 4:15:00 PM 5.28 41.504 0.272 7.12 21 13.03
2/26/2021 4:30:00 PM 5.27 41.486 0.272 7.13 19.51 13.02
2/26/2021 4:45:00 PM 5.26 41.468 0.272 7.13 19.27 13.01
2/26/2021 5:00:00 PM 5.25 41.45 0.272 7.12 21.39 13
2/26/2021 5:15:00 PM 5.23 41.414 0.272 7.13 19.24 13.03
2/26/2021 5:30:00 PM 5.22 41.396 0.272 7.14 18.41 13.03
2/26/2021 5:45:00 PM 5.21 41.378 0.272 7.14 18.81 13.03
2/26/2021 6:00:00 PM 5.2 41.36 0.272 7.12 18.2 13.03
2/26/2021 6:15:00 PM 5.18 41.324 0.272 7.13 17.76 13
2/26/2021 6:30:00 PM 5.17 41.306 0.272 7.12 16.26 13.01
2/26/2021 6:45:00 PM 5.16 41.288 0.273 7.13 17.36 13.02
2/26/2021 7:00:00 PM 5.14 41.252 0.273 7.13 17.01 13.01
2/26/2021 7:15:00 PM 5.13 41.234 0.273 7.13 17.11 13.03
2/26/2021 7:30:00 PM 5.11 41.198 0.273 7.12 18.66 13.01
2/26/2021 7:45:00 PM 5.1 41.18 0.273 7.13 17.22 13.01
2/26/2021 8:00:00 PM 5.08 41.144 0.273 7.13 16.77 13.02
2/26/2021 8:15:00 PM 5.07 41.126 0.274 7.13 16.51 12.99
2/26/2021 8:30:00 PM 5.05 41.09 0.274 7.13 17.77 13.02
2/26/2021 8:45:00 PM 5.03 41.054 0.274 7.13 15.6 12.98
2/26/2021 9:00:00 PM 5.01 41.018 0.274 7.14 15.84 13
2/26/2021 9:15:00 PM 4.99 40.982 0.274 7.12 16.91 13
2/26/2021 9:30:00 PM 4.97 40.946 0.275 7.13 17.16 12.99
2/26/2021 9:45:00 PM 4.96 40.928 0.275 7.13 15.2 12.99
2/26/2021 10:00:00 PM 4.94 40.892 0.275 7.13 15.81 12.99
2/26/2021 10:15:00 PM 4.92 40.856 0.275 7.12 18.77 12.98
2/26/2021 10:30:00 PM 4.9 40.82 0.275 7.12 17.09 12.97
2/26/2021 10:45:00 PM 4.89 40.802 0.275 7.12 18.81 12.98
2/26/2021 11:00:00 PM 4.87 40.766 0.275 7.13 16.12 12.97
2/26/2021 11:15:00 PM 4.86 40.748 0.275 7.12 15.58 12.97
2/26/2021 11:30:00 PM 4.85 40.73 0.275 7.15 14.78 12.97
2/26/2021 11:45:00 PM 4.84 40.712 0.276 7.15 17.17 12.96
2/27/2021 12:00:00 AM 4.83 40.694 0.276 7.14 16.26 12.94
2/27/2021 12:15:00 AM 4.82 40.676 0.276 7.14 17.27 12.95
2/27/2021 12:30:00 AM 4.81 40.658 0.276 7.14 16.38 12.94
2/27/2021 12:45:00 AM 4.8 40.64 0.276 7.15 14.88 12.94
2/27/2021 1:00:00 AM 4.8 40.64 0.276 7.14 15.77 12.93
2/27/2021 1:15:00 AM 4.79 40.622 0.276 7.15 14.95 12.92
2/27/2021 1:30:00 AM 4.78 40.604 0.276 7.15 15.63 12.91
2/27/2021 1:45:00 AM 4.77 40.586 0.276 7.15 14.94 12.89
2/27/2021 2:00:00 AM 4.76 40.568 0.276 7.14 15.55 12.9
2/27/2021 2:15:00 AM 4.75 40.55 0.277 7.14 14.95 12.9
2/27/2021 2:30:00 AM 4.74 40.532 0.277 7.15 15.58 12.87
2/27/2021 2:45:00 AM 4.73 40.514 0.277 7.15 14.4 12.88
2/27/2021 3:00:00 AM 4.74 40.532 0.277 7.15 16.12 12.87
2/27/2021 3:15:00 AM 4.74 40.532 0.277 7.14 15.41 12.87
2/27/2021 3:30:00 AM 4.73 40.514 0.277 7.14 15.53 12.88
2/27/2021 3:45:00 AM 4.74 40.532 0.277 7.13 16.3 12.86
2/27/2021 4:00:00 AM 4.74 40.532 0.276 7.13 13.28 12.82
2/27/2021 4:15:00 AM 4.75 40.55 0.277 7.14 14.04 12.83
2/27/2021 4:30:00 AM 4.75 40.55 0.277 7.14 16.26 12.84
2/27/2021 4:45:00 AM 4.75 40.55 0.277 7.14 13.93 12.84
2/27/2021 5:00:00 AM 4.75 40.55 0.277 7.14 14.77 12.82
2/27/2021 5:15:00 AM 4.75 40.55 0.277 7.14 16.73 12.8
2/27/2021 5:30:00 AM 4.74 40.532 0.277 7.14 14.71 12.81
2/27/2021 5:45:00 AM 4.74 40.532 0.277 7.14 14.11 12.81
2/27/2021 6:00:00 AM 4.74 40.532 0.277 7.14 14.12 12.8
2/27/2021 6:15:00 AM 4.73 40.514 0.278 7.14 16.3 12.79
2/27/2021 6:30:00 AM 4.73 40.514 0.278 7.13 14.9 12.79
2/27/2021 6:45:00 AM 4.73 40.514 0.278 7.13 14.97 12.77
2/27/2021 7:00:00 AM 4.73 40.514 0.278 7.12 14.85 12.76
2/27/2021 7:15:00 AM 4.73 40.514 0.278 7.13 14.31 12.74
2/27/2021 7:30:00 AM 4.73 40.514 0.278 7.14 12.77 12.77
2/27/2021 7:45:00 AM 4.73 40.514 0.278 7.14 13.53 12.76
2/27/2021 8:00:00 AM 4.73 40.514 0.278 7.14 11.96 12.75
2/27/2021 8:15:00 AM 4.74 40.532 0.278 7.14 13.41 12.76
2/27/2021 8:30:00 AM 4.74 40.532 0.278 7.14 12.05 12.75
2/27/2021 8:45:00 AM 4.75 40.55 0.278 7.14 13.91 12.75
2/27/2021 9:00:00 AM 4.76 40.568 0.278 7.13 13.19 12.77
2/27/2021 9:15:00 AM 4.77 40.586 0.278 7.14 12.44 12.76
2/27/2021 9:30:00 AM 4.78 40.604 0.278 7.13 13.06 12.77
2/27/2021 9:45:00 AM 4.79 40.622 0.278 7.14 10.77 12.77
2/27/2021 10:00:00 AM 4.82 40.676 0.278 7.14 12.04 12.78
2/27/2021 10:15:00 AM 4.84 40.712 0.279 7.14 13.35 12.77
2/27/2021 10:30:00 AM 4.86 40.748 0.279 7.14 12.01 12.79
2/27/2021 10:45:00 AM 4.88 40.784 0.279 7.14 13.67 12.79
2/27/2021 11:00:00 AM 4.91 40.838 0.279 7.14 11.36 12.77
2/27/2021 11:15:00 AM 4.94 40.892 0.279 7.15 12.05 12.79
2/27/2021 11:30:00 AM 4.96 40.928 0.28 7.16 11.54 12.8
2/27/2021 11:45:00 AM 5.01 41.018 0.28 7.16 14.68 12.83
2/27/2021 12:00:00 PM 5.05 41.09 0.28 7.16 11.37 12.85
2/27/2021 12:15:00 PM 5.09 41.162 0.28 7.16 12.03 12.85
2/27/2021 12:30:00 PM 5.14 41.252 0.28 7.15 12.07 12.87
2/27/2021 12:45:00 PM 5.18 41.324 0.28 7.16 12.09 12.85
2/27/2021 1:00:00 PM 5.25 41.45 0.28 7.17 10.78 12.86
2/27/2021 1:15:00 PM 5.34 41.612 0.28 7.17 11.61 12.88
2/27/2021 1:30:00 PM 5.4 41.72 0.28 7.17 10.98 12.9
2/27/2021 1:45:00 PM 5.44 41.792 0.28 7.18 11.51 12.88
2/27/2021 2:00:00 PM 5.47 41.846 0.28 7.18 10.96 12.89
2/27/2021 2:15:00 PM 5.53 41.954 0.28 7.19 11.26 12.89
2/27/2021 2:30:00 PM 5.64 42.152 0.28 7.21 11.37 12.9
2/27/2021 2:45:00 PM 5.72 42.296 0.28 7.2 12.46 12.89
2/27/2021 3:00:00 PM 5.81 42.458 0.28 7.21 12 12.91
2/27/2021 3:15:00 PM 5.87 42.566 0.281 7.21 11.13 12.91
2/27/2021 3:30:00 PM 5.92 42.656 0.281 7.21 10.55 12.9
2/27/2021 3:45:00 PM 5.97 42.746 0.281 7.22 10.8 12.91
2/27/2021 4:00:00 PM 6 42.8 0.282 7.22 10.9 12.89
2/27/2021 4:15:00 PM 5.99 42.782 0.282 7.21 10.9 12.89
2/27/2021 4:30:00 PM 5.98 42.764 0.283 7.23 11.78 12.86
2/27/2021 4:45:00 PM 5.97 42.746 0.283 7.22 11.37 12.83
2/27/2021 5:00:00 PM 5.95 42.71 0.284 7.21 11.94 12.79
2/27/2021 5:15:00 PM 5.95 42.71 0.284 7.21 12.06 12.77
2/27/2021 5:30:00 PM 5.96 42.728 0.285 7.21 11.8 12.75
2/27/2021 5:45:00 PM 5.97 42.746 0.285 7.23 11.19 12.72
2/27/2021 6:00:00 PM 5.97 42.746 0.285 7.22 11.21 12.72
2/27/2021 6:15:00 PM 5.96 42.728 0.286 7.22 10.96 12.71
2/27/2021 6:30:00 PM 5.95 42.71 0.286 7.21 11.94 12.71
2/27/2021 6:45:00 PM 5.93 42.674 0.287 7.22 11.44 12.74
2/27/2021 7:00:00 PM 5.9 42.62 0.287 7.22 11.86 12.73
2/27/2021 7:15:00 PM 5.88 42.584 0.288 7.22 11.66 12.7
2/27/2021 7:30:00 PM 5.87 42.566 0.288 7.22 11.95 12.73
2/27/2021 7:45:00 PM 5.85 42.53 0.288 7.22 12.47 12.75
2/27/2021 8:00:00 PM 5.83 42.494 0.288 7.22 11.14 12.76
2/27/2021 8:15:00 PM 5.8 42.44 0.289 7.21 10.74 12.76
2/27/2021 8:30:00 PM 5.77 42.386 0.289 7.21 13.66 12.75
2/27/2021 8:45:00 PM 5.75 42.35 0.289 7.21 11.15 12.72
2/27/2021 9:00:00 PM 5.72 42.296 0.29 7.22 11.6 12.74
2/27/2021 9:15:00 PM 5.69 42.242 0.29 7.21 10.88 12.71
2/27/2021 9:30:00 PM 5.66 42.188 0.29 7.21 11.26 12.7
2/27/2021 9:45:00 PM 5.64 42.152 0.29 7.21 12.14 12.71
2/27/2021 10:00:00 PM 5.61 42.098 0.29 7.22 11.01 12.7
2/27/2021 10:15:00 PM 5.58 42.044 0.291 7.21 11.46 12.68
2/27/2021 10:30:00 PM 5.56 42.008 0.291 7.21 10.13 12.69
2/27/2021 10:45:00 PM 5.53 41.954 0.291 7.2 11.76 12.65
2/27/2021 11:00:00 PM 5.51 41.918 0.291 7.2 11.76 12.68
2/27/2021 11:15:00 PM 5.49 41.882 0.291 7.2 12.27 12.69
2/27/2021 11:30:00 PM 5.48 41.864 0.291 7.2 10.4 12.67
2/27/2021 11:45:00 PM 5.46 41.828 0.291 7.18 12.74 12.64
2/28/2021 12:00:00 AM 5.44 41.792 0.291 7.18 12.07 12.66
2/28/2021 12:15:00 AM 5.42 41.756 0.291 7.18 11.83 12.66
2/28/2021 12:30:00 AM 5.4 41.72 0.291 7.18 13.92 12.64
2/28/2021 12:45:00 AM 5.39 41.702 0.291 7.18 12.5 12.62
2/28/2021 1:00:00 AM 5.37 41.666 0.291 7.17 10.92 12.61
2/28/2021 1:15:00 AM 5.36 41.648 0.291 7.17 11.86 12.61
2/28/2021 1:30:00 AM 5.35 41.63 0.291 7.16 10.57 12.65
2/28/2021 1:45:00 AM 5.33 41.594 0.291 7.17 10.92 12.6
2/28/2021 2:00:00 AM 5.32 41.576 0.291 7.15 11.68 12.61
2/28/2021 2:15:00 AM 5.31 41.558 0.291 7.15 12.18 12.63
2/28/2021 2:30:00 AM 5.3 41.54 0.292 7.14 11.48 12.59
2/28/2021 2:45:00 AM 5.29 41.522 0.292 7.15 11.43 12.62
2/28/2021 3:00:00 AM 5.28 41.504 0.292 7.13 12.97 12.62
2/28/2021 3:15:00 AM 5.28 41.504 0.292 7.13 11.02 12.62
2/28/2021 3:30:00 AM 5.27 41.486 0.292 7.14 12.11 12.6
2/28/2021 3:45:00 AM 5.27 41.486 0.293 7.13 12.2 12.58
2/28/2021 4:00:00 AM 5.27 41.486 0.293 7.14 13.27 12.6
2/28/2021 4:15:00 AM 5.26 41.468 0.293 7.14 11.02 12.59
2/28/2021 4:30:00 AM 5.26 41.468 0.293 7.13 11.39 12.59
2/28/2021 4:45:00 AM 5.26 41.468 0.293 7.14 11.44 12.58
2/28/2021 5:00:00 AM 5.26 41.468 0.294 7.13 12.68 12.58
2/28/2021 5:15:00 AM 5.26 41.468 0.294 7.13 12.18 12.56
2/28/2021 5:30:00 AM 5.26 41.468 0.294 7.13 13.04 12.57
2/28/2021 5:45:00 AM 5.26 41.468 0.294 7.12 12.01 12.57
2/28/2021 6:00:00 AM 5.27 41.486 0.294 7.08 11.73 12.57
2/28/2021 6:15:00 AM 5.27 41.486 0.294 7.08 13.15 12.57
2/28/2021 6:30:00 AM 5.27 41.486 0.295 7.09 12.81 12.55
2/28/2021 6:45:00 AM 5.27 41.486 0.295 7.08 13.57 12.54
2/28/2021 7:00:00 AM 5.27 41.486 0.295 7.08 14.51 12.54
2/28/2021 7:15:00 AM 5.27 41.486 0.295 7.08 11.93 12.55
2/28/2021 7:30:00 AM 5.27 41.486 0.295 7.09 13.03 12.54
2/28/2021 7:45:00 AM 5.27 41.486 0.295 7.08 12.08 12.55
2/28/2021 8:00:00 AM 5.27 41.486 0.295 7.07 13.03 12.54
2/28/2021 8:15:00 AM 5.28 41.504 0.295 7.09 16.6 12.56
2/28/2021 8:30:00 AM 5.29 41.522 0.295 7.07 13 12.57
2/28/2021 8:45:00 AM 5.29 41.522 0.295 7.09 12.65 12.56
2/28/2021 9:00:00 AM 5.3 41.54 0.295 7.12 12.75 12.56
2/28/2021 9:15:00 AM 5.3 41.54 0.295 7.09 13.24 12.55
2/28/2021 9:30:00 AM 5.3 41.54 0.295 7.09 13.58 12.55
2/28/2021 9:45:00 AM 5.3 41.54 0.295 7.08 14.74 12.56
2/28/2021 10:00:00 AM 5.3 41.54 0.295 7.07 14.38 12.56
2/28/2021 10:15:00 AM 5.3 41.54 0.294 7.08 13.81 12.55
2/28/2021 10:30:00 AM 5.3 41.54 0.294 7.08 13.31 12.56
2/28/2021 10:45:00 AM 5.31 41.558 0.293 7.08 14.59 12.57
2/28/2021 11:00:00 AM 5.31 41.558 0.293 7.08 14.61 12.56
2/28/2021 11:15:00 AM 5.31 41.558 0.293 7.09 13.54 12.56
2/28/2021 11:30:00 AM 5.32 41.576 0.292 7.09 12.73 12.55
2/28/2021 11:45:00 AM 5.32 41.576 0.292 7.09 14.31 12.55
2/28/2021 12:00:00 PM 5.33 41.594 0.292 7.08 13.54 12.57
2/28/2021 12:15:00 PM 5.33 41.594 0.292 7.08 13.2 12.56
2/28/2021 12:30:00 PM 5.33 41.594 0.291 7.08 13.71 12.55
2/28/2021 12:45:00 PM 5.33 41.594 0.291 7.07 14.5 12.52
2/28/2021 1:00:00 PM 5.34 41.612 0.29 7.08 13.83 12.55
2/28/2021 1:15:00 PM 5.35 41.63 0.29 7.08 13.89 12.56
2/28/2021 1:30:00 PM 5.35 41.63 0.29 7.08 15.26 12.54
2/28/2021 1:45:00 PM 5.35 41.63 0.289 7.08 14.99 12.57
2/28/2021 2:00:00 PM 5.35 41.63 0.289 7.08 16.19 12.54
2/28/2021 2:15:00 PM 5.34 41.612 0.289 7.08 15.35 12.54
2/28/2021 2:30:00 PM 5.33 41.594 0.289 7.07 16.83 12.52
2/28/2021 2:45:00 PM 5.33 41.594 0.288 7.1 17.07 12.54
2/28/2021 3:00:00 PM 5.33 41.594 0.288 7.1 19.26 12.55
2/28/2021 3:15:00 PM 5.32 41.576 0.287 7.1 20.04 12.54
2/28/2021 3:30:00 PM 5.32 41.576 0.287 7.1 18.46 12.53
2/28/2021 3:45:00 PM 5.32 41.576 0.286 7.09 20.37 12.53
2/28/2021 4:00:00 PM 5.33 41.594 0.286 7.09 19.24 12.53
2/28/2021 4:15:00 PM 5.33 41.594 0.286 7.1 19.21 12.55
2/28/2021 4:30:00 PM 5.32 41.576 0.286 7.09 21.08 12.53
2/28/2021 4:45:00 PM 5.32 41.576 0.286 7.09 19.36 12.55
2/28/2021 5:00:00 PM 5.31 41.558 0.287 7.09 23.53 12.5
2/28/2021 5:15:00 PM 5.3 41.54 0.287 7.08 22.66 12.51
2/28/2021 5:30:00 PM 5.29 41.522 0.287 7.08 29.36 12.5
2/28/2021 5:45:00 PM 5.28 41.504 0.287 7.08 30.07 12.53
2/28/2021 6:00:00 PM 5.26 41.468 0.288 7.07 37.4 12.5
2/28/2021 6:15:00 PM 5.24 41.432 0.287 7.07 38.57 12.51
2/28/2021 6:30:00 PM 5.23 41.414 0.287 7.07 41.89 12.52
2/28/2021 6:45:00 PM 5.21 41.378 0.287 7.05 41.78 12.52
2/28/2021 7:00:00 PM 5.19 41.342 0.286 7.05 47 12.52
2/28/2021 7:15:00 PM 5.17 41.306 0.285 7.03 51.79 12.55
2/28/2021 7:30:00 PM 5.16 41.288 0.284 6.97 50.29 12.54
2/28/2021 7:45:00 PM 5.14 41.252 0.282 6.86 45.73 12.54
2/28/2021 8:00:00 PM 5.13 41.234 0.281 6.86 51.25 12.55
2/28/2021 8:15:00 PM 5.11 41.198 0.279 6.66 41.32 12.58
2/28/2021 8:30:00 PM 5.1 41.18 0.278 6.83 60.94 12.54
2/28/2021 8:45:00 PM 5.09 41.162 0.277 6.95 42.8 12.43
2/28/2021 9:00:00 PM 5.08 41.144 0.276 6.98 37.25 12.38
2/28/2021 9:15:00 PM 5.07 41.126 0.275 6.99 36.17 12.25
2/28/2021 9:30:00 PM 5.05 41.09 0.274 6.95 43.68 12.34
2/28/2021 9:45:00 PM 5.03 41.054 0.273 6.95 43.29 12.23
2/28/2021 10:00:00 PM 5.01 41.018 0.272 6.96 49.93 12.07
2/28/2021 10:15:00 PM 4.99 40.982 0.27 6.96 53.97 12.28
2/28/2021 10:30:00 PM 4.98 40.964 0.27 6.96 51.28 12.09
2/28/2021 10:45:00 PM 4.96 40.928 0.269 6.93 53.98 12.1
2/28/2021 11:00:00 PM 4.96 40.928 0.268 6.94 58.37 11.83
2/28/2021 11:15:00 PM 4.94 40.892 0.266 6.94 53.83 11.76
2/28/2021 11:30:00 PM 4.94 40.892 0.265 6.98 58.22 11.62
2/28/2021 11:45:00 PM 4.93 40.874 0.264 6.97 66.42 11.51
3/1/2021 12:00:00 AM 4.93 40.874 0.262 6.96 51.41 11.15
3/1/2021 12:15:00 AM 4.92 40.856 0.261 6.96 62.37 10.89
3/1/2021 12:30:00 AM 4.92 40.856 0.26 6.97 62.89 10.67
3/1/2021 12:45:00 AM 4.92 40.856 0.258 6.97 60.79 9.86
3/1/2021 1:00:00 AM 4.92 40.856 0.257 6.97 56.93 10.13
3/1/2021 1:15:00 AM 4.88 40.784 0.256 6.97 70.43 10.46
3/1/2021 1:30:00 AM 4.86 40.748 0.255 6.97 74.88 10.81
3/1/2021 1:45:00 AM 4.88 40.784 0.253 6.98 66.81 10.48
3/1/2021 2:00:00 AM 4.87 40.766 0.251 6.97 65.73 10.32
3/1/2021 2:15:00 AM 4.87 40.766 0.25 6.97 67.17 9.71
3/1/2021 2:30:00 AM 4.87 40.766 0.25 6.95 72.15 9.92
3/1/2021 2:45:00 AM 4.87 40.766 0.25 6.97 74.59 9.27
3/1/2021 3:00:00 AM 4.86 40.748 0.25 6.98 66.76 9.66
3/1/2021 3:15:00 AM 4.85 40.73 0.248 6.98 64.99 10.1
3/1/2021 3:30:00 AM 4.86 40.748 0.248 6.98 76.79 10.54
3/1/2021 3:45:00 AM 4.85 40.73 0.247 6.96 61.36 9.87
3/1/2021 4:00:00 AM 4.83 40.694 0.247 6.96 76.69 10.86
3/1/2021 4:15:00 AM 4.83 40.694 0.247 6.97 75.38 10.16
3/1/2021 4:30:00 AM 4.83 40.694 0.248 6.96 82.85 10.24
3/1/2021 4:45:00 AM 4.81 40.658 0.249 6.95 88.02 10.34
3/1/2021 5:00:00 AM 4.78 40.604 0.249 6.95 85.55 10.96
3/1/2021 5:15:00 AM 4.79 40.622 0.25 6.93 87.77 11.56
3/1/2021 5:30:00 AM 4.78 40.604 0.25 6.92 85.99 11.38
3/1/2021 5:45:00 AM 4.78 40.604 0.25 6.92 94.32 11.04
3/1/2021 6:00:00 AM 4.79 40.622 0.25 6.91 80.03 10.45
3/1/2021 6:15:00 AM 4.78 40.604 0.249 6.91 89.24 10.72
3/1/2021 6:30:00 AM 4.78 40.604 0.249 6.93 84.26 11.01
3/1/2021 6:45:00 AM 4.77 40.586 0.248 6.93 87.27 11.06
3/1/2021 7:00:00 AM 4.77 40.586 0.245 6.92 86.05 11.05
3/1/2021 7:15:00 AM 4.77 40.586 0.242 6.94 90.03 11.42
3/1/2021 7:30:00 AM 4.77 40.586 0.239 6.94 84.79 11.58
3/1/2021 7:45:00 AM 4.78 40.604 0.237 6.95 90.97 11.39
3/1/2021 8:00:00 AM 4.78 40.604 0.235 6.94 83.93 11.68
3/1/2021 8:15:00 AM 4.78 40.604 0.234 6.93 72.52 11.22
3/1/2021 8:30:00 AM 4.79 40.622 0.234 6.94 81.67 11.04
3/1/2021 8:45:00 AM 4.79 40.622 0.233 6.94 79.43 11.1
3/1/2021 9:00:00 AM 4.8 40.64 0.232 6.93 81.69 10.94
3/1/2021 9:15:00 AM 4.8 40.64 0.232 6.93 74.36 10.79
3/1/2021 9:30:00 AM 4.81 40.658 0.231 6.93 87.1 10.78
3/1/2021 9:45:00 AM 4.81 40.658 0.232 6.93 69.16 10.34
3/1/2021 10:00:00 AM 4.82 40.676 0.232 6.93 73.23 10.16
3/1/2021 10:15:00 AM 4.83 40.694 0.233 6.93 81.76 10.01
3/1/2021 10:30:00 AM 4.83 40.694 0.233 6.94 68.2 9.61
3/1/2021 10:45:00 AM 4.84 40.712 0.233 6.92 82.51 9.48
3/1/2021 11:00:00 AM 4.85 40.73 0.232 6.93